<?xml version="1.0" encoding="UTF-8" standalone="no" ?>
<gpx xmlns="http://www.topografix.com/GPX/1/1" xmlns:xsi="http://www.w3.org/2001/XMLSchema-instance" xsi:schemaLocation="http://www.topografix.com/GPX/1/1 http://www.topografix.com/GPX/1/1/gpx.xsd" version="1.1" creator="VisuGPX - https://www.visugpx.com">
  <metadata>
    <name>Sainte Hilaire La Palud (étang Guerrin)10km</name>
  </metadata>
  <wpt lat="46.30082" lon="-0.73074">
    <ele>2</ele>
  </wpt>
  <wpt lat="46.2949" lon="-0.72652">
    <ele>2</ele>
  </wpt>
  <wpt lat="46.28964" lon="-0.7203">
    <ele>2</ele>
  </wpt>
  <wpt lat="46.27318" lon="-0.71366">
    <ele>3.8</ele>
  </wpt>
  <trk>
    <name><![CDATA[Sainte Hilaire La Palud (étang Guerrin)10km_1]]></name>
    <trkseg>
      <trkpt lat="46.2865" lon="-0.72434">
        <ele>55</ele>
        <time>2012-06-26T14:35:34Z</time>
      </trkpt>
      <trkpt lat="46.28649" lon="-0.72437">
        <ele>54</ele>
        <time>2012-06-26T14:35:38Z</time>
      </trkpt>
      <trkpt lat="46.28654" lon="-0.72446">
        <ele>56</ele>
        <time>2012-06-26T14:35:43Z</time>
      </trkpt>
      <trkpt lat="46.28654" lon="-0.72451">
        <ele>57</ele>
        <time>2012-06-26T14:35:48Z</time>
      </trkpt>
      <trkpt lat="46.28654" lon="-0.7245">
        <ele>59</ele>
        <time>2012-06-26T14:35:53Z</time>
      </trkpt>
      <trkpt lat="46.28655" lon="-0.7245">
        <ele>59</ele>
        <time>2012-06-26T14:35:58Z</time>
      </trkpt>
      <trkpt lat="46.28655" lon="-0.72453">
        <ele>61</ele>
        <time>2012-06-26T14:36:03Z</time>
      </trkpt>
      <trkpt lat="46.28651" lon="-0.72459">
        <ele>63</ele>
        <time>2012-06-26T14:36:08Z</time>
      </trkpt>
      <trkpt lat="46.28648" lon="-0.72465">
        <ele>66</ele>
        <time>2012-06-26T14:36:13Z</time>
      </trkpt>
      <trkpt lat="46.28646" lon="-0.72467">
        <ele>67</ele>
        <time>2012-06-26T14:36:18Z</time>
      </trkpt>
      <trkpt lat="46.28641" lon="-0.72472">
        <ele>65</ele>
        <time>2012-06-26T14:36:23Z</time>
      </trkpt>
      <trkpt lat="46.28638" lon="-0.72475">
        <ele>63</ele>
        <time>2012-06-26T14:36:28Z</time>
      </trkpt>
      <trkpt lat="46.28637" lon="-0.72478">
        <ele>61</ele>
        <time>2012-06-26T14:36:33Z</time>
      </trkpt>
      <trkpt lat="46.28633" lon="-0.72483">
        <ele>60</ele>
        <time>2012-06-26T14:36:38Z</time>
      </trkpt>
      <trkpt lat="46.28632" lon="-0.72489">
        <ele>59</ele>
        <time>2012-06-26T14:36:43Z</time>
      </trkpt>
      <trkpt lat="46.2863" lon="-0.72494">
        <ele>58</ele>
        <time>2012-06-26T14:36:48Z</time>
      </trkpt>
      <trkpt lat="46.28629" lon="-0.72502">
        <ele>61</ele>
        <time>2012-06-26T14:36:53Z</time>
      </trkpt>
      <trkpt lat="46.28625" lon="-0.72509">
        <ele>61</ele>
        <time>2012-06-26T14:36:58Z</time>
      </trkpt>
      <trkpt lat="46.28615" lon="-0.7252">
        <ele>70</ele>
        <time>2012-06-26T14:37:03Z</time>
      </trkpt>
      <trkpt lat="46.28611" lon="-0.72525">
        <ele>74</ele>
        <time>2012-06-26T14:37:08Z</time>
      </trkpt>
      <trkpt lat="46.28608" lon="-0.72526">
        <ele>77</ele>
        <time>2012-06-26T14:37:13Z</time>
      </trkpt>
      <trkpt lat="46.28603" lon="-0.72527">
        <ele>78</ele>
        <time>2012-06-26T14:37:18Z</time>
      </trkpt>
      <trkpt lat="46.286" lon="-0.72532">
        <ele>81</ele>
        <time>2012-06-26T14:37:23Z</time>
      </trkpt>
      <trkpt lat="46.28594" lon="-0.72535">
        <ele>82</ele>
        <time>2012-06-26T14:37:28Z</time>
      </trkpt>
      <trkpt lat="46.28592" lon="-0.72537">
        <ele>80</ele>
        <time>2012-06-26T14:37:33Z</time>
      </trkpt>
      <trkpt lat="46.28588" lon="-0.72539">
        <ele>79</ele>
        <time>2012-06-26T14:37:38Z</time>
      </trkpt>
      <trkpt lat="46.28585" lon="-0.72546">
        <ele>78</ele>
        <time>2012-06-26T14:37:43Z</time>
      </trkpt>
      <trkpt lat="46.28584" lon="-0.72547">
        <ele>77</ele>
        <time>2012-06-26T14:37:48Z</time>
      </trkpt>
      <trkpt lat="46.28585" lon="-0.72548">
        <ele>77</ele>
        <time>2012-06-26T14:37:53Z</time>
      </trkpt>
      <trkpt lat="46.28579" lon="-0.72551">
        <ele>77</ele>
        <time>2012-06-26T14:37:58Z</time>
      </trkpt>
      <trkpt lat="46.28575" lon="-0.72548">
        <ele>74</ele>
        <time>2012-06-26T14:38:03Z</time>
      </trkpt>
      <trkpt lat="46.28571" lon="-0.72559">
        <ele>72</ele>
        <time>2012-06-26T14:38:08Z</time>
      </trkpt>
      <trkpt lat="46.28578" lon="-0.72576">
        <ele>69</ele>
        <time>2012-06-26T14:38:13Z</time>
      </trkpt>
      <trkpt lat="46.28579" lon="-0.72585">
        <ele>66</ele>
        <time>2012-06-26T14:38:18Z</time>
      </trkpt>
      <trkpt lat="46.28581" lon="-0.72592">
        <ele>65</ele>
        <time>2012-06-26T14:38:23Z</time>
      </trkpt>
      <trkpt lat="46.28582" lon="-0.72596">
        <ele>65</ele>
        <time>2012-06-26T14:38:28Z</time>
      </trkpt>
      <trkpt lat="46.28584" lon="-0.72595">
        <ele>63</ele>
        <time>2012-06-26T14:38:33Z</time>
      </trkpt>
      <trkpt lat="46.28584" lon="-0.72596">
        <ele>62</ele>
        <time>2012-06-26T14:38:38Z</time>
      </trkpt>
      <trkpt lat="46.28584" lon="-0.72597">
        <ele>61</ele>
        <time>2012-06-26T14:38:43Z</time>
      </trkpt>
      <trkpt lat="46.28585" lon="-0.72597">
        <ele>62</ele>
        <time>2012-06-26T14:39:38Z</time>
      </trkpt>
      <trkpt lat="46.28585" lon="-0.72598">
        <ele>60</ele>
        <time>2012-06-26T14:39:43Z</time>
      </trkpt>
      <trkpt lat="46.28585" lon="-0.72598">
        <ele>60</ele>
        <time>2012-06-26T14:39:48Z</time>
      </trkpt>
      <trkpt lat="46.28585" lon="-0.72598">
        <ele>61</ele>
        <time>2012-06-26T14:39:58Z</time>
      </trkpt>
      <trkpt lat="46.28584" lon="-0.726">
        <ele>61</ele>
        <time>2012-06-26T14:40:08Z</time>
      </trkpt>
      <trkpt lat="46.28586" lon="-0.72607">
        <ele>61</ele>
        <time>2012-06-26T14:40:13Z</time>
      </trkpt>
      <trkpt lat="46.28587" lon="-0.72604">
        <ele>59</ele>
        <time>2012-06-26T14:40:18Z</time>
      </trkpt>
      <trkpt lat="46.28589" lon="-0.72603">
        <ele>59</ele>
        <time>2012-06-26T14:40:23Z</time>
      </trkpt>
      <trkpt lat="46.28589" lon="-0.72603">
        <ele>60</ele>
        <time>2012-06-26T14:40:38Z</time>
      </trkpt>
      <trkpt lat="46.28589" lon="-0.72603">
        <ele>60</ele>
        <time>2012-06-26T14:41:18Z</time>
      </trkpt>
      <trkpt lat="46.28589" lon="-0.72603">
        <ele>60</ele>
        <time>2012-06-26T14:41:28Z</time>
      </trkpt>
      <trkpt lat="46.28593" lon="-0.72613">
        <ele>61</ele>
        <time>2012-06-26T14:41:33Z</time>
      </trkpt>
      <trkpt lat="46.28594" lon="-0.72617">
        <ele>61</ele>
        <time>2012-06-26T14:41:38Z</time>
      </trkpt>
      <trkpt lat="46.286" lon="-0.72621">
        <ele>60</ele>
        <time>2012-06-26T14:41:43Z</time>
      </trkpt>
      <trkpt lat="46.28602" lon="-0.72625">
        <ele>59</ele>
        <time>2012-06-26T14:41:48Z</time>
      </trkpt>
      <trkpt lat="46.28609" lon="-0.7263">
        <ele>59</ele>
        <time>2012-06-26T14:41:53Z</time>
      </trkpt>
      <trkpt lat="46.28612" lon="-0.72637">
        <ele>62</ele>
        <time>2012-06-26T14:41:58Z</time>
      </trkpt>
      <trkpt lat="46.28614" lon="-0.72639">
        <ele>64</ele>
        <time>2012-06-26T14:42:03Z</time>
      </trkpt>
      <trkpt lat="46.28617" lon="-0.72645">
        <ele>64</ele>
        <time>2012-06-26T14:42:08Z</time>
      </trkpt>
      <trkpt lat="46.28621" lon="-0.72649">
        <ele>62</ele>
        <time>2012-06-26T14:42:13Z</time>
      </trkpt>
      <trkpt lat="46.28625" lon="-0.72654">
        <ele>61</ele>
        <time>2012-06-26T14:42:18Z</time>
      </trkpt>
      <trkpt lat="46.28629" lon="-0.72657">
        <ele>60</ele>
        <time>2012-06-26T14:42:23Z</time>
      </trkpt>
      <trkpt lat="46.2863" lon="-0.72658">
        <ele>59</ele>
        <time>2012-06-26T14:42:28Z</time>
      </trkpt>
      <trkpt lat="46.28632" lon="-0.72662">
        <ele>59</ele>
        <time>2012-06-26T14:42:33Z</time>
      </trkpt>
      <trkpt lat="46.28637" lon="-0.72664">
        <ele>61</ele>
        <time>2012-06-26T14:42:38Z</time>
      </trkpt>
      <trkpt lat="46.2864" lon="-0.72667">
        <ele>61</ele>
        <time>2012-06-26T14:42:43Z</time>
      </trkpt>
      <trkpt lat="46.28644" lon="-0.72671">
        <ele>60</ele>
        <time>2012-06-26T14:42:48Z</time>
      </trkpt>
      <trkpt lat="46.28651" lon="-0.72674">
        <ele>59</ele>
        <time>2012-06-26T14:42:53Z</time>
      </trkpt>
      <trkpt lat="46.28655" lon="-0.72678">
        <ele>59</ele>
        <time>2012-06-26T14:42:58Z</time>
      </trkpt>
      <trkpt lat="46.2866" lon="-0.72681">
        <ele>58</ele>
        <time>2012-06-26T14:43:03Z</time>
      </trkpt>
      <trkpt lat="46.28662" lon="-0.72686">
        <ele>58</ele>
        <time>2012-06-26T14:43:08Z</time>
      </trkpt>
      <trkpt lat="46.28665" lon="-0.72691">
        <ele>57</ele>
        <time>2012-06-26T14:43:13Z</time>
      </trkpt>
      <trkpt lat="46.28669" lon="-0.72696">
        <ele>55</ele>
        <time>2012-06-26T14:43:18Z</time>
      </trkpt>
      <trkpt lat="46.28674" lon="-0.727">
        <ele>54</ele>
        <time>2012-06-26T14:43:23Z</time>
      </trkpt>
      <trkpt lat="46.28677" lon="-0.72704">
        <ele>53</ele>
        <time>2012-06-26T14:43:28Z</time>
      </trkpt>
      <trkpt lat="46.28678" lon="-0.72708">
        <ele>55</ele>
        <time>2012-06-26T14:43:33Z</time>
      </trkpt>
      <trkpt lat="46.28682" lon="-0.72713">
        <ele>55</ele>
        <time>2012-06-26T14:43:38Z</time>
      </trkpt>
      <trkpt lat="46.28685" lon="-0.72718">
        <ele>56</ele>
        <time>2012-06-26T14:43:43Z</time>
      </trkpt>
      <trkpt lat="46.2869" lon="-0.72721">
        <ele>54</ele>
        <time>2012-06-26T14:43:48Z</time>
      </trkpt>
      <trkpt lat="46.28694" lon="-0.72726">
        <ele>54</ele>
        <time>2012-06-26T14:43:53Z</time>
      </trkpt>
      <trkpt lat="46.287" lon="-0.72729">
        <ele>53</ele>
        <time>2012-06-26T14:43:58Z</time>
      </trkpt>
      <trkpt lat="46.28706" lon="-0.72729">
        <ele>52</ele>
        <time>2012-06-26T14:44:03Z</time>
      </trkpt>
      <trkpt lat="46.28711" lon="-0.72732">
        <ele>49</ele>
        <time>2012-06-26T14:44:08Z</time>
      </trkpt>
      <trkpt lat="46.28717" lon="-0.72735">
        <ele>50</ele>
        <time>2012-06-26T14:44:13Z</time>
      </trkpt>
      <trkpt lat="46.2872" lon="-0.72737">
        <ele>50</ele>
        <time>2012-06-26T14:44:18Z</time>
      </trkpt>
      <trkpt lat="46.28723" lon="-0.72738">
        <ele>50</ele>
        <time>2012-06-26T14:44:23Z</time>
      </trkpt>
      <trkpt lat="46.28726" lon="-0.72739">
        <ele>47</ele>
        <time>2012-06-26T14:44:28Z</time>
      </trkpt>
      <trkpt lat="46.28728" lon="-0.72742">
        <ele>48</ele>
        <time>2012-06-26T14:44:33Z</time>
      </trkpt>
      <trkpt lat="46.28731" lon="-0.72745">
        <ele>47</ele>
        <time>2012-06-26T14:44:38Z</time>
      </trkpt>
      <trkpt lat="46.28739" lon="-0.72754">
        <ele>49</ele>
        <time>2012-06-26T14:44:43Z</time>
      </trkpt>
      <trkpt lat="46.28747" lon="-0.7276">
        <ele>51</ele>
        <time>2012-06-26T14:44:48Z</time>
      </trkpt>
      <trkpt lat="46.28749" lon="-0.72764">
        <ele>53</ele>
        <time>2012-06-26T14:44:53Z</time>
      </trkpt>
      <trkpt lat="46.28754" lon="-0.7277">
        <ele>53</ele>
        <time>2012-06-26T14:44:58Z</time>
      </trkpt>
      <trkpt lat="46.28756" lon="-0.72779">
        <ele>53</ele>
        <time>2012-06-26T14:45:03Z</time>
      </trkpt>
      <trkpt lat="46.28758" lon="-0.72785">
        <ele>53</ele>
        <time>2012-06-26T14:45:08Z</time>
      </trkpt>
      <trkpt lat="46.28761" lon="-0.72794">
        <ele>55</ele>
        <time>2012-06-26T14:45:13Z</time>
      </trkpt>
      <trkpt lat="46.28763" lon="-0.72799">
        <ele>56</ele>
        <time>2012-06-26T14:45:18Z</time>
      </trkpt>
      <trkpt lat="46.28764" lon="-0.72804">
        <ele>57</ele>
        <time>2012-06-26T14:45:23Z</time>
      </trkpt>
      <trkpt lat="46.28767" lon="-0.72808">
        <ele>57</ele>
        <time>2012-06-26T14:45:28Z</time>
      </trkpt>
      <trkpt lat="46.28775" lon="-0.72812">
        <ele>57</ele>
        <time>2012-06-26T14:45:33Z</time>
      </trkpt>
      <trkpt lat="46.28777" lon="-0.72816">
        <ele>59</ele>
        <time>2012-06-26T14:45:38Z</time>
      </trkpt>
      <trkpt lat="46.2878" lon="-0.72821">
        <ele>59</ele>
        <time>2012-06-26T14:45:43Z</time>
      </trkpt>
      <trkpt lat="46.28786" lon="-0.72826">
        <ele>59</ele>
        <time>2012-06-26T14:45:48Z</time>
      </trkpt>
      <trkpt lat="46.28792" lon="-0.72834">
        <ele>61</ele>
        <time>2012-06-26T14:45:53Z</time>
      </trkpt>
      <trkpt lat="46.28795" lon="-0.72841">
        <ele>62</ele>
        <time>2012-06-26T14:45:58Z</time>
      </trkpt>
      <trkpt lat="46.28799" lon="-0.72848">
        <ele>64</ele>
        <time>2012-06-26T14:46:03Z</time>
      </trkpt>
      <trkpt lat="46.28802" lon="-0.72851">
        <ele>64</ele>
        <time>2012-06-26T14:46:08Z</time>
      </trkpt>
      <trkpt lat="46.28805" lon="-0.72851">
        <ele>62</ele>
        <time>2012-06-26T14:46:13Z</time>
      </trkpt>
      <trkpt lat="46.28806" lon="-0.72851">
        <ele>62</ele>
        <time>2012-06-26T14:46:18Z</time>
      </trkpt>
      <trkpt lat="46.28807" lon="-0.72853">
        <ele>59</ele>
        <time>2012-06-26T14:46:23Z</time>
      </trkpt>
      <trkpt lat="46.28811" lon="-0.72855">
        <ele>59</ele>
        <time>2012-06-26T14:46:28Z</time>
      </trkpt>
      <trkpt lat="46.28821" lon="-0.72862">
        <ele>62</ele>
        <time>2012-06-26T14:46:33Z</time>
      </trkpt>
      <trkpt lat="46.28829" lon="-0.72869">
        <ele>62</ele>
        <time>2012-06-26T14:46:38Z</time>
      </trkpt>
      <trkpt lat="46.28836" lon="-0.72878">
        <ele>62</ele>
        <time>2012-06-26T14:46:43Z</time>
      </trkpt>
      <trkpt lat="46.28842" lon="-0.72888">
        <ele>63</ele>
        <time>2012-06-26T14:46:48Z</time>
      </trkpt>
      <trkpt lat="46.28846" lon="-0.72893">
        <ele>62</ele>
        <time>2012-06-26T14:46:53Z</time>
      </trkpt>
      <trkpt lat="46.28851" lon="-0.729">
        <ele>61</ele>
        <time>2012-06-26T14:46:58Z</time>
      </trkpt>
      <trkpt lat="46.28854" lon="-0.72905">
        <ele>61</ele>
        <time>2012-06-26T14:47:03Z</time>
      </trkpt>
      <trkpt lat="46.2886" lon="-0.7291">
        <ele>61</ele>
        <time>2012-06-26T14:47:08Z</time>
      </trkpt>
      <trkpt lat="46.28864" lon="-0.72918">
        <ele>61</ele>
        <time>2012-06-26T14:47:13Z</time>
      </trkpt>
      <trkpt lat="46.28868" lon="-0.72921">
        <ele>57</ele>
        <time>2012-06-26T14:47:18Z</time>
      </trkpt>
      <trkpt lat="46.28873" lon="-0.72926">
        <ele>57</ele>
        <time>2012-06-26T14:47:23Z</time>
      </trkpt>
      <trkpt lat="46.28877" lon="-0.72931">
        <ele>56</ele>
        <time>2012-06-26T14:47:28Z</time>
      </trkpt>
      <trkpt lat="46.28883" lon="-0.72936">
        <ele>56</ele>
        <time>2012-06-26T14:47:33Z</time>
      </trkpt>
      <trkpt lat="46.28888" lon="-0.72941">
        <ele>54</ele>
        <time>2012-06-26T14:47:38Z</time>
      </trkpt>
      <trkpt lat="46.28893" lon="-0.72945">
        <ele>54</ele>
        <time>2012-06-26T14:47:43Z</time>
      </trkpt>
      <trkpt lat="46.28897" lon="-0.72949">
        <ele>55</ele>
        <time>2012-06-26T14:47:48Z</time>
      </trkpt>
      <trkpt lat="46.28903" lon="-0.72953">
        <ele>56</ele>
        <time>2012-06-26T14:47:53Z</time>
      </trkpt>
      <trkpt lat="46.28906" lon="-0.72959">
        <ele>57</ele>
        <time>2012-06-26T14:47:58Z</time>
      </trkpt>
      <trkpt lat="46.28912" lon="-0.72963">
        <ele>56</ele>
        <time>2012-06-26T14:48:03Z</time>
      </trkpt>
      <trkpt lat="46.28918" lon="-0.72969">
        <ele>56</ele>
        <time>2012-06-26T14:48:08Z</time>
      </trkpt>
      <trkpt lat="46.28921" lon="-0.72972">
        <ele>57</ele>
        <time>2012-06-26T14:48:13Z</time>
      </trkpt>
      <trkpt lat="46.28925" lon="-0.72978">
        <ele>58</ele>
        <time>2012-06-26T14:48:18Z</time>
      </trkpt>
      <trkpt lat="46.28927" lon="-0.72982">
        <ele>59</ele>
        <time>2012-06-26T14:48:23Z</time>
      </trkpt>
      <trkpt lat="46.28931" lon="-0.72986">
        <ele>59</ele>
        <time>2012-06-26T14:48:28Z</time>
      </trkpt>
      <trkpt lat="46.28934" lon="-0.7299">
        <ele>60</ele>
        <time>2012-06-26T14:48:33Z</time>
      </trkpt>
      <trkpt lat="46.28938" lon="-0.72995">
        <ele>60</ele>
        <time>2012-06-26T14:48:38Z</time>
      </trkpt>
      <trkpt lat="46.28941" lon="-0.73001">
        <ele>61</ele>
        <time>2012-06-26T14:48:43Z</time>
      </trkpt>
      <trkpt lat="46.28947" lon="-0.73009">
        <ele>60</ele>
        <time>2012-06-26T14:48:48Z</time>
      </trkpt>
      <trkpt lat="46.28954" lon="-0.7302">
        <ele>61</ele>
        <time>2012-06-26T14:48:53Z</time>
      </trkpt>
      <trkpt lat="46.28958" lon="-0.73029">
        <ele>59</ele>
        <time>2012-06-26T14:48:58Z</time>
      </trkpt>
      <trkpt lat="46.28963" lon="-0.73037">
        <ele>58</ele>
        <time>2012-06-26T14:49:03Z</time>
      </trkpt>
      <trkpt lat="46.28968" lon="-0.73041">
        <ele>59</ele>
        <time>2012-06-26T14:49:08Z</time>
      </trkpt>
      <trkpt lat="46.2897" lon="-0.73047">
        <ele>62</ele>
        <time>2012-06-26T14:49:13Z</time>
      </trkpt>
      <trkpt lat="46.28975" lon="-0.73054">
        <ele>60</ele>
        <time>2012-06-26T14:49:18Z</time>
      </trkpt>
      <trkpt lat="46.28976" lon="-0.73059">
        <ele>58</ele>
        <time>2012-06-26T14:49:23Z</time>
      </trkpt>
      <trkpt lat="46.28979" lon="-0.73064">
        <ele>58</ele>
        <time>2012-06-26T14:49:28Z</time>
      </trkpt>
      <trkpt lat="46.28986" lon="-0.73068">
        <ele>55</ele>
        <time>2012-06-26T14:49:33Z</time>
      </trkpt>
      <trkpt lat="46.2899" lon="-0.7307">
        <ele>52</ele>
        <time>2012-06-26T14:49:38Z</time>
      </trkpt>
      <trkpt lat="46.28993" lon="-0.73075">
        <ele>51</ele>
        <time>2012-06-26T14:49:43Z</time>
      </trkpt>
      <trkpt lat="46.29" lon="-0.73079">
        <ele>52</ele>
        <time>2012-06-26T14:49:48Z</time>
      </trkpt>
      <trkpt lat="46.29006" lon="-0.73084">
        <ele>54</ele>
        <time>2012-06-26T14:49:53Z</time>
      </trkpt>
      <trkpt lat="46.29011" lon="-0.73091">
        <ele>58</ele>
        <time>2012-06-26T14:49:58Z</time>
      </trkpt>
      <trkpt lat="46.29015" lon="-0.73094">
        <ele>61</ele>
        <time>2012-06-26T14:50:03Z</time>
      </trkpt>
      <trkpt lat="46.29015" lon="-0.731">
        <ele>62</ele>
        <time>2012-06-26T14:50:08Z</time>
      </trkpt>
      <trkpt lat="46.29015" lon="-0.73103">
        <ele>63</ele>
        <time>2012-06-26T14:50:13Z</time>
      </trkpt>
      <trkpt lat="46.29016" lon="-0.73105">
        <ele>64</ele>
        <time>2012-06-26T14:50:18Z</time>
      </trkpt>
      <trkpt lat="46.2902" lon="-0.73108">
        <ele>65</ele>
        <time>2012-06-26T14:50:23Z</time>
      </trkpt>
      <trkpt lat="46.29024" lon="-0.73113">
        <ele>66</ele>
        <time>2012-06-26T14:50:28Z</time>
      </trkpt>
      <trkpt lat="46.29027" lon="-0.73116">
        <ele>67</ele>
        <time>2012-06-26T14:50:33Z</time>
      </trkpt>
      <trkpt lat="46.29032" lon="-0.73119">
        <ele>67</ele>
        <time>2012-06-26T14:50:38Z</time>
      </trkpt>
      <trkpt lat="46.29038" lon="-0.73125">
        <ele>73</ele>
        <time>2012-06-26T14:50:43Z</time>
      </trkpt>
      <trkpt lat="46.29046" lon="-0.73128">
        <ele>71</ele>
        <time>2012-06-26T14:50:48Z</time>
      </trkpt>
      <trkpt lat="46.29056" lon="-0.73128">
        <ele>67</ele>
        <time>2012-06-26T14:50:53Z</time>
      </trkpt>
      <trkpt lat="46.29063" lon="-0.73133">
        <ele>70</ele>
        <time>2012-06-26T14:50:58Z</time>
      </trkpt>
      <trkpt lat="46.29065" lon="-0.7314">
        <ele>68</ele>
        <time>2012-06-26T14:51:03Z</time>
      </trkpt>
      <trkpt lat="46.29068" lon="-0.73144">
        <ele>68</ele>
        <time>2012-06-26T14:51:08Z</time>
      </trkpt>
      <trkpt lat="46.2907" lon="-0.73145">
        <ele>69</ele>
        <time>2012-06-26T14:51:13Z</time>
      </trkpt>
      <trkpt lat="46.29073" lon="-0.73147">
        <ele>68</ele>
        <time>2012-06-26T14:51:18Z</time>
      </trkpt>
      <trkpt lat="46.29078" lon="-0.73151">
        <ele>68</ele>
        <time>2012-06-26T14:51:23Z</time>
      </trkpt>
      <trkpt lat="46.29082" lon="-0.73155">
        <ele>67</ele>
        <time>2012-06-26T14:51:28Z</time>
      </trkpt>
      <trkpt lat="46.29087" lon="-0.73159">
        <ele>66</ele>
        <time>2012-06-26T14:51:33Z</time>
      </trkpt>
      <trkpt lat="46.29091" lon="-0.73162">
        <ele>67</ele>
        <time>2012-06-26T14:51:38Z</time>
      </trkpt>
      <trkpt lat="46.29094" lon="-0.7317">
        <ele>66</ele>
        <time>2012-06-26T14:51:43Z</time>
      </trkpt>
      <trkpt lat="46.29102" lon="-0.73177">
        <ele>63</ele>
        <time>2012-06-26T14:51:48Z</time>
      </trkpt>
      <trkpt lat="46.29107" lon="-0.73181">
        <ele>63</ele>
        <time>2012-06-26T14:51:53Z</time>
      </trkpt>
      <trkpt lat="46.29112" lon="-0.73189">
        <ele>62</ele>
        <time>2012-06-26T14:51:58Z</time>
      </trkpt>
      <trkpt lat="46.29117" lon="-0.73197">
        <ele>61</ele>
        <time>2012-06-26T14:52:03Z</time>
      </trkpt>
      <trkpt lat="46.29121" lon="-0.73202">
        <ele>61</ele>
        <time>2012-06-26T14:52:08Z</time>
      </trkpt>
      <trkpt lat="46.29124" lon="-0.73208">
        <ele>61</ele>
        <time>2012-06-26T14:52:13Z</time>
      </trkpt>
      <trkpt lat="46.29129" lon="-0.73214">
        <ele>56</ele>
        <time>2012-06-26T14:52:18Z</time>
      </trkpt>
      <trkpt lat="46.29131" lon="-0.73222">
        <ele>57</ele>
        <time>2012-06-26T14:52:23Z</time>
      </trkpt>
      <trkpt lat="46.29133" lon="-0.73226">
        <ele>58</ele>
        <time>2012-06-26T14:52:28Z</time>
      </trkpt>
      <trkpt lat="46.29137" lon="-0.73233">
        <ele>58</ele>
        <time>2012-06-26T14:52:33Z</time>
      </trkpt>
      <trkpt lat="46.29138" lon="-0.73239">
        <ele>57</ele>
        <time>2012-06-26T14:52:38Z</time>
      </trkpt>
      <trkpt lat="46.2914" lon="-0.73247">
        <ele>58</ele>
        <time>2012-06-26T14:52:43Z</time>
      </trkpt>
      <trkpt lat="46.29142" lon="-0.73251">
        <ele>58</ele>
        <time>2012-06-26T14:52:48Z</time>
      </trkpt>
      <trkpt lat="46.29147" lon="-0.73255">
        <ele>59</ele>
        <time>2012-06-26T14:52:53Z</time>
      </trkpt>
      <trkpt lat="46.29152" lon="-0.73255">
        <ele>59</ele>
        <time>2012-06-26T14:52:58Z</time>
      </trkpt>
      <trkpt lat="46.29156" lon="-0.73258">
        <ele>59</ele>
        <time>2012-06-26T14:53:03Z</time>
      </trkpt>
      <trkpt lat="46.29163" lon="-0.7327">
        <ele>58</ele>
        <time>2012-06-26T14:53:08Z</time>
      </trkpt>
      <trkpt lat="46.29169" lon="-0.73274">
        <ele>56</ele>
        <time>2012-06-26T14:53:13Z</time>
      </trkpt>
      <trkpt lat="46.29174" lon="-0.73275">
        <ele>56</ele>
        <time>2012-06-26T14:53:18Z</time>
      </trkpt>
      <trkpt lat="46.29179" lon="-0.73272">
        <ele>57</ele>
        <time>2012-06-26T14:53:23Z</time>
      </trkpt>
      <trkpt lat="46.29186" lon="-0.73272">
        <ele>58</ele>
        <time>2012-06-26T14:53:28Z</time>
      </trkpt>
      <trkpt lat="46.29187" lon="-0.73274">
        <ele>58</ele>
        <time>2012-06-26T14:53:33Z</time>
      </trkpt>
      <trkpt lat="46.29194" lon="-0.73276">
        <ele>58</ele>
        <time>2012-06-26T14:53:38Z</time>
      </trkpt>
      <trkpt lat="46.292" lon="-0.73281">
        <ele>58</ele>
        <time>2012-06-26T14:53:43Z</time>
      </trkpt>
      <trkpt lat="46.29205" lon="-0.73287">
        <ele>61</ele>
        <time>2012-06-26T14:53:48Z</time>
      </trkpt>
      <trkpt lat="46.29206" lon="-0.73289">
        <ele>61</ele>
        <time>2012-06-26T14:53:53Z</time>
      </trkpt>
      <trkpt lat="46.29206" lon="-0.73293">
        <ele>58</ele>
        <time>2012-06-26T14:53:58Z</time>
      </trkpt>
      <trkpt lat="46.29209" lon="-0.733">
        <ele>60</ele>
        <time>2012-06-26T14:54:03Z</time>
      </trkpt>
      <trkpt lat="46.29215" lon="-0.73311">
        <ele>61</ele>
        <time>2012-06-26T14:54:08Z</time>
      </trkpt>
      <trkpt lat="46.29215" lon="-0.73319">
        <ele>59</ele>
        <time>2012-06-26T14:54:13Z</time>
      </trkpt>
      <trkpt lat="46.29216" lon="-0.73325">
        <ele>58</ele>
        <time>2012-06-26T14:54:18Z</time>
      </trkpt>
      <trkpt lat="46.2922" lon="-0.73329">
        <ele>58</ele>
        <time>2012-06-26T14:54:23Z</time>
      </trkpt>
      <trkpt lat="46.29221" lon="-0.73339">
        <ele>56</ele>
        <time>2012-06-26T14:54:28Z</time>
      </trkpt>
      <trkpt lat="46.29221" lon="-0.73344">
        <ele>57</ele>
        <time>2012-06-26T14:54:33Z</time>
      </trkpt>
      <trkpt lat="46.29222" lon="-0.7335">
        <ele>58</ele>
        <time>2012-06-26T14:54:38Z</time>
      </trkpt>
      <trkpt lat="46.29225" lon="-0.73358">
        <ele>59</ele>
        <time>2012-06-26T14:54:43Z</time>
      </trkpt>
      <trkpt lat="46.2923" lon="-0.73366">
        <ele>60</ele>
        <time>2012-06-26T14:54:48Z</time>
      </trkpt>
      <trkpt lat="46.29233" lon="-0.73372">
        <ele>64</ele>
        <time>2012-06-26T14:54:53Z</time>
      </trkpt>
      <trkpt lat="46.29236" lon="-0.73379">
        <ele>64</ele>
        <time>2012-06-26T14:54:58Z</time>
      </trkpt>
      <trkpt lat="46.29242" lon="-0.73386">
        <ele>65</ele>
        <time>2012-06-26T14:55:03Z</time>
      </trkpt>
      <trkpt lat="46.29245" lon="-0.73393">
        <ele>65</ele>
        <time>2012-06-26T14:55:08Z</time>
      </trkpt>
      <trkpt lat="46.29246" lon="-0.73399">
        <ele>65</ele>
        <time>2012-06-26T14:55:13Z</time>
      </trkpt>
      <trkpt lat="46.29247" lon="-0.73405">
        <ele>66</ele>
        <time>2012-06-26T14:55:18Z</time>
      </trkpt>
      <trkpt lat="46.29251" lon="-0.7341">
        <ele>66</ele>
        <time>2012-06-26T14:55:23Z</time>
      </trkpt>
      <trkpt lat="46.29255" lon="-0.73416">
        <ele>67</ele>
        <time>2012-06-26T14:55:28Z</time>
      </trkpt>
      <trkpt lat="46.29259" lon="-0.73424">
        <ele>67</ele>
        <time>2012-06-26T14:55:33Z</time>
      </trkpt>
      <trkpt lat="46.29264" lon="-0.73433">
        <ele>67</ele>
        <time>2012-06-26T14:55:38Z</time>
      </trkpt>
      <trkpt lat="46.29265" lon="-0.73441">
        <ele>67</ele>
        <time>2012-06-26T14:55:43Z</time>
      </trkpt>
      <trkpt lat="46.29269" lon="-0.7345">
        <ele>66</ele>
        <time>2012-06-26T14:55:48Z</time>
      </trkpt>
      <trkpt lat="46.29271" lon="-0.73458">
        <ele>66</ele>
        <time>2012-06-26T14:55:53Z</time>
      </trkpt>
      <trkpt lat="46.29273" lon="-0.73464">
        <ele>63</ele>
        <time>2012-06-26T14:55:58Z</time>
      </trkpt>
      <trkpt lat="46.29274" lon="-0.73474">
        <ele>63</ele>
        <time>2012-06-26T14:56:03Z</time>
      </trkpt>
      <trkpt lat="46.29278" lon="-0.73479">
        <ele>64</ele>
        <time>2012-06-26T14:56:08Z</time>
      </trkpt>
      <trkpt lat="46.29279" lon="-0.73489">
        <ele>65</ele>
        <time>2012-06-26T14:56:13Z</time>
      </trkpt>
      <trkpt lat="46.29284" lon="-0.73496">
        <ele>63</ele>
        <time>2012-06-26T14:56:18Z</time>
      </trkpt>
      <trkpt lat="46.29288" lon="-0.73506">
        <ele>61</ele>
        <time>2012-06-26T14:56:23Z</time>
      </trkpt>
      <trkpt lat="46.29291" lon="-0.73512">
        <ele>60</ele>
        <time>2012-06-26T14:56:28Z</time>
      </trkpt>
      <trkpt lat="46.29293" lon="-0.73522">
        <ele>61</ele>
        <time>2012-06-26T14:56:33Z</time>
      </trkpt>
      <trkpt lat="46.29295" lon="-0.73527">
        <ele>61</ele>
        <time>2012-06-26T14:56:38Z</time>
      </trkpt>
      <trkpt lat="46.29299" lon="-0.73533">
        <ele>60</ele>
        <time>2012-06-26T14:56:43Z</time>
      </trkpt>
      <trkpt lat="46.29303" lon="-0.73538">
        <ele>59</ele>
        <time>2012-06-26T14:56:48Z</time>
      </trkpt>
      <trkpt lat="46.29305" lon="-0.73543">
        <ele>55</ele>
        <time>2012-06-26T14:56:53Z</time>
      </trkpt>
      <trkpt lat="46.29307" lon="-0.7355">
        <ele>51</ele>
        <time>2012-06-26T14:56:58Z</time>
      </trkpt>
      <trkpt lat="46.29308" lon="-0.73559">
        <ele>53</ele>
        <time>2012-06-26T14:57:03Z</time>
      </trkpt>
      <trkpt lat="46.29309" lon="-0.73567">
        <ele>53</ele>
        <time>2012-06-26T14:57:08Z</time>
      </trkpt>
      <trkpt lat="46.29313" lon="-0.73572">
        <ele>52</ele>
        <time>2012-06-26T14:57:13Z</time>
      </trkpt>
      <trkpt lat="46.29317" lon="-0.73579">
        <ele>53</ele>
        <time>2012-06-26T14:57:18Z</time>
      </trkpt>
      <trkpt lat="46.29322" lon="-0.73587">
        <ele>54</ele>
        <time>2012-06-26T14:57:23Z</time>
      </trkpt>
      <trkpt lat="46.29327" lon="-0.73593">
        <ele>54</ele>
        <time>2012-06-26T14:57:28Z</time>
      </trkpt>
      <trkpt lat="46.29333" lon="-0.73599">
        <ele>54</ele>
        <time>2012-06-26T14:57:33Z</time>
      </trkpt>
      <trkpt lat="46.29337" lon="-0.73605">
        <ele>55</ele>
        <time>2012-06-26T14:57:38Z</time>
      </trkpt>
      <trkpt lat="46.29343" lon="-0.73608">
        <ele>56</ele>
        <time>2012-06-26T14:57:43Z</time>
      </trkpt>
      <trkpt lat="46.29348" lon="-0.73616">
        <ele>58</ele>
        <time>2012-06-26T14:57:48Z</time>
      </trkpt>
      <trkpt lat="46.29353" lon="-0.7362">
        <ele>59</ele>
        <time>2012-06-26T14:57:53Z</time>
      </trkpt>
      <trkpt lat="46.29356" lon="-0.73625">
        <ele>57</ele>
        <time>2012-06-26T14:57:58Z</time>
      </trkpt>
      <trkpt lat="46.29359" lon="-0.7363">
        <ele>57</ele>
        <time>2012-06-26T14:58:03Z</time>
      </trkpt>
      <trkpt lat="46.29364" lon="-0.73637">
        <ele>57</ele>
        <time>2012-06-26T14:58:08Z</time>
      </trkpt>
      <trkpt lat="46.29369" lon="-0.73641">
        <ele>57</ele>
        <time>2012-06-26T14:58:13Z</time>
      </trkpt>
      <trkpt lat="46.29369" lon="-0.73646">
        <ele>57</ele>
        <time>2012-06-26T14:58:18Z</time>
      </trkpt>
      <trkpt lat="46.2937" lon="-0.7365">
        <ele>60</ele>
        <time>2012-06-26T14:58:23Z</time>
      </trkpt>
      <trkpt lat="46.29376" lon="-0.73653">
        <ele>60</ele>
        <time>2012-06-26T14:58:28Z</time>
      </trkpt>
      <trkpt lat="46.29382" lon="-0.73658">
        <ele>60</ele>
        <time>2012-06-26T14:58:33Z</time>
      </trkpt>
      <trkpt lat="46.29385" lon="-0.73663">
        <ele>61</ele>
        <time>2012-06-26T14:58:38Z</time>
      </trkpt>
      <trkpt lat="46.2939" lon="-0.73671">
        <ele>60</ele>
        <time>2012-06-26T14:58:43Z</time>
      </trkpt>
      <trkpt lat="46.29396" lon="-0.73677">
        <ele>56</ele>
        <time>2012-06-26T14:58:48Z</time>
      </trkpt>
      <trkpt lat="46.29402" lon="-0.73686">
        <ele>57</ele>
        <time>2012-06-26T14:58:53Z</time>
      </trkpt>
      <trkpt lat="46.29405" lon="-0.73694">
        <ele>59</ele>
        <time>2012-06-26T14:58:58Z</time>
      </trkpt>
      <trkpt lat="46.29407" lon="-0.737">
        <ele>60</ele>
        <time>2012-06-26T14:59:03Z</time>
      </trkpt>
      <trkpt lat="46.29413" lon="-0.73708">
        <ele>59</ele>
        <time>2012-06-26T14:59:08Z</time>
      </trkpt>
      <trkpt lat="46.29419" lon="-0.73715">
        <ele>59</ele>
        <time>2012-06-26T14:59:13Z</time>
      </trkpt>
      <trkpt lat="46.29422" lon="-0.73718">
        <ele>58</ele>
        <time>2012-06-26T14:59:18Z</time>
      </trkpt>
      <trkpt lat="46.29426" lon="-0.73723">
        <ele>60</ele>
        <time>2012-06-26T14:59:23Z</time>
      </trkpt>
      <trkpt lat="46.29428" lon="-0.73728">
        <ele>62</ele>
        <time>2012-06-26T14:59:28Z</time>
      </trkpt>
      <trkpt lat="46.2943" lon="-0.73731">
        <ele>60</ele>
        <time>2012-06-26T14:59:33Z</time>
      </trkpt>
      <trkpt lat="46.29435" lon="-0.73739">
        <ele>61</ele>
        <time>2012-06-26T14:59:38Z</time>
      </trkpt>
      <trkpt lat="46.2944" lon="-0.73745">
        <ele>61</ele>
        <time>2012-06-26T14:59:43Z</time>
      </trkpt>
      <trkpt lat="46.29442" lon="-0.73751">
        <ele>62</ele>
        <time>2012-06-26T14:59:48Z</time>
      </trkpt>
      <trkpt lat="46.29447" lon="-0.73758">
        <ele>58</ele>
        <time>2012-06-26T14:59:53Z</time>
      </trkpt>
      <trkpt lat="46.29451" lon="-0.73763">
        <ele>59</ele>
        <time>2012-06-26T14:59:58Z</time>
      </trkpt>
      <trkpt lat="46.29458" lon="-0.73768">
        <ele>61</ele>
        <time>2012-06-26T15:00:03Z</time>
      </trkpt>
      <trkpt lat="46.29462" lon="-0.73774">
        <ele>62</ele>
        <time>2012-06-26T15:00:08Z</time>
      </trkpt>
      <trkpt lat="46.29467" lon="-0.73782">
        <ele>62</ele>
        <time>2012-06-26T15:00:13Z</time>
      </trkpt>
      <trkpt lat="46.29471" lon="-0.73789">
        <ele>57</ele>
        <time>2012-06-26T15:00:18Z</time>
      </trkpt>
      <trkpt lat="46.29477" lon="-0.73795">
        <ele>60</ele>
        <time>2012-06-26T15:00:23Z</time>
      </trkpt>
      <trkpt lat="46.29479" lon="-0.73802">
        <ele>57</ele>
        <time>2012-06-26T15:00:28Z</time>
      </trkpt>
      <trkpt lat="46.29483" lon="-0.73807">
        <ele>55</ele>
        <time>2012-06-26T15:00:33Z</time>
      </trkpt>
      <trkpt lat="46.29487" lon="-0.73812">
        <ele>54</ele>
        <time>2012-06-26T15:00:38Z</time>
      </trkpt>
      <trkpt lat="46.29489" lon="-0.73822">
        <ele>55</ele>
        <time>2012-06-26T15:00:43Z</time>
      </trkpt>
      <trkpt lat="46.29492" lon="-0.73828">
        <ele>57</ele>
        <time>2012-06-26T15:00:48Z</time>
      </trkpt>
      <trkpt lat="46.29495" lon="-0.73834">
        <ele>58</ele>
        <time>2012-06-26T15:00:53Z</time>
      </trkpt>
      <trkpt lat="46.29498" lon="-0.7384">
        <ele>60</ele>
        <time>2012-06-26T15:00:58Z</time>
      </trkpt>
      <trkpt lat="46.29502" lon="-0.73846">
        <ele>62</ele>
        <time>2012-06-26T15:01:03Z</time>
      </trkpt>
      <trkpt lat="46.2951" lon="-0.73847">
        <ele>62</ele>
        <time>2012-06-26T15:01:08Z</time>
      </trkpt>
      <trkpt lat="46.29514" lon="-0.73847">
        <ele>61</ele>
        <time>2012-06-26T15:01:13Z</time>
      </trkpt>
      <trkpt lat="46.29521" lon="-0.73845">
        <ele>61</ele>
        <time>2012-06-26T15:01:18Z</time>
      </trkpt>
      <trkpt lat="46.29525" lon="-0.73844">
        <ele>63</ele>
        <time>2012-06-26T15:01:23Z</time>
      </trkpt>
      <trkpt lat="46.29529" lon="-0.73843">
        <ele>65</ele>
        <time>2012-06-26T15:01:28Z</time>
      </trkpt>
      <trkpt lat="46.29534" lon="-0.73843">
        <ele>65</ele>
        <time>2012-06-26T15:01:33Z</time>
      </trkpt>
      <trkpt lat="46.29541" lon="-0.73847">
        <ele>65</ele>
        <time>2012-06-26T15:01:38Z</time>
      </trkpt>
      <trkpt lat="46.29546" lon="-0.73851">
        <ele>64</ele>
        <time>2012-06-26T15:01:43Z</time>
      </trkpt>
      <trkpt lat="46.29551" lon="-0.73855">
        <ele>64</ele>
        <time>2012-06-26T15:01:48Z</time>
      </trkpt>
      <trkpt lat="46.29556" lon="-0.7386">
        <ele>63</ele>
        <time>2012-06-26T15:01:53Z</time>
      </trkpt>
      <trkpt lat="46.29562" lon="-0.73865">
        <ele>61</ele>
        <time>2012-06-26T15:01:58Z</time>
      </trkpt>
      <trkpt lat="46.29567" lon="-0.73867">
        <ele>61</ele>
        <time>2012-06-26T15:02:03Z</time>
      </trkpt>
      <trkpt lat="46.29573" lon="-0.73869">
        <ele>61</ele>
        <time>2012-06-26T15:02:08Z</time>
      </trkpt>
      <trkpt lat="46.29576" lon="-0.73874">
        <ele>63</ele>
        <time>2012-06-26T15:02:13Z</time>
      </trkpt>
      <trkpt lat="46.29579" lon="-0.73878">
        <ele>61</ele>
        <time>2012-06-26T15:02:18Z</time>
      </trkpt>
      <trkpt lat="46.29582" lon="-0.73884">
        <ele>62</ele>
        <time>2012-06-26T15:02:23Z</time>
      </trkpt>
      <trkpt lat="46.29584" lon="-0.73887">
        <ele>62</ele>
        <time>2012-06-26T15:02:28Z</time>
      </trkpt>
      <trkpt lat="46.2959" lon="-0.73894">
        <ele>65</ele>
        <time>2012-06-26T15:02:33Z</time>
      </trkpt>
      <trkpt lat="46.29597" lon="-0.73902">
        <ele>64</ele>
        <time>2012-06-26T15:02:38Z</time>
      </trkpt>
      <trkpt lat="46.29602" lon="-0.73906">
        <ele>65</ele>
        <time>2012-06-26T15:02:43Z</time>
      </trkpt>
      <trkpt lat="46.29605" lon="-0.73905">
        <ele>64</ele>
        <time>2012-06-26T15:02:48Z</time>
      </trkpt>
      <trkpt lat="46.29611" lon="-0.73911">
        <ele>62</ele>
        <time>2012-06-26T15:02:53Z</time>
      </trkpt>
      <trkpt lat="46.29617" lon="-0.73919">
        <ele>62</ele>
        <time>2012-06-26T15:02:58Z</time>
      </trkpt>
      <trkpt lat="46.29621" lon="-0.73927">
        <ele>61</ele>
        <time>2012-06-26T15:03:03Z</time>
      </trkpt>
      <trkpt lat="46.29623" lon="-0.73932">
        <ele>61</ele>
        <time>2012-06-26T15:03:08Z</time>
      </trkpt>
      <trkpt lat="46.2963" lon="-0.73936">
        <ele>59</ele>
        <time>2012-06-26T15:03:13Z</time>
      </trkpt>
      <trkpt lat="46.29631" lon="-0.73943">
        <ele>60</ele>
        <time>2012-06-26T15:03:18Z</time>
      </trkpt>
      <trkpt lat="46.29637" lon="-0.73946">
        <ele>57</ele>
        <time>2012-06-26T15:03:23Z</time>
      </trkpt>
      <trkpt lat="46.29644" lon="-0.73949">
        <ele>56</ele>
        <time>2012-06-26T15:03:28Z</time>
      </trkpt>
      <trkpt lat="46.29651" lon="-0.73954">
        <ele>55</ele>
        <time>2012-06-26T15:03:33Z</time>
      </trkpt>
      <trkpt lat="46.29657" lon="-0.73959">
        <ele>55</ele>
        <time>2012-06-26T15:03:38Z</time>
      </trkpt>
      <trkpt lat="46.29661" lon="-0.73964">
        <ele>58</ele>
        <time>2012-06-26T15:03:43Z</time>
      </trkpt>
      <trkpt lat="46.29668" lon="-0.73966">
        <ele>55</ele>
        <time>2012-06-26T15:03:48Z</time>
      </trkpt>
      <trkpt lat="46.29671" lon="-0.73972">
        <ele>52</ele>
        <time>2012-06-26T15:03:53Z</time>
      </trkpt>
      <trkpt lat="46.29676" lon="-0.73975">
        <ele>54</ele>
        <time>2012-06-26T15:03:58Z</time>
      </trkpt>
      <trkpt lat="46.29681" lon="-0.7398">
        <ele>56</ele>
        <time>2012-06-26T15:04:03Z</time>
      </trkpt>
      <trkpt lat="46.29685" lon="-0.73986">
        <ele>56</ele>
        <time>2012-06-26T15:04:08Z</time>
      </trkpt>
      <trkpt lat="46.29691" lon="-0.73992">
        <ele>56</ele>
        <time>2012-06-26T15:04:13Z</time>
      </trkpt>
      <trkpt lat="46.29698" lon="-0.73995">
        <ele>54</ele>
        <time>2012-06-26T15:04:18Z</time>
      </trkpt>
      <trkpt lat="46.29703" lon="-0.73998">
        <ele>55</ele>
        <time>2012-06-26T15:04:23Z</time>
      </trkpt>
      <trkpt lat="46.29704" lon="-0.74003">
        <ele>57</ele>
        <time>2012-06-26T15:04:28Z</time>
      </trkpt>
      <trkpt lat="46.29706" lon="-0.7401">
        <ele>59</ele>
        <time>2012-06-26T15:04:33Z</time>
      </trkpt>
      <trkpt lat="46.29708" lon="-0.74014">
        <ele>60</ele>
        <time>2012-06-26T15:04:38Z</time>
      </trkpt>
      <trkpt lat="46.2971" lon="-0.74023">
        <ele>63</ele>
        <time>2012-06-26T15:04:43Z</time>
      </trkpt>
      <trkpt lat="46.29713" lon="-0.7403">
        <ele>67</ele>
        <time>2012-06-26T15:04:48Z</time>
      </trkpt>
      <trkpt lat="46.2972" lon="-0.74034">
        <ele>66</ele>
        <time>2012-06-26T15:04:53Z</time>
      </trkpt>
      <trkpt lat="46.29726" lon="-0.74035">
        <ele>67</ele>
        <time>2012-06-26T15:04:58Z</time>
      </trkpt>
      <trkpt lat="46.29729" lon="-0.74031">
        <ele>67</ele>
        <time>2012-06-26T15:05:03Z</time>
      </trkpt>
      <trkpt lat="46.29732" lon="-0.74025">
        <ele>68</ele>
        <time>2012-06-26T15:05:08Z</time>
      </trkpt>
      <trkpt lat="46.29736" lon="-0.7402">
        <ele>68</ele>
        <time>2012-06-26T15:05:13Z</time>
      </trkpt>
      <trkpt lat="46.29741" lon="-0.74013">
        <ele>69</ele>
        <time>2012-06-26T15:05:18Z</time>
      </trkpt>
      <trkpt lat="46.29745" lon="-0.74004">
        <ele>69</ele>
        <time>2012-06-26T15:05:23Z</time>
      </trkpt>
      <trkpt lat="46.2975" lon="-0.73995">
        <ele>70</ele>
        <time>2012-06-26T15:05:28Z</time>
      </trkpt>
      <trkpt lat="46.29754" lon="-0.7399">
        <ele>70</ele>
        <time>2012-06-26T15:05:33Z</time>
      </trkpt>
      <trkpt lat="46.29759" lon="-0.73989">
        <ele>70</ele>
        <time>2012-06-26T15:05:38Z</time>
      </trkpt>
      <trkpt lat="46.29765" lon="-0.73983">
        <ele>69</ele>
        <time>2012-06-26T15:05:43Z</time>
      </trkpt>
      <trkpt lat="46.29772" lon="-0.73976">
        <ele>68</ele>
        <time>2012-06-26T15:05:48Z</time>
      </trkpt>
      <trkpt lat="46.29773" lon="-0.73972">
        <ele>71</ele>
        <time>2012-06-26T15:05:53Z</time>
      </trkpt>
      <trkpt lat="46.29777" lon="-0.73964">
        <ele>72</ele>
        <time>2012-06-26T15:05:58Z</time>
      </trkpt>
      <trkpt lat="46.29781" lon="-0.73959">
        <ele>70</ele>
        <time>2012-06-26T15:06:03Z</time>
      </trkpt>
      <trkpt lat="46.29784" lon="-0.73954">
        <ele>69</ele>
        <time>2012-06-26T15:06:08Z</time>
      </trkpt>
      <trkpt lat="46.29786" lon="-0.73945">
        <ele>69</ele>
        <time>2012-06-26T15:06:13Z</time>
      </trkpt>
      <trkpt lat="46.29792" lon="-0.73938">
        <ele>69</ele>
        <time>2012-06-26T15:06:18Z</time>
      </trkpt>
      <trkpt lat="46.29799" lon="-0.73933">
        <ele>68</ele>
        <time>2012-06-26T15:06:23Z</time>
      </trkpt>
      <trkpt lat="46.29805" lon="-0.73927">
        <ele>68</ele>
        <time>2012-06-26T15:06:28Z</time>
      </trkpt>
      <trkpt lat="46.29811" lon="-0.73922">
        <ele>70</ele>
        <time>2012-06-26T15:06:33Z</time>
      </trkpt>
      <trkpt lat="46.29817" lon="-0.73917">
        <ele>70</ele>
        <time>2012-06-26T15:06:38Z</time>
      </trkpt>
      <trkpt lat="46.29821" lon="-0.73902">
        <ele>70</ele>
        <time>2012-06-26T15:06:43Z</time>
      </trkpt>
      <trkpt lat="46.29821" lon="-0.73892">
        <ele>64</ele>
        <time>2012-06-26T15:06:48Z</time>
      </trkpt>
      <trkpt lat="46.29817" lon="-0.73884">
        <ele>62</ele>
        <time>2012-06-26T15:06:53Z</time>
      </trkpt>
      <trkpt lat="46.29812" lon="-0.73879">
        <ele>62</ele>
        <time>2012-06-26T15:06:58Z</time>
      </trkpt>
      <trkpt lat="46.29808" lon="-0.73876">
        <ele>63</ele>
        <time>2012-06-26T15:07:03Z</time>
      </trkpt>
      <trkpt lat="46.29802" lon="-0.7387">
        <ele>62</ele>
        <time>2012-06-26T15:07:08Z</time>
      </trkpt>
      <trkpt lat="46.29798" lon="-0.73864">
        <ele>62</ele>
        <time>2012-06-26T15:07:13Z</time>
      </trkpt>
      <trkpt lat="46.29796" lon="-0.73856">
        <ele>61</ele>
        <time>2012-06-26T15:07:18Z</time>
      </trkpt>
      <trkpt lat="46.29794" lon="-0.73849">
        <ele>60</ele>
        <time>2012-06-26T15:07:23Z</time>
      </trkpt>
      <trkpt lat="46.29795" lon="-0.73843">
        <ele>61</ele>
        <time>2012-06-26T15:07:28Z</time>
      </trkpt>
      <trkpt lat="46.29796" lon="-0.7384">
        <ele>61</ele>
        <time>2012-06-26T15:07:33Z</time>
      </trkpt>
      <trkpt lat="46.29799" lon="-0.73837">
        <ele>63</ele>
        <time>2012-06-26T15:07:38Z</time>
      </trkpt>
      <trkpt lat="46.29804" lon="-0.73832">
        <ele>61</ele>
        <time>2012-06-26T15:07:43Z</time>
      </trkpt>
      <trkpt lat="46.29808" lon="-0.73828">
        <ele>61</ele>
        <time>2012-06-26T15:07:48Z</time>
      </trkpt>
      <trkpt lat="46.29812" lon="-0.73822">
        <ele>62</ele>
        <time>2012-06-26T15:07:53Z</time>
      </trkpt>
      <trkpt lat="46.29814" lon="-0.73816">
        <ele>62</ele>
        <time>2012-06-26T15:07:58Z</time>
      </trkpt>
      <trkpt lat="46.29817" lon="-0.7381">
        <ele>61</ele>
        <time>2012-06-26T15:08:03Z</time>
      </trkpt>
      <trkpt lat="46.29821" lon="-0.73805">
        <ele>63</ele>
        <time>2012-06-26T15:08:08Z</time>
      </trkpt>
      <trkpt lat="46.29825" lon="-0.738">
        <ele>63</ele>
        <time>2012-06-26T15:08:13Z</time>
      </trkpt>
      <trkpt lat="46.2983" lon="-0.73795">
        <ele>63</ele>
        <time>2012-06-26T15:08:18Z</time>
      </trkpt>
      <trkpt lat="46.29832" lon="-0.73789">
        <ele>63</ele>
        <time>2012-06-26T15:08:23Z</time>
      </trkpt>
      <trkpt lat="46.29837" lon="-0.73781">
        <ele>63</ele>
        <time>2012-06-26T15:08:28Z</time>
      </trkpt>
      <trkpt lat="46.29842" lon="-0.73774">
        <ele>63</ele>
        <time>2012-06-26T15:08:33Z</time>
      </trkpt>
      <trkpt lat="46.29848" lon="-0.73766">
        <ele>63</ele>
        <time>2012-06-26T15:08:38Z</time>
      </trkpt>
      <trkpt lat="46.29854" lon="-0.73761">
        <ele>67</ele>
        <time>2012-06-26T15:08:43Z</time>
      </trkpt>
      <trkpt lat="46.29857" lon="-0.73755">
        <ele>68</ele>
        <time>2012-06-26T15:08:48Z</time>
      </trkpt>
      <trkpt lat="46.29858" lon="-0.73751">
        <ele>68</ele>
        <time>2012-06-26T15:08:53Z</time>
      </trkpt>
      <trkpt lat="46.29862" lon="-0.73745">
        <ele>66</ele>
        <time>2012-06-26T15:08:58Z</time>
      </trkpt>
      <trkpt lat="46.29865" lon="-0.73736">
        <ele>66</ele>
        <time>2012-06-26T15:09:03Z</time>
      </trkpt>
      <trkpt lat="46.29868" lon="-0.73727">
        <ele>65</ele>
        <time>2012-06-26T15:09:08Z</time>
      </trkpt>
      <trkpt lat="46.2987" lon="-0.73721">
        <ele>68</ele>
        <time>2012-06-26T15:09:13Z</time>
      </trkpt>
      <trkpt lat="46.29872" lon="-0.73714">
        <ele>68</ele>
        <time>2012-06-26T15:09:18Z</time>
      </trkpt>
      <trkpt lat="46.29877" lon="-0.73707">
        <ele>66</ele>
        <time>2012-06-26T15:09:23Z</time>
      </trkpt>
      <trkpt lat="46.29882" lon="-0.737">
        <ele>65</ele>
        <time>2012-06-26T15:09:28Z</time>
      </trkpt>
      <trkpt lat="46.29885" lon="-0.73692">
        <ele>65</ele>
        <time>2012-06-26T15:09:33Z</time>
      </trkpt>
      <trkpt lat="46.29888" lon="-0.73687">
        <ele>66</ele>
        <time>2012-06-26T15:09:38Z</time>
      </trkpt>
      <trkpt lat="46.2989" lon="-0.73682">
        <ele>69</ele>
        <time>2012-06-26T15:09:43Z</time>
      </trkpt>
      <trkpt lat="46.29897" lon="-0.73678">
        <ele>68</ele>
        <time>2012-06-26T15:09:48Z</time>
      </trkpt>
      <trkpt lat="46.29903" lon="-0.73673">
        <ele>68</ele>
        <time>2012-06-26T15:09:53Z</time>
      </trkpt>
      <trkpt lat="46.29906" lon="-0.73668">
        <ele>66</ele>
        <time>2012-06-26T15:09:58Z</time>
      </trkpt>
      <trkpt lat="46.29909" lon="-0.73664">
        <ele>67</ele>
        <time>2012-06-26T15:10:03Z</time>
      </trkpt>
      <trkpt lat="46.29916" lon="-0.73658">
        <ele>67</ele>
        <time>2012-06-26T15:10:08Z</time>
      </trkpt>
      <trkpt lat="46.29917" lon="-0.73648">
        <ele>66</ele>
        <time>2012-06-26T15:10:13Z</time>
      </trkpt>
      <trkpt lat="46.29926" lon="-0.73638">
        <ele>66</ele>
        <time>2012-06-26T15:10:18Z</time>
      </trkpt>
      <trkpt lat="46.29929" lon="-0.73629">
        <ele>66</ele>
        <time>2012-06-26T15:10:23Z</time>
      </trkpt>
      <trkpt lat="46.29934" lon="-0.73615">
        <ele>62</ele>
        <time>2012-06-26T15:10:28Z</time>
      </trkpt>
      <trkpt lat="46.29935" lon="-0.73602">
        <ele>62</ele>
        <time>2012-06-26T15:10:33Z</time>
      </trkpt>
      <trkpt lat="46.29935" lon="-0.73592">
        <ele>65</ele>
        <time>2012-06-26T15:10:38Z</time>
      </trkpt>
      <trkpt lat="46.2993" lon="-0.73588">
        <ele>60</ele>
        <time>2012-06-26T15:10:43Z</time>
      </trkpt>
      <trkpt lat="46.29923" lon="-0.73582">
        <ele>61</ele>
        <time>2012-06-26T15:10:48Z</time>
      </trkpt>
      <trkpt lat="46.29919" lon="-0.73576">
        <ele>60</ele>
        <time>2012-06-26T15:10:53Z</time>
      </trkpt>
      <trkpt lat="46.29913" lon="-0.73569">
        <ele>58</ele>
        <time>2012-06-26T15:10:58Z</time>
      </trkpt>
      <trkpt lat="46.29906" lon="-0.73561">
        <ele>58</ele>
        <time>2012-06-26T15:11:03Z</time>
      </trkpt>
      <trkpt lat="46.29902" lon="-0.73554">
        <ele>55</ele>
        <time>2012-06-26T15:11:08Z</time>
      </trkpt>
      <trkpt lat="46.29897" lon="-0.73549">
        <ele>53</ele>
        <time>2012-06-26T15:11:13Z</time>
      </trkpt>
      <trkpt lat="46.29893" lon="-0.73542">
        <ele>54</ele>
        <time>2012-06-26T15:11:18Z</time>
      </trkpt>
      <trkpt lat="46.2989" lon="-0.73535">
        <ele>55</ele>
        <time>2012-06-26T15:11:23Z</time>
      </trkpt>
      <trkpt lat="46.29886" lon="-0.73527">
        <ele>58</ele>
        <time>2012-06-26T15:11:28Z</time>
      </trkpt>
      <trkpt lat="46.29882" lon="-0.73521">
        <ele>61</ele>
        <time>2012-06-26T15:11:33Z</time>
      </trkpt>
      <trkpt lat="46.2988" lon="-0.73514">
        <ele>63</ele>
        <time>2012-06-26T15:11:38Z</time>
      </trkpt>
      <trkpt lat="46.29874" lon="-0.73512">
        <ele>65</ele>
        <time>2012-06-26T15:11:43Z</time>
      </trkpt>
      <trkpt lat="46.29867" lon="-0.73509">
        <ele>63</ele>
        <time>2012-06-26T15:11:48Z</time>
      </trkpt>
      <trkpt lat="46.29863" lon="-0.73502">
        <ele>64</ele>
        <time>2012-06-26T15:11:53Z</time>
      </trkpt>
      <trkpt lat="46.29858" lon="-0.73499">
        <ele>65</ele>
        <time>2012-06-26T15:11:58Z</time>
      </trkpt>
      <trkpt lat="46.29855" lon="-0.73492">
        <ele>66</ele>
        <time>2012-06-26T15:12:03Z</time>
      </trkpt>
      <trkpt lat="46.29854" lon="-0.73484">
        <ele>65</ele>
        <time>2012-06-26T15:12:08Z</time>
      </trkpt>
      <trkpt lat="46.29849" lon="-0.73478">
        <ele>66</ele>
        <time>2012-06-26T15:12:13Z</time>
      </trkpt>
      <trkpt lat="46.29845" lon="-0.73473">
        <ele>64</ele>
        <time>2012-06-26T15:12:18Z</time>
      </trkpt>
      <trkpt lat="46.29845" lon="-0.73465">
        <ele>62</ele>
        <time>2012-06-26T15:12:23Z</time>
      </trkpt>
      <trkpt lat="46.29841" lon="-0.7346">
        <ele>63</ele>
        <time>2012-06-26T15:12:28Z</time>
      </trkpt>
      <trkpt lat="46.29836" lon="-0.73454">
        <ele>63</ele>
        <time>2012-06-26T15:12:33Z</time>
      </trkpt>
      <trkpt lat="46.29833" lon="-0.73447">
        <ele>67</ele>
        <time>2012-06-26T15:12:38Z</time>
      </trkpt>
      <trkpt lat="46.29833" lon="-0.7344">
        <ele>70</ele>
        <time>2012-06-26T15:12:43Z</time>
      </trkpt>
      <trkpt lat="46.29832" lon="-0.73432">
        <ele>72</ele>
        <time>2012-06-26T15:12:48Z</time>
      </trkpt>
      <trkpt lat="46.29831" lon="-0.73425">
        <ele>74</ele>
        <time>2012-06-26T15:12:53Z</time>
      </trkpt>
      <trkpt lat="46.29826" lon="-0.73417">
        <ele>75</ele>
        <time>2012-06-26T15:12:58Z</time>
      </trkpt>
      <trkpt lat="46.29824" lon="-0.7341">
        <ele>76</ele>
        <time>2012-06-26T15:13:03Z</time>
      </trkpt>
      <trkpt lat="46.29818" lon="-0.73402">
        <ele>73</ele>
        <time>2012-06-26T15:13:08Z</time>
      </trkpt>
      <trkpt lat="46.29815" lon="-0.73392">
        <ele>71</ele>
        <time>2012-06-26T15:13:13Z</time>
      </trkpt>
      <trkpt lat="46.29808" lon="-0.73385">
        <ele>68</ele>
        <time>2012-06-26T15:13:18Z</time>
      </trkpt>
      <trkpt lat="46.29805" lon="-0.73376">
        <ele>67</ele>
        <time>2012-06-26T15:13:23Z</time>
      </trkpt>
      <trkpt lat="46.29807" lon="-0.73368">
        <ele>73</ele>
        <time>2012-06-26T15:13:28Z</time>
      </trkpt>
      <trkpt lat="46.29806" lon="-0.73358">
        <ele>76</ele>
        <time>2012-06-26T15:13:33Z</time>
      </trkpt>
      <trkpt lat="46.29801" lon="-0.73351">
        <ele>71</ele>
        <time>2012-06-26T15:13:38Z</time>
      </trkpt>
      <trkpt lat="46.29796" lon="-0.73344">
        <ele>67</ele>
        <time>2012-06-26T15:13:43Z</time>
      </trkpt>
      <trkpt lat="46.29794" lon="-0.73337">
        <ele>66</ele>
        <time>2012-06-26T15:13:49Z</time>
      </trkpt>
      <trkpt lat="46.29789" lon="-0.73328">
        <ele>64</ele>
        <time>2012-06-26T15:13:53Z</time>
      </trkpt>
      <trkpt lat="46.2979" lon="-0.73318">
        <ele>64</ele>
        <time>2012-06-26T15:13:58Z</time>
      </trkpt>
      <trkpt lat="46.29788" lon="-0.7331">
        <ele>62</ele>
        <time>2012-06-26T15:14:03Z</time>
      </trkpt>
      <trkpt lat="46.29789" lon="-0.73302">
        <ele>59</ele>
        <time>2012-06-26T15:14:08Z</time>
      </trkpt>
      <trkpt lat="46.29789" lon="-0.73294">
        <ele>58</ele>
        <time>2012-06-26T15:14:13Z</time>
      </trkpt>
      <trkpt lat="46.29788" lon="-0.73286">
        <ele>59</ele>
        <time>2012-06-26T15:14:18Z</time>
      </trkpt>
      <trkpt lat="46.29788" lon="-0.73277">
        <ele>59</ele>
        <time>2012-06-26T15:14:23Z</time>
      </trkpt>
      <trkpt lat="46.2979" lon="-0.73268">
        <ele>56</ele>
        <time>2012-06-26T15:14:28Z</time>
      </trkpt>
      <trkpt lat="46.2979" lon="-0.73259">
        <ele>56</ele>
        <time>2012-06-26T15:14:33Z</time>
      </trkpt>
      <trkpt lat="46.29792" lon="-0.73252">
        <ele>58</ele>
        <time>2012-06-26T15:14:38Z</time>
      </trkpt>
      <trkpt lat="46.29796" lon="-0.73238">
        <ele>54</ele>
        <time>2012-06-26T15:14:43Z</time>
      </trkpt>
      <trkpt lat="46.29794" lon="-0.7323">
        <ele>55</ele>
        <time>2012-06-26T15:14:48Z</time>
      </trkpt>
      <trkpt lat="46.29793" lon="-0.73223">
        <ele>55</ele>
        <time>2012-06-26T15:14:53Z</time>
      </trkpt>
      <trkpt lat="46.29797" lon="-0.73214">
        <ele>56</ele>
        <time>2012-06-26T15:14:58Z</time>
      </trkpt>
      <trkpt lat="46.29797" lon="-0.73207">
        <ele>56</ele>
        <time>2012-06-26T15:15:03Z</time>
      </trkpt>
      <trkpt lat="46.29795" lon="-0.732">
        <ele>57</ele>
        <time>2012-06-26T15:15:08Z</time>
      </trkpt>
      <trkpt lat="46.29795" lon="-0.73191">
        <ele>61</ele>
        <time>2012-06-26T15:15:13Z</time>
      </trkpt>
      <trkpt lat="46.29797" lon="-0.73185">
        <ele>63</ele>
        <time>2012-06-26T15:15:18Z</time>
      </trkpt>
      <trkpt lat="46.29797" lon="-0.73177">
        <ele>62</ele>
        <time>2012-06-26T15:15:23Z</time>
      </trkpt>
      <trkpt lat="46.29797" lon="-0.73167">
        <ele>59</ele>
        <time>2012-06-26T15:15:28Z</time>
      </trkpt>
      <trkpt lat="46.29797" lon="-0.73158">
        <ele>60</ele>
        <time>2012-06-26T15:15:33Z</time>
      </trkpt>
      <trkpt lat="46.29797" lon="-0.7315">
        <ele>61</ele>
        <time>2012-06-26T15:15:38Z</time>
      </trkpt>
      <trkpt lat="46.29797" lon="-0.73144">
        <ele>61</ele>
        <time>2012-06-26T15:15:43Z</time>
      </trkpt>
      <trkpt lat="46.29796" lon="-0.7314">
        <ele>60</ele>
        <time>2012-06-26T15:15:48Z</time>
      </trkpt>
      <trkpt lat="46.29795" lon="-0.73134">
        <ele>62</ele>
        <time>2012-06-26T15:15:53Z</time>
      </trkpt>
      <trkpt lat="46.29794" lon="-0.73133">
        <ele>59</ele>
        <time>2012-06-26T15:15:58Z</time>
      </trkpt>
      <trkpt lat="46.29795" lon="-0.73133">
        <ele>60</ele>
        <time>2012-06-26T15:16:03Z</time>
      </trkpt>
      <trkpt lat="46.29795" lon="-0.73133">
        <ele>61</ele>
        <time>2012-06-26T15:16:08Z</time>
      </trkpt>
      <trkpt lat="46.29796" lon="-0.73133">
        <ele>61</ele>
        <time>2012-06-26T15:16:13Z</time>
      </trkpt>
      <trkpt lat="46.29799" lon="-0.73132">
        <ele>61</ele>
        <time>2012-06-26T15:16:18Z</time>
      </trkpt>
      <trkpt lat="46.29805" lon="-0.73128">
        <ele>59</ele>
        <time>2012-06-26T15:16:23Z</time>
      </trkpt>
      <trkpt lat="46.2981" lon="-0.73127">
        <ele>58</ele>
        <time>2012-06-26T15:16:28Z</time>
      </trkpt>
      <trkpt lat="46.29818" lon="-0.73126">
        <ele>58</ele>
        <time>2012-06-26T15:16:33Z</time>
      </trkpt>
      <trkpt lat="46.29822" lon="-0.73127">
        <ele>59</ele>
        <time>2012-06-26T15:16:38Z</time>
      </trkpt>
      <trkpt lat="46.29823" lon="-0.73126">
        <ele>59</ele>
        <time>2012-06-26T15:16:43Z</time>
      </trkpt>
      <trkpt lat="46.29831" lon="-0.73125">
        <ele>61</ele>
        <time>2012-06-26T15:16:48Z</time>
      </trkpt>
      <trkpt lat="46.2984" lon="-0.73122">
        <ele>61</ele>
        <time>2012-06-26T15:16:53Z</time>
      </trkpt>
      <trkpt lat="46.29848" lon="-0.7312">
        <ele>59</ele>
        <time>2012-06-26T15:16:58Z</time>
      </trkpt>
      <trkpt lat="46.29853" lon="-0.73115">
        <ele>59</ele>
        <time>2012-06-26T15:17:03Z</time>
      </trkpt>
      <trkpt lat="46.29859" lon="-0.7311">
        <ele>57</ele>
        <time>2012-06-26T15:17:08Z</time>
      </trkpt>
      <trkpt lat="46.29866" lon="-0.73105">
        <ele>55</ele>
        <time>2012-06-26T15:17:13Z</time>
      </trkpt>
      <trkpt lat="46.29873" lon="-0.73103">
        <ele>55</ele>
        <time>2012-06-26T15:17:18Z</time>
      </trkpt>
      <trkpt lat="46.29877" lon="-0.73102">
        <ele>57</ele>
        <time>2012-06-26T15:17:23Z</time>
      </trkpt>
      <trkpt lat="46.29879" lon="-0.73103">
        <ele>57</ele>
        <time>2012-06-26T15:17:28Z</time>
      </trkpt>
      <trkpt lat="46.29885" lon="-0.73103">
        <ele>56</ele>
        <time>2012-06-26T15:17:33Z</time>
      </trkpt>
      <trkpt lat="46.29894" lon="-0.73105">
        <ele>57</ele>
        <time>2012-06-26T15:17:38Z</time>
      </trkpt>
      <trkpt lat="46.29901" lon="-0.73105">
        <ele>57</ele>
        <time>2012-06-26T15:17:43Z</time>
      </trkpt>
      <trkpt lat="46.29906" lon="-0.73104">
        <ele>56</ele>
        <time>2012-06-26T15:17:48Z</time>
      </trkpt>
      <trkpt lat="46.29914" lon="-0.73102">
        <ele>55</ele>
        <time>2012-06-26T15:17:53Z</time>
      </trkpt>
      <trkpt lat="46.29919" lon="-0.73101">
        <ele>58</ele>
        <time>2012-06-26T15:17:58Z</time>
      </trkpt>
      <trkpt lat="46.29922" lon="-0.73098">
        <ele>58</ele>
        <time>2012-06-26T15:18:03Z</time>
      </trkpt>
      <trkpt lat="46.2993" lon="-0.73094">
        <ele>58</ele>
        <time>2012-06-26T15:18:08Z</time>
      </trkpt>
      <trkpt lat="46.29936" lon="-0.73091">
        <ele>58</ele>
        <time>2012-06-26T15:18:13Z</time>
      </trkpt>
      <trkpt lat="46.2994" lon="-0.73091">
        <ele>59</ele>
        <time>2012-06-26T15:18:18Z</time>
      </trkpt>
      <trkpt lat="46.2995" lon="-0.73088">
        <ele>58</ele>
        <time>2012-06-26T15:18:23Z</time>
      </trkpt>
      <trkpt lat="46.29962" lon="-0.73085">
        <ele>57</ele>
        <time>2012-06-26T15:18:28Z</time>
      </trkpt>
      <trkpt lat="46.29966" lon="-0.7308">
        <ele>56</ele>
        <time>2012-06-26T15:18:33Z</time>
      </trkpt>
      <trkpt lat="46.29969" lon="-0.73079">
        <ele>56</ele>
        <time>2012-06-26T15:18:38Z</time>
      </trkpt>
      <trkpt lat="46.29973" lon="-0.73078">
        <ele>56</ele>
        <time>2012-06-26T15:18:43Z</time>
      </trkpt>
      <trkpt lat="46.29979" lon="-0.73078">
        <ele>56</ele>
        <time>2012-06-26T15:18:48Z</time>
      </trkpt>
      <trkpt lat="46.29983" lon="-0.73075">
        <ele>56</ele>
        <time>2012-06-26T15:18:53Z</time>
      </trkpt>
      <trkpt lat="46.29986" lon="-0.73071">
        <ele>56</ele>
        <time>2012-06-26T15:18:58Z</time>
      </trkpt>
      <trkpt lat="46.29987" lon="-0.7307">
        <ele>57</ele>
        <time>2012-06-26T15:19:03Z</time>
      </trkpt>
      <trkpt lat="46.29996" lon="-0.73067">
        <ele>56</ele>
        <time>2012-06-26T15:19:08Z</time>
      </trkpt>
      <trkpt lat="46.3" lon="-0.73064">
        <ele>57</ele>
        <time>2012-06-26T15:19:13Z</time>
      </trkpt>
      <trkpt lat="46.30007" lon="-0.73061">
        <ele>58</ele>
        <time>2012-06-26T15:19:18Z</time>
      </trkpt>
      <trkpt lat="46.30013" lon="-0.73058">
        <ele>58</ele>
        <time>2012-06-26T15:19:23Z</time>
      </trkpt>
      <trkpt lat="46.30017" lon="-0.73056">
        <ele>58</ele>
        <time>2012-06-26T15:19:28Z</time>
      </trkpt>
      <trkpt lat="46.30025" lon="-0.73054">
        <ele>59</ele>
        <time>2012-06-26T15:19:33Z</time>
      </trkpt>
      <trkpt lat="46.3003" lon="-0.73054">
        <ele>60</ele>
        <time>2012-06-26T15:19:38Z</time>
      </trkpt>
      <trkpt lat="46.30035" lon="-0.73052">
        <ele>63</ele>
        <time>2012-06-26T15:19:43Z</time>
      </trkpt>
      <trkpt lat="46.30044" lon="-0.73055">
        <ele>59</ele>
        <time>2012-06-26T15:19:48Z</time>
      </trkpt>
      <trkpt lat="46.30052" lon="-0.73059">
        <ele>60</ele>
        <time>2012-06-26T15:19:53Z</time>
      </trkpt>
      <trkpt lat="46.30057" lon="-0.73063">
        <ele>62</ele>
        <time>2012-06-26T15:19:58Z</time>
      </trkpt>
      <trkpt lat="46.30062" lon="-0.73067">
        <ele>62</ele>
        <time>2012-06-26T15:20:03Z</time>
      </trkpt>
      <trkpt lat="46.30068" lon="-0.7307">
        <ele>62</ele>
        <time>2012-06-26T15:20:08Z</time>
      </trkpt>
      <trkpt lat="46.30072" lon="-0.7307">
        <ele>61</ele>
        <time>2012-06-26T15:20:13Z</time>
      </trkpt>
      <trkpt lat="46.30074" lon="-0.73071">
        <ele>59</ele>
        <time>2012-06-26T15:20:18Z</time>
      </trkpt>
      <trkpt lat="46.30078" lon="-0.7307">
        <ele>59</ele>
        <time>2012-06-26T15:20:23Z</time>
      </trkpt>
      <trkpt lat="46.30081" lon="-0.73071">
        <ele>61</ele>
        <time>2012-06-26T15:20:28Z</time>
      </trkpt>
      <trkpt lat="46.30083" lon="-0.73071">
        <ele>61</ele>
        <time>2012-06-26T15:20:33Z</time>
      </trkpt>
      <trkpt lat="46.30082" lon="-0.73072">
        <ele>61</ele>
        <time>2012-06-26T15:20:38Z</time>
      </trkpt>
      <trkpt lat="46.30082" lon="-0.73073">
        <ele>59</ele>
        <time>2012-06-26T15:20:43Z</time>
      </trkpt>
      <trkpt lat="46.30083" lon="-0.73074">
        <ele>60</ele>
        <time>2012-06-26T15:20:48Z</time>
      </trkpt>
      <trkpt lat="46.30083" lon="-0.73074">
        <ele>60</ele>
        <time>2012-06-26T15:20:53Z</time>
      </trkpt>
      <trkpt lat="46.30084" lon="-0.73074">
        <ele>60</ele>
        <time>2012-06-26T15:20:58Z</time>
      </trkpt>
      <trkpt lat="46.30084" lon="-0.73071">
        <ele>60</ele>
        <time>2012-06-26T15:21:03Z</time>
      </trkpt>
      <trkpt lat="46.30084" lon="-0.73071">
        <ele>60</ele>
        <time>2012-06-26T15:21:08Z</time>
      </trkpt>
      <trkpt lat="46.30084" lon="-0.7307">
        <ele>60</ele>
        <time>2012-06-26T15:21:13Z</time>
      </trkpt>
      <trkpt lat="46.30084" lon="-0.7307">
        <ele>60</ele>
        <time>2012-06-26T15:21:23Z</time>
      </trkpt>
      <trkpt lat="46.30085" lon="-0.73069">
        <ele>59</ele>
        <time>2012-06-26T15:21:28Z</time>
      </trkpt>
      <trkpt lat="46.30085" lon="-0.73069">
        <ele>59</ele>
        <time>2012-06-26T15:21:33Z</time>
      </trkpt>
      <trkpt lat="46.30084" lon="-0.73067">
        <ele>58</ele>
        <time>2012-06-26T15:21:38Z</time>
      </trkpt>
      <trkpt lat="46.30084" lon="-0.73066">
        <ele>59</ele>
        <time>2012-06-26T15:21:43Z</time>
      </trkpt>
      <trkpt lat="46.30084" lon="-0.73067">
        <ele>60</ele>
        <time>2012-06-26T15:21:48Z</time>
      </trkpt>
      <trkpt lat="46.30083" lon="-0.73068">
        <ele>60</ele>
        <time>2012-06-26T15:21:53Z</time>
      </trkpt>
      <trkpt lat="46.30083" lon="-0.73068">
        <ele>59</ele>
        <time>2012-06-26T15:21:58Z</time>
      </trkpt>
      <trkpt lat="46.30083" lon="-0.73068">
        <ele>60</ele>
        <time>2012-06-26T15:22:03Z</time>
      </trkpt>
      <trkpt lat="46.30084" lon="-0.73068">
        <ele>59</ele>
        <time>2012-06-26T15:22:08Z</time>
      </trkpt>
      <trkpt lat="46.30083" lon="-0.73068">
        <ele>60</ele>
        <time>2012-06-26T15:22:13Z</time>
      </trkpt>
      <trkpt lat="46.30083" lon="-0.73067">
        <ele>60</ele>
        <time>2012-06-26T15:22:18Z</time>
      </trkpt>
      <trkpt lat="46.30084" lon="-0.73069">
        <ele>59</ele>
        <time>2012-06-26T15:22:23Z</time>
      </trkpt>
      <trkpt lat="46.30084" lon="-0.73069">
        <ele>58</ele>
        <time>2012-06-26T15:22:28Z</time>
      </trkpt>
      <trkpt lat="46.30084" lon="-0.73069">
        <ele>58</ele>
        <time>2012-06-26T15:22:33Z</time>
      </trkpt>
      <trkpt lat="46.30083" lon="-0.73069">
        <ele>58</ele>
        <time>2012-06-26T15:22:38Z</time>
      </trkpt>
      <trkpt lat="46.30081" lon="-0.73068">
        <ele>57</ele>
        <time>2012-06-26T15:22:58Z</time>
      </trkpt>
      <trkpt lat="46.30077" lon="-0.73067">
        <ele>56</ele>
        <time>2012-06-26T15:23:03Z</time>
      </trkpt>
      <trkpt lat="46.30074" lon="-0.73066">
        <ele>53</ele>
        <time>2012-06-26T15:23:08Z</time>
      </trkpt>
      <trkpt lat="46.3007" lon="-0.73064">
        <ele>53</ele>
        <time>2012-06-26T15:23:13Z</time>
      </trkpt>
      <trkpt lat="46.30067" lon="-0.73063">
        <ele>54</ele>
        <time>2012-06-26T15:23:18Z</time>
      </trkpt>
      <trkpt lat="46.30064" lon="-0.73058">
        <ele>55</ele>
        <time>2012-06-26T15:23:23Z</time>
      </trkpt>
      <trkpt lat="46.30055" lon="-0.73055">
        <ele>56</ele>
        <time>2012-06-26T15:23:28Z</time>
      </trkpt>
      <trkpt lat="46.3005" lon="-0.73052">
        <ele>58</ele>
        <time>2012-06-26T15:23:33Z</time>
      </trkpt>
      <trkpt lat="46.30045" lon="-0.73049">
        <ele>58</ele>
        <time>2012-06-26T15:23:38Z</time>
      </trkpt>
      <trkpt lat="46.30037" lon="-0.73049">
        <ele>59</ele>
        <time>2012-06-26T15:23:43Z</time>
      </trkpt>
      <trkpt lat="46.30028" lon="-0.73051">
        <ele>58</ele>
        <time>2012-06-26T15:23:48Z</time>
      </trkpt>
      <trkpt lat="46.30022" lon="-0.7305">
        <ele>59</ele>
        <time>2012-06-26T15:23:53Z</time>
      </trkpt>
      <trkpt lat="46.3002" lon="-0.73051">
        <ele>57</ele>
        <time>2012-06-26T15:23:58Z</time>
      </trkpt>
      <trkpt lat="46.30016" lon="-0.73054">
        <ele>55</ele>
        <time>2012-06-26T15:24:03Z</time>
      </trkpt>
      <trkpt lat="46.3001" lon="-0.73057">
        <ele>55</ele>
        <time>2012-06-26T15:24:08Z</time>
      </trkpt>
      <trkpt lat="46.30009" lon="-0.73057">
        <ele>56</ele>
        <time>2012-06-26T15:24:13Z</time>
      </trkpt>
      <trkpt lat="46.30002" lon="-0.73059">
        <ele>55</ele>
        <time>2012-06-26T15:24:23Z</time>
      </trkpt>
      <trkpt lat="46.29996" lon="-0.7306">
        <ele>56</ele>
        <time>2012-06-26T15:24:28Z</time>
      </trkpt>
      <trkpt lat="46.29988" lon="-0.73062">
        <ele>56</ele>
        <time>2012-06-26T15:24:33Z</time>
      </trkpt>
      <trkpt lat="46.29981" lon="-0.73064">
        <ele>56</ele>
        <time>2012-06-26T15:24:38Z</time>
      </trkpt>
      <trkpt lat="46.29976" lon="-0.73067">
        <ele>55</ele>
        <time>2012-06-26T15:24:43Z</time>
      </trkpt>
      <trkpt lat="46.29972" lon="-0.73069">
        <ele>55</ele>
        <time>2012-06-26T15:24:48Z</time>
      </trkpt>
      <trkpt lat="46.2997" lon="-0.7307">
        <ele>55</ele>
        <time>2012-06-26T15:24:53Z</time>
      </trkpt>
      <trkpt lat="46.29959" lon="-0.73076">
        <ele>53</ele>
        <time>2012-06-26T15:24:58Z</time>
      </trkpt>
      <trkpt lat="46.29952" lon="-0.73081">
        <ele>53</ele>
        <time>2012-06-26T15:25:03Z</time>
      </trkpt>
      <trkpt lat="46.29948" lon="-0.73081">
        <ele>56</ele>
        <time>2012-06-26T15:25:08Z</time>
      </trkpt>
      <trkpt lat="46.29939" lon="-0.73083">
        <ele>55</ele>
        <time>2012-06-26T15:25:13Z</time>
      </trkpt>
      <trkpt lat="46.29935" lon="-0.73088">
        <ele>55</ele>
        <time>2012-06-26T15:25:18Z</time>
      </trkpt>
      <trkpt lat="46.29932" lon="-0.7309">
        <ele>52</ele>
        <time>2012-06-26T15:25:23Z</time>
      </trkpt>
      <trkpt lat="46.29926" lon="-0.73091">
        <ele>51</ele>
        <time>2012-06-26T15:25:28Z</time>
      </trkpt>
      <trkpt lat="46.2992" lon="-0.73092">
        <ele>50</ele>
        <time>2012-06-26T15:25:33Z</time>
      </trkpt>
      <trkpt lat="46.29914" lon="-0.73092">
        <ele>50</ele>
        <time>2012-06-26T15:25:38Z</time>
      </trkpt>
      <trkpt lat="46.2991" lon="-0.73096">
        <ele>51</ele>
        <time>2012-06-26T15:25:43Z</time>
      </trkpt>
      <trkpt lat="46.29904" lon="-0.73094">
        <ele>54</ele>
        <time>2012-06-26T15:25:48Z</time>
      </trkpt>
      <trkpt lat="46.29899" lon="-0.73093">
        <ele>54</ele>
        <time>2012-06-26T15:25:53Z</time>
      </trkpt>
      <trkpt lat="46.29895" lon="-0.73092">
        <ele>55</ele>
        <time>2012-06-26T15:25:58Z</time>
      </trkpt>
      <trkpt lat="46.29887" lon="-0.73094">
        <ele>57</ele>
        <time>2012-06-26T15:26:03Z</time>
      </trkpt>
      <trkpt lat="46.29878" lon="-0.73096">
        <ele>55</ele>
        <time>2012-06-26T15:26:08Z</time>
      </trkpt>
      <trkpt lat="46.29871" lon="-0.73098">
        <ele>53</ele>
        <time>2012-06-26T15:26:13Z</time>
      </trkpt>
      <trkpt lat="46.29865" lon="-0.731">
        <ele>53</ele>
        <time>2012-06-26T15:26:18Z</time>
      </trkpt>
      <trkpt lat="46.29859" lon="-0.73105">
        <ele>52</ele>
        <time>2012-06-26T15:26:23Z</time>
      </trkpt>
      <trkpt lat="46.29854" lon="-0.73106">
        <ele>55</ele>
        <time>2012-06-26T15:26:28Z</time>
      </trkpt>
      <trkpt lat="46.29849" lon="-0.7311">
        <ele>53</ele>
        <time>2012-06-26T15:26:33Z</time>
      </trkpt>
      <trkpt lat="46.29844" lon="-0.73112">
        <ele>53</ele>
        <time>2012-06-26T15:26:38Z</time>
      </trkpt>
      <trkpt lat="46.29832" lon="-0.73118">
        <ele>53</ele>
        <time>2012-06-26T15:26:43Z</time>
      </trkpt>
      <trkpt lat="46.29826" lon="-0.7312">
        <ele>52</ele>
        <time>2012-06-26T15:26:48Z</time>
      </trkpt>
      <trkpt lat="46.29822" lon="-0.73122">
        <ele>50</ele>
        <time>2012-06-26T15:26:53Z</time>
      </trkpt>
      <trkpt lat="46.29816" lon="-0.73122">
        <ele>48</ele>
        <time>2012-06-26T15:26:58Z</time>
      </trkpt>
      <trkpt lat="46.29811" lon="-0.73125">
        <ele>49</ele>
        <time>2012-06-26T15:27:03Z</time>
      </trkpt>
      <trkpt lat="46.29812" lon="-0.73127">
        <ele>50</ele>
        <time>2012-06-26T15:27:08Z</time>
      </trkpt>
      <trkpt lat="46.2981" lon="-0.73126">
        <ele>51</ele>
        <time>2012-06-26T15:27:13Z</time>
      </trkpt>
      <trkpt lat="46.29809" lon="-0.73126">
        <ele>51</ele>
        <time>2012-06-26T15:27:18Z</time>
      </trkpt>
      <trkpt lat="46.29806" lon="-0.73121">
        <ele>53</ele>
        <time>2012-06-26T15:27:23Z</time>
      </trkpt>
      <trkpt lat="46.29801" lon="-0.73112">
        <ele>51</ele>
        <time>2012-06-26T15:27:28Z</time>
      </trkpt>
      <trkpt lat="46.29797" lon="-0.73105">
        <ele>52</ele>
        <time>2012-06-26T15:27:33Z</time>
      </trkpt>
      <trkpt lat="46.29794" lon="-0.73099">
        <ele>54</ele>
        <time>2012-06-26T15:27:38Z</time>
      </trkpt>
      <trkpt lat="46.29793" lon="-0.73089">
        <ele>51</ele>
        <time>2012-06-26T15:27:43Z</time>
      </trkpt>
      <trkpt lat="46.29792" lon="-0.73082">
        <ele>52</ele>
        <time>2012-06-26T15:27:48Z</time>
      </trkpt>
      <trkpt lat="46.2979" lon="-0.73072">
        <ele>50</ele>
        <time>2012-06-26T15:27:53Z</time>
      </trkpt>
      <trkpt lat="46.29789" lon="-0.73066">
        <ele>50</ele>
        <time>2012-06-26T15:27:58Z</time>
      </trkpt>
      <trkpt lat="46.29786" lon="-0.73057">
        <ele>50</ele>
        <time>2012-06-26T15:28:03Z</time>
      </trkpt>
      <trkpt lat="46.29784" lon="-0.7305">
        <ele>51</ele>
        <time>2012-06-26T15:28:08Z</time>
      </trkpt>
      <trkpt lat="46.29781" lon="-0.73045">
        <ele>50</ele>
        <time>2012-06-26T15:28:13Z</time>
      </trkpt>
      <trkpt lat="46.29779" lon="-0.73037">
        <ele>51</ele>
        <time>2012-06-26T15:28:18Z</time>
      </trkpt>
      <trkpt lat="46.29779" lon="-0.7303">
        <ele>51</ele>
        <time>2012-06-26T15:28:23Z</time>
      </trkpt>
      <trkpt lat="46.29781" lon="-0.73023">
        <ele>52</ele>
        <time>2012-06-26T15:28:28Z</time>
      </trkpt>
      <trkpt lat="46.29782" lon="-0.73017">
        <ele>53</ele>
        <time>2012-06-26T15:28:33Z</time>
      </trkpt>
      <trkpt lat="46.29785" lon="-0.7301">
        <ele>53</ele>
        <time>2012-06-26T15:28:38Z</time>
      </trkpt>
      <trkpt lat="46.29786" lon="-0.73001">
        <ele>54</ele>
        <time>2012-06-26T15:28:43Z</time>
      </trkpt>
      <trkpt lat="46.29785" lon="-0.72993">
        <ele>54</ele>
        <time>2012-06-26T15:28:48Z</time>
      </trkpt>
      <trkpt lat="46.29779" lon="-0.72989">
        <ele>55</ele>
        <time>2012-06-26T15:28:53Z</time>
      </trkpt>
      <trkpt lat="46.29775" lon="-0.72984">
        <ele>56</ele>
        <time>2012-06-26T15:28:58Z</time>
      </trkpt>
      <trkpt lat="46.29772" lon="-0.72976">
        <ele>58</ele>
        <time>2012-06-26T15:29:03Z</time>
      </trkpt>
      <trkpt lat="46.29769" lon="-0.72968">
        <ele>59</ele>
        <time>2012-06-26T15:29:08Z</time>
      </trkpt>
      <trkpt lat="46.29763" lon="-0.72962">
        <ele>61</ele>
        <time>2012-06-26T15:29:13Z</time>
      </trkpt>
      <trkpt lat="46.2976" lon="-0.72957">
        <ele>62</ele>
        <time>2012-06-26T15:29:18Z</time>
      </trkpt>
      <trkpt lat="46.29758" lon="-0.72953">
        <ele>63</ele>
        <time>2012-06-26T15:29:23Z</time>
      </trkpt>
      <trkpt lat="46.29758" lon="-0.72948">
        <ele>62</ele>
        <time>2012-06-26T15:29:28Z</time>
      </trkpt>
      <trkpt lat="46.29754" lon="-0.72943">
        <ele>62</ele>
        <time>2012-06-26T15:29:33Z</time>
      </trkpt>
      <trkpt lat="46.2975" lon="-0.72934">
        <ele>63</ele>
        <time>2012-06-26T15:29:38Z</time>
      </trkpt>
      <trkpt lat="46.2975" lon="-0.72925">
        <ele>60</ele>
        <time>2012-06-26T15:29:43Z</time>
      </trkpt>
      <trkpt lat="46.29748" lon="-0.7292">
        <ele>60</ele>
        <time>2012-06-26T15:29:48Z</time>
      </trkpt>
      <trkpt lat="46.29741" lon="-0.72914">
        <ele>60</ele>
        <time>2012-06-26T15:29:53Z</time>
      </trkpt>
      <trkpt lat="46.29727" lon="-0.72915">
        <ele>63</ele>
        <time>2012-06-26T15:29:58Z</time>
      </trkpt>
      <trkpt lat="46.2972" lon="-0.72918">
        <ele>65</ele>
        <time>2012-06-26T15:30:03Z</time>
      </trkpt>
      <trkpt lat="46.29717" lon="-0.72923">
        <ele>64</ele>
        <time>2012-06-26T15:30:08Z</time>
      </trkpt>
      <trkpt lat="46.29714" lon="-0.72929">
        <ele>64</ele>
        <time>2012-06-26T15:30:13Z</time>
      </trkpt>
      <trkpt lat="46.29708" lon="-0.72934">
        <ele>66</ele>
        <time>2012-06-26T15:30:18Z</time>
      </trkpt>
      <trkpt lat="46.29703" lon="-0.72939">
        <ele>67</ele>
        <time>2012-06-26T15:30:23Z</time>
      </trkpt>
      <trkpt lat="46.29697" lon="-0.72942">
        <ele>68</ele>
        <time>2012-06-26T15:30:28Z</time>
      </trkpt>
      <trkpt lat="46.29692" lon="-0.72937">
        <ele>67</ele>
        <time>2012-06-26T15:30:33Z</time>
      </trkpt>
      <trkpt lat="46.2969" lon="-0.72931">
        <ele>67</ele>
        <time>2012-06-26T15:30:38Z</time>
      </trkpt>
      <trkpt lat="46.29688" lon="-0.72924">
        <ele>67</ele>
        <time>2012-06-26T15:30:43Z</time>
      </trkpt>
      <trkpt lat="46.2969" lon="-0.72916">
        <ele>60</ele>
        <time>2012-06-26T15:30:48Z</time>
      </trkpt>
      <trkpt lat="46.29683" lon="-0.72908">
        <ele>63</ele>
        <time>2012-06-26T15:30:53Z</time>
      </trkpt>
      <trkpt lat="46.29682" lon="-0.72898">
        <ele>60</ele>
        <time>2012-06-26T15:30:58Z</time>
      </trkpt>
      <trkpt lat="46.29677" lon="-0.72891">
        <ele>54</ele>
        <time>2012-06-26T15:31:03Z</time>
      </trkpt>
      <trkpt lat="46.29675" lon="-0.72885">
        <ele>51</ele>
        <time>2012-06-26T15:31:08Z</time>
      </trkpt>
      <trkpt lat="46.29672" lon="-0.72879">
        <ele>51</ele>
        <time>2012-06-26T15:31:13Z</time>
      </trkpt>
      <trkpt lat="46.29675" lon="-0.72876">
        <ele>52</ele>
        <time>2012-06-26T15:31:18Z</time>
      </trkpt>
      <trkpt lat="46.29681" lon="-0.72871">
        <ele>51</ele>
        <time>2012-06-26T15:31:23Z</time>
      </trkpt>
      <trkpt lat="46.29682" lon="-0.72864">
        <ele>54</ele>
        <time>2012-06-26T15:31:28Z</time>
      </trkpt>
      <trkpt lat="46.29684" lon="-0.72853">
        <ele>54</ele>
        <time>2012-06-26T15:31:33Z</time>
      </trkpt>
      <trkpt lat="46.29683" lon="-0.72843">
        <ele>56</ele>
        <time>2012-06-26T15:31:38Z</time>
      </trkpt>
      <trkpt lat="46.2968" lon="-0.72835">
        <ele>57</ele>
        <time>2012-06-26T15:31:43Z</time>
      </trkpt>
      <trkpt lat="46.29678" lon="-0.72828">
        <ele>58</ele>
        <time>2012-06-26T15:31:48Z</time>
      </trkpt>
      <trkpt lat="46.29672" lon="-0.7282">
        <ele>58</ele>
        <time>2012-06-26T15:31:53Z</time>
      </trkpt>
      <trkpt lat="46.29669" lon="-0.72813">
        <ele>58</ele>
        <time>2012-06-26T15:31:58Z</time>
      </trkpt>
      <trkpt lat="46.29665" lon="-0.72805">
        <ele>57</ele>
        <time>2012-06-26T15:32:03Z</time>
      </trkpt>
      <trkpt lat="46.29661" lon="-0.72797">
        <ele>56</ele>
        <time>2012-06-26T15:32:08Z</time>
      </trkpt>
      <trkpt lat="46.29655" lon="-0.7279">
        <ele>56</ele>
        <time>2012-06-26T15:32:13Z</time>
      </trkpt>
      <trkpt lat="46.29653" lon="-0.72783">
        <ele>54</ele>
        <time>2012-06-26T15:32:18Z</time>
      </trkpt>
      <trkpt lat="46.29651" lon="-0.72776">
        <ele>52</ele>
        <time>2012-06-26T15:32:23Z</time>
      </trkpt>
      <trkpt lat="46.29646" lon="-0.72767">
        <ele>55</ele>
        <time>2012-06-26T15:32:28Z</time>
      </trkpt>
      <trkpt lat="46.29643" lon="-0.72759">
        <ele>56</ele>
        <time>2012-06-26T15:32:33Z</time>
      </trkpt>
      <trkpt lat="46.2964" lon="-0.72752">
        <ele>58</ele>
        <time>2012-06-26T15:32:38Z</time>
      </trkpt>
      <trkpt lat="46.29637" lon="-0.72745">
        <ele>60</ele>
        <time>2012-06-26T15:32:43Z</time>
      </trkpt>
      <trkpt lat="46.29634" lon="-0.72738">
        <ele>60</ele>
        <time>2012-06-26T15:32:48Z</time>
      </trkpt>
      <trkpt lat="46.29627" lon="-0.72735">
        <ele>61</ele>
        <time>2012-06-26T15:32:53Z</time>
      </trkpt>
      <trkpt lat="46.29617" lon="-0.72733">
        <ele>60</ele>
        <time>2012-06-26T15:32:58Z</time>
      </trkpt>
      <trkpt lat="46.29613" lon="-0.72736">
        <ele>62</ele>
        <time>2012-06-26T15:33:03Z</time>
      </trkpt>
      <trkpt lat="46.2961" lon="-0.72736">
        <ele>63</ele>
        <time>2012-06-26T15:33:08Z</time>
      </trkpt>
      <trkpt lat="46.29611" lon="-0.72737">
        <ele>65</ele>
        <time>2012-06-26T15:33:13Z</time>
      </trkpt>
      <trkpt lat="46.29612" lon="-0.72732">
        <ele>66</ele>
        <time>2012-06-26T15:33:18Z</time>
      </trkpt>
      <trkpt lat="46.29607" lon="-0.72726">
        <ele>65</ele>
        <time>2012-06-26T15:33:23Z</time>
      </trkpt>
      <trkpt lat="46.29603" lon="-0.7272">
        <ele>65</ele>
        <time>2012-06-26T15:33:28Z</time>
      </trkpt>
      <trkpt lat="46.296" lon="-0.72714">
        <ele>67</ele>
        <time>2012-06-26T15:33:33Z</time>
      </trkpt>
      <trkpt lat="46.29596" lon="-0.72709">
        <ele>68</ele>
        <time>2012-06-26T15:33:38Z</time>
      </trkpt>
      <trkpt lat="46.29594" lon="-0.72706">
        <ele>67</ele>
        <time>2012-06-26T15:33:43Z</time>
      </trkpt>
      <trkpt lat="46.29593" lon="-0.72705">
        <ele>67</ele>
        <time>2012-06-26T15:33:48Z</time>
      </trkpt>
      <trkpt lat="46.29586" lon="-0.72702">
        <ele>67</ele>
        <time>2012-06-26T15:33:53Z</time>
      </trkpt>
      <trkpt lat="46.29579" lon="-0.72702">
        <ele>68</ele>
        <time>2012-06-26T15:33:58Z</time>
      </trkpt>
      <trkpt lat="46.29574" lon="-0.727">
        <ele>66</ele>
        <time>2012-06-26T15:34:03Z</time>
      </trkpt>
      <trkpt lat="46.29565" lon="-0.72697">
        <ele>66</ele>
        <time>2012-06-26T15:34:08Z</time>
      </trkpt>
      <trkpt lat="46.29553" lon="-0.72694">
        <ele>66</ele>
        <time>2012-06-26T15:34:13Z</time>
      </trkpt>
      <trkpt lat="46.29548" lon="-0.7269">
        <ele>66</ele>
        <time>2012-06-26T15:34:18Z</time>
      </trkpt>
      <trkpt lat="46.29542" lon="-0.72686">
        <ele>66</ele>
        <time>2012-06-26T15:34:23Z</time>
      </trkpt>
      <trkpt lat="46.29537" lon="-0.72684">
        <ele>66</ele>
        <time>2012-06-26T15:34:28Z</time>
      </trkpt>
      <trkpt lat="46.2953" lon="-0.72681">
        <ele>67</ele>
        <time>2012-06-26T15:34:33Z</time>
      </trkpt>
      <trkpt lat="46.29519" lon="-0.72679">
        <ele>71</ele>
        <time>2012-06-26T15:34:38Z</time>
      </trkpt>
      <trkpt lat="46.29512" lon="-0.72676">
        <ele>72</ele>
        <time>2012-06-26T15:34:43Z</time>
      </trkpt>
      <trkpt lat="46.29505" lon="-0.7267">
        <ele>73</ele>
        <time>2012-06-26T15:34:48Z</time>
      </trkpt>
      <trkpt lat="46.29502" lon="-0.72664">
        <ele>73</ele>
        <time>2012-06-26T15:34:53Z</time>
      </trkpt>
      <trkpt lat="46.29495" lon="-0.72656">
        <ele>72</ele>
        <time>2012-06-26T15:34:58Z</time>
      </trkpt>
      <trkpt lat="46.29492" lon="-0.72654">
        <ele>69</ele>
        <time>2012-06-26T15:35:03Z</time>
      </trkpt>
      <trkpt lat="46.2949" lon="-0.72652">
        <ele>69</ele>
        <time>2012-06-26T15:35:08Z</time>
      </trkpt>
      <trkpt lat="46.29488" lon="-0.72651">
        <ele>69</ele>
        <time>2012-06-26T15:35:13Z</time>
      </trkpt>
      <trkpt lat="46.29486" lon="-0.72655">
        <ele>66</ele>
        <time>2012-06-26T15:35:18Z</time>
      </trkpt>
      <trkpt lat="46.29483" lon="-0.72657">
        <ele>65</ele>
        <time>2012-06-26T15:35:23Z</time>
      </trkpt>
      <trkpt lat="46.29478" lon="-0.72659">
        <ele>60</ele>
        <time>2012-06-26T15:35:28Z</time>
      </trkpt>
      <trkpt lat="46.29474" lon="-0.72661">
        <ele>60</ele>
        <time>2012-06-26T15:35:33Z</time>
      </trkpt>
      <trkpt lat="46.29463" lon="-0.72669">
        <ele>56</ele>
        <time>2012-06-26T15:35:38Z</time>
      </trkpt>
      <trkpt lat="46.29458" lon="-0.72675">
        <ele>55</ele>
        <time>2012-06-26T15:35:43Z</time>
      </trkpt>
      <trkpt lat="46.29453" lon="-0.7268">
        <ele>56</ele>
        <time>2012-06-26T15:35:48Z</time>
      </trkpt>
      <trkpt lat="46.29446" lon="-0.72686">
        <ele>54</ele>
        <time>2012-06-26T15:35:53Z</time>
      </trkpt>
      <trkpt lat="46.2944" lon="-0.72692">
        <ele>52</ele>
        <time>2012-06-26T15:35:58Z</time>
      </trkpt>
      <trkpt lat="46.29433" lon="-0.72699">
        <ele>53</ele>
        <time>2012-06-26T15:36:03Z</time>
      </trkpt>
      <trkpt lat="46.29428" lon="-0.72704">
        <ele>55</ele>
        <time>2012-06-26T15:36:08Z</time>
      </trkpt>
      <trkpt lat="46.29426" lon="-0.72707">
        <ele>55</ele>
        <time>2012-06-26T15:36:13Z</time>
      </trkpt>
      <trkpt lat="46.29425" lon="-0.7271">
        <ele>57</ele>
        <time>2012-06-26T15:36:18Z</time>
      </trkpt>
      <trkpt lat="46.2942" lon="-0.72715">
        <ele>59</ele>
        <time>2012-06-26T15:36:23Z</time>
      </trkpt>
      <trkpt lat="46.29418" lon="-0.72717">
        <ele>58</ele>
        <time>2012-06-26T15:36:28Z</time>
      </trkpt>
      <trkpt lat="46.29413" lon="-0.72723">
        <ele>58</ele>
        <time>2012-06-26T15:36:33Z</time>
      </trkpt>
      <trkpt lat="46.29407" lon="-0.72725">
        <ele>58</ele>
        <time>2012-06-26T15:36:38Z</time>
      </trkpt>
      <trkpt lat="46.29405" lon="-0.72726">
        <ele>58</ele>
        <time>2012-06-26T15:36:43Z</time>
      </trkpt>
      <trkpt lat="46.294" lon="-0.72721">
        <ele>58</ele>
        <time>2012-06-26T15:36:48Z</time>
      </trkpt>
      <trkpt lat="46.294" lon="-0.7272">
        <ele>58</ele>
        <time>2012-06-26T15:36:53Z</time>
      </trkpt>
      <trkpt lat="46.29399" lon="-0.72718">
        <ele>59</ele>
        <time>2012-06-26T15:36:58Z</time>
      </trkpt>
      <trkpt lat="46.29398" lon="-0.72714">
        <ele>59</ele>
        <time>2012-06-26T15:37:03Z</time>
      </trkpt>
      <trkpt lat="46.2939" lon="-0.72706">
        <ele>59</ele>
        <time>2012-06-26T15:37:08Z</time>
      </trkpt>
      <trkpt lat="46.29385" lon="-0.72694">
        <ele>61</ele>
        <time>2012-06-26T15:37:13Z</time>
      </trkpt>
      <trkpt lat="46.29377" lon="-0.72691">
        <ele>61</ele>
        <time>2012-06-26T15:37:18Z</time>
      </trkpt>
      <trkpt lat="46.29372" lon="-0.72682">
        <ele>63</ele>
        <time>2012-06-26T15:37:23Z</time>
      </trkpt>
      <trkpt lat="46.29362" lon="-0.72674">
        <ele>63</ele>
        <time>2012-06-26T15:37:28Z</time>
      </trkpt>
      <trkpt lat="46.29357" lon="-0.72665">
        <ele>64</ele>
        <time>2012-06-26T15:37:33Z</time>
      </trkpt>
      <trkpt lat="46.29355" lon="-0.72662">
        <ele>66</ele>
        <time>2012-06-26T15:37:38Z</time>
      </trkpt>
      <trkpt lat="46.29355" lon="-0.7266">
        <ele>66</ele>
        <time>2012-06-26T15:37:43Z</time>
      </trkpt>
      <trkpt lat="46.29354" lon="-0.7266">
        <ele>65</ele>
        <time>2012-06-26T15:37:48Z</time>
      </trkpt>
      <trkpt lat="46.29344" lon="-0.72647">
        <ele>58</ele>
        <time>2012-06-26T15:37:53Z</time>
      </trkpt>
      <trkpt lat="46.29335" lon="-0.72639">
        <ele>55</ele>
        <time>2012-06-26T15:37:58Z</time>
      </trkpt>
      <trkpt lat="46.29329" lon="-0.72631">
        <ele>56</ele>
        <time>2012-06-26T15:38:03Z</time>
      </trkpt>
      <trkpt lat="46.29324" lon="-0.72622">
        <ele>56</ele>
        <time>2012-06-26T15:38:08Z</time>
      </trkpt>
      <trkpt lat="46.29321" lon="-0.72616">
        <ele>57</ele>
        <time>2012-06-26T15:38:13Z</time>
      </trkpt>
      <trkpt lat="46.29314" lon="-0.72612">
        <ele>54</ele>
        <time>2012-06-26T15:38:18Z</time>
      </trkpt>
      <trkpt lat="46.29311" lon="-0.72602">
        <ele>52</ele>
        <time>2012-06-26T15:38:23Z</time>
      </trkpt>
      <trkpt lat="46.29307" lon="-0.72594">
        <ele>50</ele>
        <time>2012-06-26T15:38:28Z</time>
      </trkpt>
      <trkpt lat="46.29304" lon="-0.72589">
        <ele>47</ele>
        <time>2012-06-26T15:38:33Z</time>
      </trkpt>
      <trkpt lat="46.293" lon="-0.72584">
        <ele>46</ele>
        <time>2012-06-26T15:38:38Z</time>
      </trkpt>
      <trkpt lat="46.29298" lon="-0.7258">
        <ele>46</ele>
        <time>2012-06-26T15:38:43Z</time>
      </trkpt>
      <trkpt lat="46.2929" lon="-0.72579">
        <ele>46</ele>
        <time>2012-06-26T15:38:48Z</time>
      </trkpt>
      <trkpt lat="46.29285" lon="-0.72574">
        <ele>48</ele>
        <time>2012-06-26T15:38:53Z</time>
      </trkpt>
      <trkpt lat="46.2928" lon="-0.72569">
        <ele>51</ele>
        <time>2012-06-26T15:38:58Z</time>
      </trkpt>
      <trkpt lat="46.29276" lon="-0.7256">
        <ele>54</ele>
        <time>2012-06-26T15:39:03Z</time>
      </trkpt>
      <trkpt lat="46.29272" lon="-0.72554">
        <ele>57</ele>
        <time>2012-06-26T15:39:08Z</time>
      </trkpt>
      <trkpt lat="46.29269" lon="-0.72549">
        <ele>57</ele>
        <time>2012-06-26T15:39:13Z</time>
      </trkpt>
      <trkpt lat="46.29266" lon="-0.72544">
        <ele>57</ele>
        <time>2012-06-26T15:39:18Z</time>
      </trkpt>
      <trkpt lat="46.29263" lon="-0.72537">
        <ele>54</ele>
        <time>2012-06-26T15:39:23Z</time>
      </trkpt>
      <trkpt lat="46.29259" lon="-0.7253">
        <ele>55</ele>
        <time>2012-06-26T15:39:28Z</time>
      </trkpt>
      <trkpt lat="46.29257" lon="-0.72526">
        <ele>55</ele>
        <time>2012-06-26T15:39:33Z</time>
      </trkpt>
      <trkpt lat="46.29248" lon="-0.72519">
        <ele>55</ele>
        <time>2012-06-26T15:39:38Z</time>
      </trkpt>
      <trkpt lat="46.29243" lon="-0.72513">
        <ele>53</ele>
        <time>2012-06-26T15:39:43Z</time>
      </trkpt>
      <trkpt lat="46.29238" lon="-0.72507">
        <ele>48</ele>
        <time>2012-06-26T15:39:48Z</time>
      </trkpt>
      <trkpt lat="46.29235" lon="-0.72498">
        <ele>47</ele>
        <time>2012-06-26T15:39:53Z</time>
      </trkpt>
      <trkpt lat="46.2923" lon="-0.72493">
        <ele>45</ele>
        <time>2012-06-26T15:39:58Z</time>
      </trkpt>
      <trkpt lat="46.29227" lon="-0.72485">
        <ele>46</ele>
        <time>2012-06-26T15:40:03Z</time>
      </trkpt>
      <trkpt lat="46.29224" lon="-0.7248">
        <ele>47</ele>
        <time>2012-06-26T15:40:08Z</time>
      </trkpt>
      <trkpt lat="46.29219" lon="-0.72475">
        <ele>44</ele>
        <time>2012-06-26T15:40:13Z</time>
      </trkpt>
      <trkpt lat="46.29213" lon="-0.72468">
        <ele>45</ele>
        <time>2012-06-26T15:40:18Z</time>
      </trkpt>
      <trkpt lat="46.29211" lon="-0.72464">
        <ele>46</ele>
        <time>2012-06-26T15:40:23Z</time>
      </trkpt>
      <trkpt lat="46.2921" lon="-0.7246">
        <ele>46</ele>
        <time>2012-06-26T15:40:28Z</time>
      </trkpt>
      <trkpt lat="46.29202" lon="-0.72444">
        <ele>53</ele>
        <time>2012-06-26T15:40:33Z</time>
      </trkpt>
      <trkpt lat="46.29197" lon="-0.72438">
        <ele>55</ele>
        <time>2012-06-26T15:40:38Z</time>
      </trkpt>
      <trkpt lat="46.29192" lon="-0.72435">
        <ele>55</ele>
        <time>2012-06-26T15:40:43Z</time>
      </trkpt>
      <trkpt lat="46.29186" lon="-0.72431">
        <ele>54</ele>
        <time>2012-06-26T15:40:48Z</time>
      </trkpt>
      <trkpt lat="46.2918" lon="-0.7243">
        <ele>54</ele>
        <time>2012-06-26T15:40:53Z</time>
      </trkpt>
      <trkpt lat="46.29176" lon="-0.72419">
        <ele>55</ele>
        <time>2012-06-26T15:40:58Z</time>
      </trkpt>
      <trkpt lat="46.29171" lon="-0.72411">
        <ele>54</ele>
        <time>2012-06-26T15:41:03Z</time>
      </trkpt>
      <trkpt lat="46.29168" lon="-0.724">
        <ele>57</ele>
        <time>2012-06-26T15:41:08Z</time>
      </trkpt>
      <trkpt lat="46.29164" lon="-0.72398">
        <ele>57</ele>
        <time>2012-06-26T15:41:13Z</time>
      </trkpt>
      <trkpt lat="46.29162" lon="-0.72388">
        <ele>60</ele>
        <time>2012-06-26T15:41:18Z</time>
      </trkpt>
      <trkpt lat="46.2916" lon="-0.72382">
        <ele>63</ele>
        <time>2012-06-26T15:41:23Z</time>
      </trkpt>
      <trkpt lat="46.29157" lon="-0.72379">
        <ele>62</ele>
        <time>2012-06-26T15:41:28Z</time>
      </trkpt>
      <trkpt lat="46.29154" lon="-0.72377">
        <ele>61</ele>
        <time>2012-06-26T15:41:33Z</time>
      </trkpt>
      <trkpt lat="46.29152" lon="-0.72374">
        <ele>61</ele>
        <time>2012-06-26T15:41:38Z</time>
      </trkpt>
      <trkpt lat="46.29147" lon="-0.72369">
        <ele>60</ele>
        <time>2012-06-26T15:41:43Z</time>
      </trkpt>
      <trkpt lat="46.29144" lon="-0.72362">
        <ele>59</ele>
        <time>2012-06-26T15:41:48Z</time>
      </trkpt>
      <trkpt lat="46.2914" lon="-0.72356">
        <ele>58</ele>
        <time>2012-06-26T15:41:53Z</time>
      </trkpt>
      <trkpt lat="46.29138" lon="-0.72351">
        <ele>57</ele>
        <time>2012-06-26T15:41:58Z</time>
      </trkpt>
      <trkpt lat="46.29138" lon="-0.72344">
        <ele>54</ele>
        <time>2012-06-26T15:42:03Z</time>
      </trkpt>
      <trkpt lat="46.29136" lon="-0.72337">
        <ele>54</ele>
        <time>2012-06-26T15:42:08Z</time>
      </trkpt>
      <trkpt lat="46.29131" lon="-0.72332">
        <ele>52</ele>
        <time>2012-06-26T15:42:13Z</time>
      </trkpt>
      <trkpt lat="46.29133" lon="-0.72317">
        <ele>48</ele>
        <time>2012-06-26T15:42:18Z</time>
      </trkpt>
      <trkpt lat="46.29132" lon="-0.72305">
        <ele>44</ele>
        <time>2012-06-26T15:42:23Z</time>
      </trkpt>
      <trkpt lat="46.29128" lon="-0.72298">
        <ele>43</ele>
        <time>2012-06-26T15:42:28Z</time>
      </trkpt>
      <trkpt lat="46.29123" lon="-0.72294">
        <ele>44</ele>
        <time>2012-06-26T15:42:33Z</time>
      </trkpt>
      <trkpt lat="46.29115" lon="-0.72288">
        <ele>48</ele>
        <time>2012-06-26T15:42:38Z</time>
      </trkpt>
      <trkpt lat="46.29111" lon="-0.72283">
        <ele>50</ele>
        <time>2012-06-26T15:42:43Z</time>
      </trkpt>
      <trkpt lat="46.29109" lon="-0.72275">
        <ele>51</ele>
        <time>2012-06-26T15:42:48Z</time>
      </trkpt>
      <trkpt lat="46.29107" lon="-0.72271">
        <ele>52</ele>
        <time>2012-06-26T15:42:53Z</time>
      </trkpt>
      <trkpt lat="46.29105" lon="-0.72264">
        <ele>53</ele>
        <time>2012-06-26T15:42:58Z</time>
      </trkpt>
      <trkpt lat="46.29103" lon="-0.72252">
        <ele>54</ele>
        <time>2012-06-26T15:43:03Z</time>
      </trkpt>
      <trkpt lat="46.29101" lon="-0.72243">
        <ele>56</ele>
        <time>2012-06-26T15:43:08Z</time>
      </trkpt>
      <trkpt lat="46.29098" lon="-0.72239">
        <ele>56</ele>
        <time>2012-06-26T15:43:13Z</time>
      </trkpt>
      <trkpt lat="46.29095" lon="-0.72236">
        <ele>57</ele>
        <time>2012-06-26T15:43:18Z</time>
      </trkpt>
      <trkpt lat="46.29095" lon="-0.72235">
        <ele>57</ele>
        <time>2012-06-26T15:43:23Z</time>
      </trkpt>
      <trkpt lat="46.29092" lon="-0.72226">
        <ele>58</ele>
        <time>2012-06-26T15:43:28Z</time>
      </trkpt>
      <trkpt lat="46.29086" lon="-0.72218">
        <ele>58</ele>
        <time>2012-06-26T15:43:33Z</time>
      </trkpt>
      <trkpt lat="46.29081" lon="-0.72218">
        <ele>56</ele>
        <time>2012-06-26T15:43:38Z</time>
      </trkpt>
      <trkpt lat="46.29077" lon="-0.72213">
        <ele>56</ele>
        <time>2012-06-26T15:43:43Z</time>
      </trkpt>
      <trkpt lat="46.29066" lon="-0.72207">
        <ele>57</ele>
        <time>2012-06-26T15:43:48Z</time>
      </trkpt>
      <trkpt lat="46.29061" lon="-0.722">
        <ele>57</ele>
        <time>2012-06-26T15:43:53Z</time>
      </trkpt>
      <trkpt lat="46.29058" lon="-0.72188">
        <ele>56</ele>
        <time>2012-06-26T15:43:58Z</time>
      </trkpt>
      <trkpt lat="46.29059" lon="-0.72179">
        <ele>53</ele>
        <time>2012-06-26T15:44:03Z</time>
      </trkpt>
      <trkpt lat="46.29063" lon="-0.72173">
        <ele>51</ele>
        <time>2012-06-26T15:44:08Z</time>
      </trkpt>
      <trkpt lat="46.29063" lon="-0.72168">
        <ele>50</ele>
        <time>2012-06-26T15:44:13Z</time>
      </trkpt>
      <trkpt lat="46.29058" lon="-0.72165">
        <ele>48</ele>
        <time>2012-06-26T15:44:18Z</time>
      </trkpt>
      <trkpt lat="46.29053" lon="-0.72157">
        <ele>47</ele>
        <time>2012-06-26T15:44:23Z</time>
      </trkpt>
      <trkpt lat="46.29046" lon="-0.72151">
        <ele>48</ele>
        <time>2012-06-26T15:44:28Z</time>
      </trkpt>
      <trkpt lat="46.2904" lon="-0.72145">
        <ele>50</ele>
        <time>2012-06-26T15:44:33Z</time>
      </trkpt>
      <trkpt lat="46.29039" lon="-0.72143">
        <ele>42</ele>
        <time>2012-06-26T15:44:38Z</time>
      </trkpt>
      <trkpt lat="46.29034" lon="-0.72139">
        <ele>42</ele>
        <time>2012-06-26T15:44:43Z</time>
      </trkpt>
      <trkpt lat="46.2903" lon="-0.7213">
        <ele>43</ele>
        <time>2012-06-26T15:44:48Z</time>
      </trkpt>
      <trkpt lat="46.29023" lon="-0.72126">
        <ele>44</ele>
        <time>2012-06-26T15:44:53Z</time>
      </trkpt>
      <trkpt lat="46.2902" lon="-0.7212">
        <ele>47</ele>
        <time>2012-06-26T15:44:58Z</time>
      </trkpt>
      <trkpt lat="46.29015" lon="-0.72112">
        <ele>48</ele>
        <time>2012-06-26T15:45:03Z</time>
      </trkpt>
      <trkpt lat="46.2901" lon="-0.72103">
        <ele>48</ele>
        <time>2012-06-26T15:45:08Z</time>
      </trkpt>
      <trkpt lat="46.29008" lon="-0.72097">
        <ele>52</ele>
        <time>2012-06-26T15:45:13Z</time>
      </trkpt>
      <trkpt lat="46.29005" lon="-0.7209">
        <ele>55</ele>
        <time>2012-06-26T15:45:18Z</time>
      </trkpt>
      <trkpt lat="46.29" lon="-0.72083">
        <ele>56</ele>
        <time>2012-06-26T15:45:23Z</time>
      </trkpt>
      <trkpt lat="46.28996" lon="-0.72077">
        <ele>55</ele>
        <time>2012-06-26T15:45:28Z</time>
      </trkpt>
      <trkpt lat="46.28989" lon="-0.72069">
        <ele>55</ele>
        <time>2012-06-26T15:45:33Z</time>
      </trkpt>
      <trkpt lat="46.28986" lon="-0.72061">
        <ele>56</ele>
        <time>2012-06-26T15:45:38Z</time>
      </trkpt>
      <trkpt lat="46.28984" lon="-0.72053">
        <ele>58</ele>
        <time>2012-06-26T15:45:43Z</time>
      </trkpt>
      <trkpt lat="46.28983" lon="-0.72048">
        <ele>57</ele>
        <time>2012-06-26T15:45:48Z</time>
      </trkpt>
      <trkpt lat="46.28979" lon="-0.72043">
        <ele>56</ele>
        <time>2012-06-26T15:45:53Z</time>
      </trkpt>
      <trkpt lat="46.28973" lon="-0.72038">
        <ele>54</ele>
        <time>2012-06-26T15:45:58Z</time>
      </trkpt>
      <trkpt lat="46.28968" lon="-0.72032">
        <ele>53</ele>
        <time>2012-06-26T15:46:03Z</time>
      </trkpt>
      <trkpt lat="46.28965" lon="-0.72029">
        <ele>52</ele>
        <time>2012-06-26T15:46:08Z</time>
      </trkpt>
      <trkpt lat="46.28964" lon="-0.7203">
        <ele>52</ele>
        <time>2012-06-26T15:46:14Z</time>
      </trkpt>
      <trkpt lat="46.28963" lon="-0.7203">
        <ele>52</ele>
        <time>2012-06-26T15:46:18Z</time>
      </trkpt>
      <trkpt lat="46.28962" lon="-0.72028">
        <ele>52</ele>
        <time>2012-06-26T15:46:23Z</time>
      </trkpt>
      <trkpt lat="46.28956" lon="-0.72023">
        <ele>53</ele>
        <time>2012-06-26T15:46:28Z</time>
      </trkpt>
      <trkpt lat="46.28954" lon="-0.72017">
        <ele>54</ele>
        <time>2012-06-26T15:46:33Z</time>
      </trkpt>
      <trkpt lat="46.28951" lon="-0.72011">
        <ele>54</ele>
        <time>2012-06-26T15:46:38Z</time>
      </trkpt>
      <trkpt lat="46.28949" lon="-0.72002">
        <ele>54</ele>
        <time>2012-06-26T15:46:43Z</time>
      </trkpt>
      <trkpt lat="46.28949" lon="-0.71994">
        <ele>54</ele>
        <time>2012-06-26T15:46:48Z</time>
      </trkpt>
      <trkpt lat="46.28947" lon="-0.71987">
        <ele>53</ele>
        <time>2012-06-26T15:46:53Z</time>
      </trkpt>
      <trkpt lat="46.28938" lon="-0.71979">
        <ele>53</ele>
        <time>2012-06-26T15:46:58Z</time>
      </trkpt>
      <trkpt lat="46.28932" lon="-0.71975">
        <ele>57</ele>
        <time>2012-06-26T15:47:03Z</time>
      </trkpt>
      <trkpt lat="46.28927" lon="-0.71978">
        <ele>56</ele>
        <time>2012-06-26T15:47:08Z</time>
      </trkpt>
      <trkpt lat="46.28924" lon="-0.71986">
        <ele>55</ele>
        <time>2012-06-26T15:47:13Z</time>
      </trkpt>
      <trkpt lat="46.28919" lon="-0.71994">
        <ele>55</ele>
        <time>2012-06-26T15:47:18Z</time>
      </trkpt>
      <trkpt lat="46.28913" lon="-0.72007">
        <ele>51</ele>
        <time>2012-06-26T15:47:23Z</time>
      </trkpt>
      <trkpt lat="46.28905" lon="-0.72016">
        <ele>50</ele>
        <time>2012-06-26T15:47:28Z</time>
      </trkpt>
      <trkpt lat="46.28895" lon="-0.72023">
        <ele>49</ele>
        <time>2012-06-26T15:47:33Z</time>
      </trkpt>
      <trkpt lat="46.28889" lon="-0.7203">
        <ele>50</ele>
        <time>2012-06-26T15:47:38Z</time>
      </trkpt>
      <trkpt lat="46.28883" lon="-0.72034">
        <ele>50</ele>
        <time>2012-06-26T15:47:43Z</time>
      </trkpt>
      <trkpt lat="46.28874" lon="-0.72041">
        <ele>52</ele>
        <time>2012-06-26T15:47:48Z</time>
      </trkpt>
      <trkpt lat="46.28869" lon="-0.72049">
        <ele>53</ele>
        <time>2012-06-26T15:47:53Z</time>
      </trkpt>
      <trkpt lat="46.2887" lon="-0.72054">
        <ele>49</ele>
        <time>2012-06-26T15:47:58Z</time>
      </trkpt>
      <trkpt lat="46.28867" lon="-0.72057">
        <ele>50</ele>
        <time>2012-06-26T15:48:03Z</time>
      </trkpt>
      <trkpt lat="46.28864" lon="-0.72061">
        <ele>52</ele>
        <time>2012-06-26T15:48:08Z</time>
      </trkpt>
      <trkpt lat="46.28858" lon="-0.72065">
        <ele>54</ele>
        <time>2012-06-26T15:48:13Z</time>
      </trkpt>
      <trkpt lat="46.28854" lon="-0.72067">
        <ele>57</ele>
        <time>2012-06-26T15:48:18Z</time>
      </trkpt>
      <trkpt lat="46.28847" lon="-0.72073">
        <ele>56</ele>
        <time>2012-06-26T15:48:23Z</time>
      </trkpt>
      <trkpt lat="46.28844" lon="-0.72076">
        <ele>57</ele>
        <time>2012-06-26T15:48:28Z</time>
      </trkpt>
      <trkpt lat="46.28843" lon="-0.72075">
        <ele>60</ele>
        <time>2012-06-26T15:48:33Z</time>
      </trkpt>
      <trkpt lat="46.28838" lon="-0.72079">
        <ele>60</ele>
        <time>2012-06-26T15:48:38Z</time>
      </trkpt>
      <trkpt lat="46.28831" lon="-0.72088">
        <ele>60</ele>
        <time>2012-06-26T15:48:43Z</time>
      </trkpt>
      <trkpt lat="46.28823" lon="-0.72094">
        <ele>58</ele>
        <time>2012-06-26T15:48:48Z</time>
      </trkpt>
      <trkpt lat="46.28818" lon="-0.721">
        <ele>58</ele>
        <time>2012-06-26T15:48:53Z</time>
      </trkpt>
      <trkpt lat="46.28815" lon="-0.72104">
        <ele>59</ele>
        <time>2012-06-26T15:48:58Z</time>
      </trkpt>
      <trkpt lat="46.2881" lon="-0.72109">
        <ele>58</ele>
        <time>2012-06-26T15:49:03Z</time>
      </trkpt>
      <trkpt lat="46.28804" lon="-0.72114">
        <ele>57</ele>
        <time>2012-06-26T15:49:08Z</time>
      </trkpt>
      <trkpt lat="46.28798" lon="-0.72119">
        <ele>57</ele>
        <time>2012-06-26T15:49:13Z</time>
      </trkpt>
      <trkpt lat="46.28787" lon="-0.72129">
        <ele>57</ele>
        <time>2012-06-26T15:49:18Z</time>
      </trkpt>
      <trkpt lat="46.2878" lon="-0.72135">
        <ele>59</ele>
        <time>2012-06-26T15:49:23Z</time>
      </trkpt>
      <trkpt lat="46.28777" lon="-0.72136">
        <ele>59</ele>
        <time>2012-06-26T15:49:28Z</time>
      </trkpt>
      <trkpt lat="46.28775" lon="-0.72132">
        <ele>59</ele>
        <time>2012-06-26T15:49:33Z</time>
      </trkpt>
      <trkpt lat="46.28772" lon="-0.72126">
        <ele>58</ele>
        <time>2012-06-26T15:49:38Z</time>
      </trkpt>
      <trkpt lat="46.28769" lon="-0.72119">
        <ele>57</ele>
        <time>2012-06-26T15:49:43Z</time>
      </trkpt>
      <trkpt lat="46.28765" lon="-0.7211">
        <ele>58</ele>
        <time>2012-06-26T15:49:48Z</time>
      </trkpt>
      <trkpt lat="46.2876" lon="-0.72103">
        <ele>54</ele>
        <time>2012-06-26T15:49:53Z</time>
      </trkpt>
      <trkpt lat="46.28755" lon="-0.72096">
        <ele>53</ele>
        <time>2012-06-26T15:49:58Z</time>
      </trkpt>
      <trkpt lat="46.28753" lon="-0.72088">
        <ele>53</ele>
        <time>2012-06-26T15:50:03Z</time>
      </trkpt>
      <trkpt lat="46.28744" lon="-0.7208">
        <ele>62</ele>
        <time>2012-06-26T15:50:08Z</time>
      </trkpt>
      <trkpt lat="46.28741" lon="-0.72073">
        <ele>62</ele>
        <time>2012-06-26T15:50:13Z</time>
      </trkpt>
      <trkpt lat="46.28736" lon="-0.72063">
        <ele>66</ele>
        <time>2012-06-26T15:50:18Z</time>
      </trkpt>
      <trkpt lat="46.28732" lon="-0.72056">
        <ele>67</ele>
        <time>2012-06-26T15:50:23Z</time>
      </trkpt>
      <trkpt lat="46.28731" lon="-0.72048">
        <ele>68</ele>
        <time>2012-06-26T15:50:28Z</time>
      </trkpt>
      <trkpt lat="46.28732" lon="-0.72041">
        <ele>67</ele>
        <time>2012-06-26T15:50:33Z</time>
      </trkpt>
      <trkpt lat="46.28729" lon="-0.72035">
        <ele>64</ele>
        <time>2012-06-26T15:50:38Z</time>
      </trkpt>
      <trkpt lat="46.28727" lon="-0.72025">
        <ele>70</ele>
        <time>2012-06-26T15:50:43Z</time>
      </trkpt>
      <trkpt lat="46.28723" lon="-0.72017">
        <ele>69</ele>
        <time>2012-06-26T15:50:48Z</time>
      </trkpt>
      <trkpt lat="46.28721" lon="-0.7201">
        <ele>68</ele>
        <time>2012-06-26T15:50:53Z</time>
      </trkpt>
      <trkpt lat="46.28719" lon="-0.72003">
        <ele>68</ele>
        <time>2012-06-26T15:50:58Z</time>
      </trkpt>
      <trkpt lat="46.28717" lon="-0.71995">
        <ele>67</ele>
        <time>2012-06-26T15:51:03Z</time>
      </trkpt>
      <trkpt lat="46.28713" lon="-0.71987">
        <ele>65</ele>
        <time>2012-06-26T15:51:08Z</time>
      </trkpt>
      <trkpt lat="46.28707" lon="-0.7198">
        <ele>63</ele>
        <time>2012-06-26T15:51:13Z</time>
      </trkpt>
      <trkpt lat="46.28702" lon="-0.71971">
        <ele>66</ele>
        <time>2012-06-26T15:51:18Z</time>
      </trkpt>
      <trkpt lat="46.287" lon="-0.71966">
        <ele>66</ele>
        <time>2012-06-26T15:51:23Z</time>
      </trkpt>
      <trkpt lat="46.2869" lon="-0.71963">
        <ele>72</ele>
        <time>2012-06-26T15:51:28Z</time>
      </trkpt>
      <trkpt lat="46.28686" lon="-0.71957">
        <ele>72</ele>
        <time>2012-06-26T15:51:33Z</time>
      </trkpt>
      <trkpt lat="46.28684" lon="-0.71951">
        <ele>70</ele>
        <time>2012-06-26T15:51:38Z</time>
      </trkpt>
      <trkpt lat="46.28684" lon="-0.71947">
        <ele>68</ele>
        <time>2012-06-26T15:51:43Z</time>
      </trkpt>
      <trkpt lat="46.28681" lon="-0.71937">
        <ele>65</ele>
        <time>2012-06-26T15:51:48Z</time>
      </trkpt>
      <trkpt lat="46.28681" lon="-0.71927">
        <ele>65</ele>
        <time>2012-06-26T15:51:53Z</time>
      </trkpt>
      <trkpt lat="46.28678" lon="-0.71919">
        <ele>66</ele>
        <time>2012-06-26T15:51:58Z</time>
      </trkpt>
      <trkpt lat="46.28675" lon="-0.71916">
        <ele>63</ele>
        <time>2012-06-26T15:52:03Z</time>
      </trkpt>
      <trkpt lat="46.28671" lon="-0.71909">
        <ele>64</ele>
        <time>2012-06-26T15:52:08Z</time>
      </trkpt>
      <trkpt lat="46.28671" lon="-0.71902">
        <ele>64</ele>
        <time>2012-06-26T15:52:13Z</time>
      </trkpt>
      <trkpt lat="46.28667" lon="-0.71894">
        <ele>62</ele>
        <time>2012-06-26T15:52:18Z</time>
      </trkpt>
      <trkpt lat="46.28664" lon="-0.71886">
        <ele>65</ele>
        <time>2012-06-26T15:52:23Z</time>
      </trkpt>
      <trkpt lat="46.2866" lon="-0.71883">
        <ele>58</ele>
        <time>2012-06-26T15:52:28Z</time>
      </trkpt>
      <trkpt lat="46.28653" lon="-0.71879">
        <ele>57</ele>
        <time>2012-06-26T15:52:33Z</time>
      </trkpt>
      <trkpt lat="46.28652" lon="-0.71874">
        <ele>57</ele>
        <time>2012-06-26T15:52:38Z</time>
      </trkpt>
      <trkpt lat="46.2865" lon="-0.71869">
        <ele>55</ele>
        <time>2012-06-26T15:52:43Z</time>
      </trkpt>
      <trkpt lat="46.28641" lon="-0.71863">
        <ele>55</ele>
        <time>2012-06-26T15:52:48Z</time>
      </trkpt>
      <trkpt lat="46.28634" lon="-0.71855">
        <ele>55</ele>
        <time>2012-06-26T15:52:53Z</time>
      </trkpt>
      <trkpt lat="46.28629" lon="-0.71849">
        <ele>54</ele>
        <time>2012-06-26T15:52:58Z</time>
      </trkpt>
      <trkpt lat="46.28622" lon="-0.71842">
        <ele>54</ele>
        <time>2012-06-26T15:53:03Z</time>
      </trkpt>
      <trkpt lat="46.2862" lon="-0.71835">
        <ele>52</ele>
        <time>2012-06-26T15:53:08Z</time>
      </trkpt>
      <trkpt lat="46.28615" lon="-0.71832">
        <ele>53</ele>
        <time>2012-06-26T15:53:13Z</time>
      </trkpt>
      <trkpt lat="46.28612" lon="-0.71827">
        <ele>54</ele>
        <time>2012-06-26T15:53:18Z</time>
      </trkpt>
      <trkpt lat="46.28605" lon="-0.71823">
        <ele>59</ele>
        <time>2012-06-26T15:53:23Z</time>
      </trkpt>
      <trkpt lat="46.28599" lon="-0.71821">
        <ele>60</ele>
        <time>2012-06-26T15:53:28Z</time>
      </trkpt>
      <trkpt lat="46.28593" lon="-0.71824">
        <ele>59</ele>
        <time>2012-06-26T15:53:33Z</time>
      </trkpt>
      <trkpt lat="46.28586" lon="-0.71828">
        <ele>57</ele>
        <time>2012-06-26T15:53:38Z</time>
      </trkpt>
      <trkpt lat="46.2858" lon="-0.71831">
        <ele>56</ele>
        <time>2012-06-26T15:53:43Z</time>
      </trkpt>
      <trkpt lat="46.28576" lon="-0.71826">
        <ele>59</ele>
        <time>2012-06-26T15:53:48Z</time>
      </trkpt>
      <trkpt lat="46.28573" lon="-0.71822">
        <ele>58</ele>
        <time>2012-06-26T15:53:53Z</time>
      </trkpt>
      <trkpt lat="46.28566" lon="-0.7182">
        <ele>56</ele>
        <time>2012-06-26T15:53:58Z</time>
      </trkpt>
      <trkpt lat="46.2856" lon="-0.71819">
        <ele>55</ele>
        <time>2012-06-26T15:54:03Z</time>
      </trkpt>
      <trkpt lat="46.28556" lon="-0.71822">
        <ele>56</ele>
        <time>2012-06-26T15:54:08Z</time>
      </trkpt>
      <trkpt lat="46.2855" lon="-0.71827">
        <ele>53</ele>
        <time>2012-06-26T15:54:13Z</time>
      </trkpt>
      <trkpt lat="46.28544" lon="-0.7183">
        <ele>51</ele>
        <time>2012-06-26T15:54:18Z</time>
      </trkpt>
      <trkpt lat="46.28538" lon="-0.71832">
        <ele>51</ele>
        <time>2012-06-26T15:54:23Z</time>
      </trkpt>
      <trkpt lat="46.28532" lon="-0.71828">
        <ele>52</ele>
        <time>2012-06-26T15:54:28Z</time>
      </trkpt>
      <trkpt lat="46.28527" lon="-0.71825">
        <ele>51</ele>
        <time>2012-06-26T15:54:33Z</time>
      </trkpt>
      <trkpt lat="46.28522" lon="-0.71822">
        <ele>50</ele>
        <time>2012-06-26T15:54:38Z</time>
      </trkpt>
      <trkpt lat="46.2852" lon="-0.71816">
        <ele>56</ele>
        <time>2012-06-26T15:54:43Z</time>
      </trkpt>
      <trkpt lat="46.28518" lon="-0.71812">
        <ele>56</ele>
        <time>2012-06-26T15:54:48Z</time>
      </trkpt>
      <trkpt lat="46.28514" lon="-0.71808">
        <ele>55</ele>
        <time>2012-06-26T15:54:53Z</time>
      </trkpt>
      <trkpt lat="46.28512" lon="-0.71801">
        <ele>54</ele>
        <time>2012-06-26T15:54:58Z</time>
      </trkpt>
      <trkpt lat="46.28507" lon="-0.71796">
        <ele>55</ele>
        <time>2012-06-26T15:55:03Z</time>
      </trkpt>
      <trkpt lat="46.28504" lon="-0.71791">
        <ele>56</ele>
        <time>2012-06-26T15:55:08Z</time>
      </trkpt>
      <trkpt lat="46.285" lon="-0.71789">
        <ele>55</ele>
        <time>2012-06-26T15:55:13Z</time>
      </trkpt>
      <trkpt lat="46.28493" lon="-0.71785">
        <ele>55</ele>
        <time>2012-06-26T15:55:18Z</time>
      </trkpt>
      <trkpt lat="46.28489" lon="-0.71781">
        <ele>54</ele>
        <time>2012-06-26T15:55:23Z</time>
      </trkpt>
      <trkpt lat="46.2848" lon="-0.71776">
        <ele>53</ele>
        <time>2012-06-26T15:55:28Z</time>
      </trkpt>
      <trkpt lat="46.28475" lon="-0.71768">
        <ele>54</ele>
        <time>2012-06-26T15:55:33Z</time>
      </trkpt>
      <trkpt lat="46.2847" lon="-0.71762">
        <ele>54</ele>
        <time>2012-06-26T15:55:38Z</time>
      </trkpt>
      <trkpt lat="46.28464" lon="-0.71756">
        <ele>53</ele>
        <time>2012-06-26T15:55:43Z</time>
      </trkpt>
      <trkpt lat="46.28458" lon="-0.71747">
        <ele>53</ele>
        <time>2012-06-26T15:55:48Z</time>
      </trkpt>
      <trkpt lat="46.28454" lon="-0.71739">
        <ele>52</ele>
        <time>2012-06-26T15:55:53Z</time>
      </trkpt>
      <trkpt lat="46.28453" lon="-0.7173">
        <ele>51</ele>
        <time>2012-06-26T15:55:58Z</time>
      </trkpt>
      <trkpt lat="46.28452" lon="-0.71724">
        <ele>52</ele>
        <time>2012-06-26T15:56:03Z</time>
      </trkpt>
      <trkpt lat="46.2845" lon="-0.71719">
        <ele>54</ele>
        <time>2012-06-26T15:56:08Z</time>
      </trkpt>
      <trkpt lat="46.28445" lon="-0.71717">
        <ele>53</ele>
        <time>2012-06-26T15:56:13Z</time>
      </trkpt>
      <trkpt lat="46.28438" lon="-0.71711">
        <ele>55</ele>
        <time>2012-06-26T15:56:18Z</time>
      </trkpt>
      <trkpt lat="46.28433" lon="-0.71708">
        <ele>54</ele>
        <time>2012-06-26T15:56:23Z</time>
      </trkpt>
      <trkpt lat="46.28426" lon="-0.71701">
        <ele>57</ele>
        <time>2012-06-26T15:56:28Z</time>
      </trkpt>
      <trkpt lat="46.28421" lon="-0.71695">
        <ele>57</ele>
        <time>2012-06-26T15:56:33Z</time>
      </trkpt>
      <trkpt lat="46.28417" lon="-0.71688">
        <ele>57</ele>
        <time>2012-06-26T15:56:38Z</time>
      </trkpt>
      <trkpt lat="46.28411" lon="-0.71681">
        <ele>57</ele>
        <time>2012-06-26T15:56:43Z</time>
      </trkpt>
      <trkpt lat="46.28404" lon="-0.71676">
        <ele>57</ele>
        <time>2012-06-26T15:56:48Z</time>
      </trkpt>
      <trkpt lat="46.284" lon="-0.71673">
        <ele>54</ele>
        <time>2012-06-26T15:56:53Z</time>
      </trkpt>
      <trkpt lat="46.28395" lon="-0.71667">
        <ele>52</ele>
        <time>2012-06-26T15:56:58Z</time>
      </trkpt>
      <trkpt lat="46.2839" lon="-0.7166">
        <ele>52</ele>
        <time>2012-06-26T15:57:03Z</time>
      </trkpt>
      <trkpt lat="46.28386" lon="-0.71653">
        <ele>55</ele>
        <time>2012-06-26T15:57:08Z</time>
      </trkpt>
      <trkpt lat="46.28384" lon="-0.71644">
        <ele>56</ele>
        <time>2012-06-26T15:57:13Z</time>
      </trkpt>
      <trkpt lat="46.28381" lon="-0.71637">
        <ele>56</ele>
        <time>2012-06-26T15:57:18Z</time>
      </trkpt>
      <trkpt lat="46.28377" lon="-0.71633">
        <ele>56</ele>
        <time>2012-06-26T15:57:23Z</time>
      </trkpt>
      <trkpt lat="46.28371" lon="-0.71627">
        <ele>58</ele>
        <time>2012-06-26T15:57:28Z</time>
      </trkpt>
      <trkpt lat="46.28368" lon="-0.71621">
        <ele>58</ele>
        <time>2012-06-26T15:57:33Z</time>
      </trkpt>
      <trkpt lat="46.28363" lon="-0.71615">
        <ele>56</ele>
        <time>2012-06-26T15:57:38Z</time>
      </trkpt>
      <trkpt lat="46.2836" lon="-0.71606">
        <ele>56</ele>
        <time>2012-06-26T15:57:43Z</time>
      </trkpt>
      <trkpt lat="46.28357" lon="-0.71599">
        <ele>57</ele>
        <time>2012-06-26T15:57:48Z</time>
      </trkpt>
      <trkpt lat="46.28353" lon="-0.71593">
        <ele>55</ele>
        <time>2012-06-26T15:57:53Z</time>
      </trkpt>
      <trkpt lat="46.28349" lon="-0.71588">
        <ele>54</ele>
        <time>2012-06-26T15:57:58Z</time>
      </trkpt>
      <trkpt lat="46.28343" lon="-0.71579">
        <ele>55</ele>
        <time>2012-06-26T15:58:03Z</time>
      </trkpt>
      <trkpt lat="46.2834" lon="-0.71574">
        <ele>52</ele>
        <time>2012-06-26T15:58:08Z</time>
      </trkpt>
      <trkpt lat="46.28335" lon="-0.71569">
        <ele>51</ele>
        <time>2012-06-26T15:58:13Z</time>
      </trkpt>
      <trkpt lat="46.28331" lon="-0.71565">
        <ele>49</ele>
        <time>2012-06-26T15:58:18Z</time>
      </trkpt>
      <trkpt lat="46.28327" lon="-0.71561">
        <ele>47</ele>
        <time>2012-06-26T15:58:23Z</time>
      </trkpt>
      <trkpt lat="46.28324" lon="-0.71555">
        <ele>47</ele>
        <time>2012-06-26T15:58:28Z</time>
      </trkpt>
      <trkpt lat="46.28317" lon="-0.71548">
        <ele>49</ele>
        <time>2012-06-26T15:58:33Z</time>
      </trkpt>
      <trkpt lat="46.28314" lon="-0.71542">
        <ele>49</ele>
        <time>2012-06-26T15:58:38Z</time>
      </trkpt>
      <trkpt lat="46.2831" lon="-0.71538">
        <ele>50</ele>
        <time>2012-06-26T15:58:43Z</time>
      </trkpt>
      <trkpt lat="46.28306" lon="-0.71534">
        <ele>51</ele>
        <time>2012-06-26T15:58:48Z</time>
      </trkpt>
      <trkpt lat="46.28305" lon="-0.71525">
        <ele>52</ele>
        <time>2012-06-26T15:58:53Z</time>
      </trkpt>
      <trkpt lat="46.28299" lon="-0.7152">
        <ele>53</ele>
        <time>2012-06-26T15:58:58Z</time>
      </trkpt>
      <trkpt lat="46.28291" lon="-0.71512">
        <ele>57</ele>
        <time>2012-06-26T15:59:03Z</time>
      </trkpt>
      <trkpt lat="46.28287" lon="-0.71508">
        <ele>57</ele>
        <time>2012-06-26T15:59:08Z</time>
      </trkpt>
      <trkpt lat="46.28281" lon="-0.71498">
        <ele>62</ele>
        <time>2012-06-26T15:59:13Z</time>
      </trkpt>
      <trkpt lat="46.28279" lon="-0.71491">
        <ele>63</ele>
        <time>2012-06-26T15:59:18Z</time>
      </trkpt>
      <trkpt lat="46.2828" lon="-0.71485">
        <ele>64</ele>
        <time>2012-06-26T15:59:23Z</time>
      </trkpt>
      <trkpt lat="46.28277" lon="-0.71482">
        <ele>63</ele>
        <time>2012-06-26T15:59:28Z</time>
      </trkpt>
      <trkpt lat="46.28271" lon="-0.71479">
        <ele>61</ele>
        <time>2012-06-26T15:59:33Z</time>
      </trkpt>
      <trkpt lat="46.28269" lon="-0.71476">
        <ele>52</ele>
        <time>2012-06-26T15:59:38Z</time>
      </trkpt>
      <trkpt lat="46.28262" lon="-0.71467">
        <ele>51</ele>
        <time>2012-06-26T15:59:43Z</time>
      </trkpt>
      <trkpt lat="46.28258" lon="-0.7146">
        <ele>50</ele>
        <time>2012-06-26T15:59:48Z</time>
      </trkpt>
      <trkpt lat="46.28254" lon="-0.71454">
        <ele>50</ele>
        <time>2012-06-26T15:59:53Z</time>
      </trkpt>
      <trkpt lat="46.28249" lon="-0.71445">
        <ele>50</ele>
        <time>2012-06-26T15:59:58Z</time>
      </trkpt>
      <trkpt lat="46.28245" lon="-0.71438">
        <ele>51</ele>
        <time>2012-06-26T16:00:03Z</time>
      </trkpt>
      <trkpt lat="46.28238" lon="-0.71433">
        <ele>52</ele>
        <time>2012-06-26T16:00:08Z</time>
      </trkpt>
      <trkpt lat="46.28236" lon="-0.71423">
        <ele>56</ele>
        <time>2012-06-26T16:00:13Z</time>
      </trkpt>
      <trkpt lat="46.28232" lon="-0.71415">
        <ele>62</ele>
        <time>2012-06-26T16:00:18Z</time>
      </trkpt>
      <trkpt lat="46.28231" lon="-0.71408">
        <ele>60</ele>
        <time>2012-06-26T16:00:23Z</time>
      </trkpt>
      <trkpt lat="46.28225" lon="-0.71401">
        <ele>65</ele>
        <time>2012-06-26T16:00:28Z</time>
      </trkpt>
      <trkpt lat="46.28224" lon="-0.71392">
        <ele>64</ele>
        <time>2012-06-26T16:00:33Z</time>
      </trkpt>
      <trkpt lat="46.28224" lon="-0.71384">
        <ele>62</ele>
        <time>2012-06-26T16:00:38Z</time>
      </trkpt>
      <trkpt lat="46.28222" lon="-0.71375">
        <ele>60</ele>
        <time>2012-06-26T16:00:43Z</time>
      </trkpt>
      <trkpt lat="46.2822" lon="-0.71368">
        <ele>60</ele>
        <time>2012-06-26T16:00:48Z</time>
      </trkpt>
      <trkpt lat="46.28219" lon="-0.71363">
        <ele>58</ele>
        <time>2012-06-26T16:00:53Z</time>
      </trkpt>
      <trkpt lat="46.28217" lon="-0.71358">
        <ele>57</ele>
        <time>2012-06-26T16:00:58Z</time>
      </trkpt>
      <trkpt lat="46.28217" lon="-0.7135">
        <ele>56</ele>
        <time>2012-06-26T16:01:03Z</time>
      </trkpt>
      <trkpt lat="46.28213" lon="-0.71344">
        <ele>56</ele>
        <time>2012-06-26T16:01:08Z</time>
      </trkpt>
      <trkpt lat="46.28211" lon="-0.71337">
        <ele>56</ele>
        <time>2012-06-26T16:01:13Z</time>
      </trkpt>
      <trkpt lat="46.28209" lon="-0.71331">
        <ele>52</ele>
        <time>2012-06-26T16:01:18Z</time>
      </trkpt>
      <trkpt lat="46.28205" lon="-0.71321">
        <ele>52</ele>
        <time>2012-06-26T16:01:23Z</time>
      </trkpt>
      <trkpt lat="46.28201" lon="-0.71312">
        <ele>52</ele>
        <time>2012-06-26T16:01:28Z</time>
      </trkpt>
      <trkpt lat="46.28202" lon="-0.71306">
        <ele>53</ele>
        <time>2012-06-26T16:01:33Z</time>
      </trkpt>
      <trkpt lat="46.28197" lon="-0.713">
        <ele>54</ele>
        <time>2012-06-26T16:01:38Z</time>
      </trkpt>
      <trkpt lat="46.28193" lon="-0.71292">
        <ele>55</ele>
        <time>2012-06-26T16:01:43Z</time>
      </trkpt>
      <trkpt lat="46.28189" lon="-0.71282">
        <ele>56</ele>
        <time>2012-06-26T16:01:48Z</time>
      </trkpt>
      <trkpt lat="46.28185" lon="-0.71278">
        <ele>58</ele>
        <time>2012-06-26T16:01:53Z</time>
      </trkpt>
      <trkpt lat="46.28181" lon="-0.71273">
        <ele>57</ele>
        <time>2012-06-26T16:01:58Z</time>
      </trkpt>
      <trkpt lat="46.28178" lon="-0.71266">
        <ele>55</ele>
        <time>2012-06-26T16:02:03Z</time>
      </trkpt>
      <trkpt lat="46.28174" lon="-0.71259">
        <ele>53</ele>
        <time>2012-06-26T16:02:08Z</time>
      </trkpt>
      <trkpt lat="46.28171" lon="-0.71251">
        <ele>54</ele>
        <time>2012-06-26T16:02:13Z</time>
      </trkpt>
      <trkpt lat="46.28167" lon="-0.71243">
        <ele>52</ele>
        <time>2012-06-26T16:02:18Z</time>
      </trkpt>
      <trkpt lat="46.28163" lon="-0.7124">
        <ele>50</ele>
        <time>2012-06-26T16:02:23Z</time>
      </trkpt>
      <trkpt lat="46.28163" lon="-0.7123">
        <ele>50</ele>
        <time>2012-06-26T16:02:28Z</time>
      </trkpt>
      <trkpt lat="46.28163" lon="-0.71222">
        <ele>49</ele>
        <time>2012-06-26T16:02:33Z</time>
      </trkpt>
      <trkpt lat="46.28161" lon="-0.71219">
        <ele>50</ele>
        <time>2012-06-26T16:02:38Z</time>
      </trkpt>
      <trkpt lat="46.2816" lon="-0.71213">
        <ele>51</ele>
        <time>2012-06-26T16:02:43Z</time>
      </trkpt>
      <trkpt lat="46.28158" lon="-0.71202">
        <ele>49</ele>
        <time>2012-06-26T16:02:48Z</time>
      </trkpt>
      <trkpt lat="46.28156" lon="-0.71189">
        <ele>50</ele>
        <time>2012-06-26T16:02:53Z</time>
      </trkpt>
      <trkpt lat="46.28158" lon="-0.71183">
        <ele>47</ele>
        <time>2012-06-26T16:02:58Z</time>
      </trkpt>
      <trkpt lat="46.28156" lon="-0.71172">
        <ele>46</ele>
        <time>2012-06-26T16:03:03Z</time>
      </trkpt>
      <trkpt lat="46.28151" lon="-0.71164">
        <ele>48</ele>
        <time>2012-06-26T16:03:08Z</time>
      </trkpt>
      <trkpt lat="46.28148" lon="-0.71153">
        <ele>49</ele>
        <time>2012-06-26T16:03:13Z</time>
      </trkpt>
      <trkpt lat="46.28145" lon="-0.71145">
        <ele>48</ele>
        <time>2012-06-26T16:03:18Z</time>
      </trkpt>
      <trkpt lat="46.2814" lon="-0.71136">
        <ele>49</ele>
        <time>2012-06-26T16:03:23Z</time>
      </trkpt>
      <trkpt lat="46.28138" lon="-0.7113">
        <ele>47</ele>
        <time>2012-06-26T16:03:28Z</time>
      </trkpt>
      <trkpt lat="46.28134" lon="-0.71123">
        <ele>45</ele>
        <time>2012-06-26T16:03:33Z</time>
      </trkpt>
      <trkpt lat="46.28131" lon="-0.71118">
        <ele>45</ele>
        <time>2012-06-26T16:03:38Z</time>
      </trkpt>
      <trkpt lat="46.28127" lon="-0.7111">
        <ele>45</ele>
        <time>2012-06-26T16:03:43Z</time>
      </trkpt>
      <trkpt lat="46.28124" lon="-0.71104">
        <ele>46</ele>
        <time>2012-06-26T16:03:48Z</time>
      </trkpt>
      <trkpt lat="46.2812" lon="-0.71096">
        <ele>46</ele>
        <time>2012-06-26T16:03:53Z</time>
      </trkpt>
      <trkpt lat="46.28116" lon="-0.7109">
        <ele>46</ele>
        <time>2012-06-26T16:03:58Z</time>
      </trkpt>
      <trkpt lat="46.28112" lon="-0.71083">
        <ele>48</ele>
        <time>2012-06-26T16:04:03Z</time>
      </trkpt>
      <trkpt lat="46.28108" lon="-0.71076">
        <ele>48</ele>
        <time>2012-06-26T16:04:08Z</time>
      </trkpt>
      <trkpt lat="46.28102" lon="-0.7107">
        <ele>47</ele>
        <time>2012-06-26T16:04:13Z</time>
      </trkpt>
      <trkpt lat="46.28099" lon="-0.71062">
        <ele>46</ele>
        <time>2012-06-26T16:04:18Z</time>
      </trkpt>
      <trkpt lat="46.28092" lon="-0.71057">
        <ele>46</ele>
        <time>2012-06-26T16:04:23Z</time>
      </trkpt>
      <trkpt lat="46.28086" lon="-0.71052">
        <ele>44</ele>
        <time>2012-06-26T16:04:28Z</time>
      </trkpt>
      <trkpt lat="46.28082" lon="-0.71047">
        <ele>44</ele>
        <time>2012-06-26T16:04:33Z</time>
      </trkpt>
      <trkpt lat="46.28078" lon="-0.71044">
        <ele>43</ele>
        <time>2012-06-26T16:04:38Z</time>
      </trkpt>
      <trkpt lat="46.28075" lon="-0.71036">
        <ele>42</ele>
        <time>2012-06-26T16:04:43Z</time>
      </trkpt>
      <trkpt lat="46.28071" lon="-0.7103">
        <ele>43</ele>
        <time>2012-06-26T16:04:48Z</time>
      </trkpt>
      <trkpt lat="46.28067" lon="-0.71023">
        <ele>45</ele>
        <time>2012-06-26T16:04:53Z</time>
      </trkpt>
      <trkpt lat="46.28064" lon="-0.71016">
        <ele>45</ele>
        <time>2012-06-26T16:04:58Z</time>
      </trkpt>
      <trkpt lat="46.28061" lon="-0.71009">
        <ele>45</ele>
        <time>2012-06-26T16:05:03Z</time>
      </trkpt>
      <trkpt lat="46.28056" lon="-0.71001">
        <ele>46</ele>
        <time>2012-06-26T16:05:08Z</time>
      </trkpt>
      <trkpt lat="46.28053" lon="-0.70994">
        <ele>46</ele>
        <time>2012-06-26T16:05:13Z</time>
      </trkpt>
      <trkpt lat="46.28049" lon="-0.70987">
        <ele>46</ele>
        <time>2012-06-26T16:05:18Z</time>
      </trkpt>
      <trkpt lat="46.28045" lon="-0.70983">
        <ele>44</ele>
        <time>2012-06-26T16:05:23Z</time>
      </trkpt>
      <trkpt lat="46.28043" lon="-0.70976">
        <ele>44</ele>
        <time>2012-06-26T16:05:28Z</time>
      </trkpt>
      <trkpt lat="46.28042" lon="-0.70967">
        <ele>46</ele>
        <time>2012-06-26T16:05:33Z</time>
      </trkpt>
      <trkpt lat="46.28037" lon="-0.70961">
        <ele>47</ele>
        <time>2012-06-26T16:05:38Z</time>
      </trkpt>
      <trkpt lat="46.28032" lon="-0.70954">
        <ele>47</ele>
        <time>2012-06-26T16:05:43Z</time>
      </trkpt>
      <trkpt lat="46.2803" lon="-0.70948">
        <ele>48</ele>
        <time>2012-06-26T16:05:48Z</time>
      </trkpt>
      <trkpt lat="46.2803" lon="-0.70944">
        <ele>49</ele>
        <time>2012-06-26T16:05:53Z</time>
      </trkpt>
      <trkpt lat="46.28028" lon="-0.70942">
        <ele>51</ele>
        <time>2012-06-26T16:05:58Z</time>
      </trkpt>
      <trkpt lat="46.28027" lon="-0.70944">
        <ele>52</ele>
        <time>2012-06-26T16:06:03Z</time>
      </trkpt>
      <trkpt lat="46.28026" lon="-0.70945">
        <ele>52</ele>
        <time>2012-06-26T16:06:08Z</time>
      </trkpt>
      <trkpt lat="46.28026" lon="-0.70946">
        <ele>53</ele>
        <time>2012-06-26T16:06:13Z</time>
      </trkpt>
      <trkpt lat="46.28025" lon="-0.70946">
        <ele>53</ele>
        <time>2012-06-26T16:06:18Z</time>
      </trkpt>
      <trkpt lat="46.28025" lon="-0.70943">
        <ele>53</ele>
        <time>2012-06-26T16:06:38Z</time>
      </trkpt>
      <trkpt lat="46.28023" lon="-0.70936">
        <ele>54</ele>
        <time>2012-06-26T16:06:43Z</time>
      </trkpt>
      <trkpt lat="46.28021" lon="-0.70929">
        <ele>54</ele>
        <time>2012-06-26T16:06:48Z</time>
      </trkpt>
      <trkpt lat="46.2802" lon="-0.70922">
        <ele>56</ele>
        <time>2012-06-26T16:06:53Z</time>
      </trkpt>
      <trkpt lat="46.28014" lon="-0.70915">
        <ele>56</ele>
        <time>2012-06-26T16:06:58Z</time>
      </trkpt>
      <trkpt lat="46.28012" lon="-0.70908">
        <ele>60</ele>
        <time>2012-06-26T16:07:03Z</time>
      </trkpt>
      <trkpt lat="46.28006" lon="-0.70905">
        <ele>59</ele>
        <time>2012-06-26T16:07:08Z</time>
      </trkpt>
      <trkpt lat="46.28" lon="-0.70908">
        <ele>58</ele>
        <time>2012-06-26T16:07:13Z</time>
      </trkpt>
      <trkpt lat="46.27995" lon="-0.70913">
        <ele>57</ele>
        <time>2012-06-26T16:07:18Z</time>
      </trkpt>
      <trkpt lat="46.27991" lon="-0.7092">
        <ele>55</ele>
        <time>2012-06-26T16:07:23Z</time>
      </trkpt>
      <trkpt lat="46.27986" lon="-0.70925">
        <ele>55</ele>
        <time>2012-06-26T16:07:28Z</time>
      </trkpt>
      <trkpt lat="46.27981" lon="-0.7093">
        <ele>55</ele>
        <time>2012-06-26T16:07:33Z</time>
      </trkpt>
      <trkpt lat="46.27975" lon="-0.70935">
        <ele>55</ele>
        <time>2012-06-26T16:07:38Z</time>
      </trkpt>
      <trkpt lat="46.27969" lon="-0.70937">
        <ele>56</ele>
        <time>2012-06-26T16:07:43Z</time>
      </trkpt>
      <trkpt lat="46.27964" lon="-0.70943">
        <ele>55</ele>
        <time>2012-06-26T16:07:48Z</time>
      </trkpt>
      <trkpt lat="46.2796" lon="-0.70947">
        <ele>54</ele>
        <time>2012-06-26T16:07:53Z</time>
      </trkpt>
      <trkpt lat="46.27954" lon="-0.70952">
        <ele>54</ele>
        <time>2012-06-26T16:07:58Z</time>
      </trkpt>
      <trkpt lat="46.27948" lon="-0.70955">
        <ele>55</ele>
        <time>2012-06-26T16:08:03Z</time>
      </trkpt>
      <trkpt lat="46.27942" lon="-0.70959">
        <ele>54</ele>
        <time>2012-06-26T16:08:08Z</time>
      </trkpt>
      <trkpt lat="46.27937" lon="-0.70963">
        <ele>52</ele>
        <time>2012-06-26T16:08:13Z</time>
      </trkpt>
      <trkpt lat="46.27933" lon="-0.70968">
        <ele>52</ele>
        <time>2012-06-26T16:08:18Z</time>
      </trkpt>
      <trkpt lat="46.27929" lon="-0.70973">
        <ele>51</ele>
        <time>2012-06-26T16:08:23Z</time>
      </trkpt>
      <trkpt lat="46.27924" lon="-0.70979">
        <ele>51</ele>
        <time>2012-06-26T16:08:28Z</time>
      </trkpt>
      <trkpt lat="46.27917" lon="-0.7098">
        <ele>51</ele>
        <time>2012-06-26T16:08:33Z</time>
      </trkpt>
      <trkpt lat="46.27912" lon="-0.70982">
        <ele>51</ele>
        <time>2012-06-26T16:08:38Z</time>
      </trkpt>
      <trkpt lat="46.27906" lon="-0.70984">
        <ele>52</ele>
        <time>2012-06-26T16:08:43Z</time>
      </trkpt>
      <trkpt lat="46.279" lon="-0.70987">
        <ele>52</ele>
        <time>2012-06-26T16:08:48Z</time>
      </trkpt>
      <trkpt lat="46.27895" lon="-0.70991">
        <ele>51</ele>
        <time>2012-06-26T16:08:53Z</time>
      </trkpt>
      <trkpt lat="46.27889" lon="-0.70993">
        <ele>52</ele>
        <time>2012-06-26T16:08:58Z</time>
      </trkpt>
      <trkpt lat="46.27884" lon="-0.70998">
        <ele>52</ele>
        <time>2012-06-26T16:09:03Z</time>
      </trkpt>
      <trkpt lat="46.2788" lon="-0.71004">
        <ele>52</ele>
        <time>2012-06-26T16:09:08Z</time>
      </trkpt>
      <trkpt lat="46.27873" lon="-0.71005">
        <ele>51</ele>
        <time>2012-06-26T16:09:13Z</time>
      </trkpt>
      <trkpt lat="46.27868" lon="-0.71009">
        <ele>51</ele>
        <time>2012-06-26T16:09:18Z</time>
      </trkpt>
      <trkpt lat="46.27863" lon="-0.71013">
        <ele>51</ele>
        <time>2012-06-26T16:09:23Z</time>
      </trkpt>
      <trkpt lat="46.27856" lon="-0.71017">
        <ele>52</ele>
        <time>2012-06-26T16:09:28Z</time>
      </trkpt>
      <trkpt lat="46.27849" lon="-0.71017">
        <ele>53</ele>
        <time>2012-06-26T16:09:33Z</time>
      </trkpt>
      <trkpt lat="46.27843" lon="-0.7102">
        <ele>54</ele>
        <time>2012-06-26T16:09:38Z</time>
      </trkpt>
      <trkpt lat="46.27838" lon="-0.71027">
        <ele>52</ele>
        <time>2012-06-26T16:09:43Z</time>
      </trkpt>
      <trkpt lat="46.27832" lon="-0.71032">
        <ele>52</ele>
        <time>2012-06-26T16:09:48Z</time>
      </trkpt>
      <trkpt lat="46.27825" lon="-0.71037">
        <ele>50</ele>
        <time>2012-06-26T16:09:53Z</time>
      </trkpt>
      <trkpt lat="46.2782" lon="-0.71042">
        <ele>50</ele>
        <time>2012-06-26T16:09:58Z</time>
      </trkpt>
      <trkpt lat="46.27815" lon="-0.71042">
        <ele>51</ele>
        <time>2012-06-26T16:10:03Z</time>
      </trkpt>
      <trkpt lat="46.27809" lon="-0.71048">
        <ele>50</ele>
        <time>2012-06-26T16:10:08Z</time>
      </trkpt>
      <trkpt lat="46.27803" lon="-0.71051">
        <ele>50</ele>
        <time>2012-06-26T16:10:13Z</time>
      </trkpt>
      <trkpt lat="46.27797" lon="-0.71051">
        <ele>50</ele>
        <time>2012-06-26T16:10:18Z</time>
      </trkpt>
      <trkpt lat="46.27793" lon="-0.71055">
        <ele>51</ele>
        <time>2012-06-26T16:10:23Z</time>
      </trkpt>
      <trkpt lat="46.27787" lon="-0.71057">
        <ele>52</ele>
        <time>2012-06-26T16:10:28Z</time>
      </trkpt>
      <trkpt lat="46.27782" lon="-0.71061">
        <ele>52</ele>
        <time>2012-06-26T16:10:33Z</time>
      </trkpt>
      <trkpt lat="46.27778" lon="-0.71069">
        <ele>52</ele>
        <time>2012-06-26T16:10:38Z</time>
      </trkpt>
      <trkpt lat="46.27772" lon="-0.71072">
        <ele>54</ele>
        <time>2012-06-26T16:10:43Z</time>
      </trkpt>
      <trkpt lat="46.27766" lon="-0.71076">
        <ele>55</ele>
        <time>2012-06-26T16:10:48Z</time>
      </trkpt>
      <trkpt lat="46.27762" lon="-0.71083">
        <ele>56</ele>
        <time>2012-06-26T16:10:53Z</time>
      </trkpt>
      <trkpt lat="46.27757" lon="-0.71086">
        <ele>57</ele>
        <time>2012-06-26T16:10:58Z</time>
      </trkpt>
      <trkpt lat="46.27753" lon="-0.71091">
        <ele>56</ele>
        <time>2012-06-26T16:11:03Z</time>
      </trkpt>
      <trkpt lat="46.27747" lon="-0.71093">
        <ele>57</ele>
        <time>2012-06-26T16:11:08Z</time>
      </trkpt>
      <trkpt lat="46.27741" lon="-0.71096">
        <ele>57</ele>
        <time>2012-06-26T16:11:13Z</time>
      </trkpt>
      <trkpt lat="46.27734" lon="-0.711">
        <ele>58</ele>
        <time>2012-06-26T16:11:18Z</time>
      </trkpt>
      <trkpt lat="46.27728" lon="-0.71105">
        <ele>58</ele>
        <time>2012-06-26T16:11:23Z</time>
      </trkpt>
      <trkpt lat="46.27723" lon="-0.71111">
        <ele>58</ele>
        <time>2012-06-26T16:11:28Z</time>
      </trkpt>
      <trkpt lat="46.27718" lon="-0.71115">
        <ele>59</ele>
        <time>2012-06-26T16:11:33Z</time>
      </trkpt>
      <trkpt lat="46.27712" lon="-0.71118">
        <ele>58</ele>
        <time>2012-06-26T16:11:38Z</time>
      </trkpt>
      <trkpt lat="46.27706" lon="-0.71121">
        <ele>59</ele>
        <time>2012-06-26T16:11:43Z</time>
      </trkpt>
      <trkpt lat="46.27702" lon="-0.71127">
        <ele>59</ele>
        <time>2012-06-26T16:11:48Z</time>
      </trkpt>
      <trkpt lat="46.27695" lon="-0.7113">
        <ele>59</ele>
        <time>2012-06-26T16:11:53Z</time>
      </trkpt>
      <trkpt lat="46.27692" lon="-0.71134">
        <ele>60</ele>
        <time>2012-06-26T16:11:58Z</time>
      </trkpt>
      <trkpt lat="46.27686" lon="-0.71137">
        <ele>59</ele>
        <time>2012-06-26T16:12:03Z</time>
      </trkpt>
      <trkpt lat="46.2768" lon="-0.71139">
        <ele>60</ele>
        <time>2012-06-26T16:12:08Z</time>
      </trkpt>
      <trkpt lat="46.27675" lon="-0.71142">
        <ele>59</ele>
        <time>2012-06-26T16:12:13Z</time>
      </trkpt>
      <trkpt lat="46.2767" lon="-0.71149">
        <ele>60</ele>
        <time>2012-06-26T16:12:18Z</time>
      </trkpt>
      <trkpt lat="46.27663" lon="-0.71154">
        <ele>61</ele>
        <time>2012-06-26T16:12:23Z</time>
      </trkpt>
      <trkpt lat="46.27659" lon="-0.71157">
        <ele>62</ele>
        <time>2012-06-26T16:12:28Z</time>
      </trkpt>
      <trkpt lat="46.27654" lon="-0.71164">
        <ele>60</ele>
        <time>2012-06-26T16:12:33Z</time>
      </trkpt>
      <trkpt lat="46.27648" lon="-0.71168">
        <ele>59</ele>
        <time>2012-06-26T16:12:38Z</time>
      </trkpt>
      <trkpt lat="46.27644" lon="-0.71171">
        <ele>58</ele>
        <time>2012-06-26T16:12:43Z</time>
      </trkpt>
      <trkpt lat="46.27639" lon="-0.71176">
        <ele>57</ele>
        <time>2012-06-26T16:12:48Z</time>
      </trkpt>
      <trkpt lat="46.27633" lon="-0.71176">
        <ele>57</ele>
        <time>2012-06-26T16:12:53Z</time>
      </trkpt>
      <trkpt lat="46.27629" lon="-0.71171">
        <ele>58</ele>
        <time>2012-06-26T16:12:58Z</time>
      </trkpt>
      <trkpt lat="46.27623" lon="-0.71162">
        <ele>62</ele>
        <time>2012-06-26T16:13:03Z</time>
      </trkpt>
      <trkpt lat="46.27618" lon="-0.71156">
        <ele>62</ele>
        <time>2012-06-26T16:13:08Z</time>
      </trkpt>
      <trkpt lat="46.27615" lon="-0.71152">
        <ele>60</ele>
        <time>2012-06-26T16:13:13Z</time>
      </trkpt>
      <trkpt lat="46.27609" lon="-0.71148">
        <ele>58</ele>
        <time>2012-06-26T16:13:18Z</time>
      </trkpt>
      <trkpt lat="46.27603" lon="-0.71147">
        <ele>54</ele>
        <time>2012-06-26T16:13:23Z</time>
      </trkpt>
      <trkpt lat="46.27596" lon="-0.71149">
        <ele>54</ele>
        <time>2012-06-26T16:13:28Z</time>
      </trkpt>
      <trkpt lat="46.27589" lon="-0.71151">
        <ele>53</ele>
        <time>2012-06-26T16:13:33Z</time>
      </trkpt>
      <trkpt lat="46.27585" lon="-0.71158">
        <ele>53</ele>
        <time>2012-06-26T16:13:38Z</time>
      </trkpt>
      <trkpt lat="46.2758" lon="-0.71162">
        <ele>54</ele>
        <time>2012-06-26T16:13:43Z</time>
      </trkpt>
      <trkpt lat="46.27574" lon="-0.71166">
        <ele>54</ele>
        <time>2012-06-26T16:13:48Z</time>
      </trkpt>
      <trkpt lat="46.27572" lon="-0.71172">
        <ele>54</ele>
        <time>2012-06-26T16:13:53Z</time>
      </trkpt>
      <trkpt lat="46.27566" lon="-0.71177">
        <ele>52</ele>
        <time>2012-06-26T16:13:58Z</time>
      </trkpt>
      <trkpt lat="46.27563" lon="-0.71183">
        <ele>53</ele>
        <time>2012-06-26T16:14:03Z</time>
      </trkpt>
      <trkpt lat="46.27557" lon="-0.71186">
        <ele>56</ele>
        <time>2012-06-26T16:14:08Z</time>
      </trkpt>
      <trkpt lat="46.27552" lon="-0.71192">
        <ele>54</ele>
        <time>2012-06-26T16:14:13Z</time>
      </trkpt>
      <trkpt lat="46.27548" lon="-0.71199">
        <ele>54</ele>
        <time>2012-06-26T16:14:18Z</time>
      </trkpt>
      <trkpt lat="46.27544" lon="-0.71205">
        <ele>53</ele>
        <time>2012-06-26T16:14:23Z</time>
      </trkpt>
      <trkpt lat="46.2754" lon="-0.71211">
        <ele>53</ele>
        <time>2012-06-26T16:14:28Z</time>
      </trkpt>
      <trkpt lat="46.27535" lon="-0.71215">
        <ele>52</ele>
        <time>2012-06-26T16:14:33Z</time>
      </trkpt>
      <trkpt lat="46.27529" lon="-0.71214">
        <ele>54</ele>
        <time>2012-06-26T16:14:38Z</time>
      </trkpt>
      <trkpt lat="46.27524" lon="-0.7122">
        <ele>55</ele>
        <time>2012-06-26T16:14:43Z</time>
      </trkpt>
      <trkpt lat="46.27519" lon="-0.71224">
        <ele>56</ele>
        <time>2012-06-26T16:14:48Z</time>
      </trkpt>
      <trkpt lat="46.27515" lon="-0.71232">
        <ele>57</ele>
        <time>2012-06-26T16:14:53Z</time>
      </trkpt>
      <trkpt lat="46.2751" lon="-0.71235">
        <ele>59</ele>
        <time>2012-06-26T16:14:58Z</time>
      </trkpt>
      <trkpt lat="46.27506" lon="-0.71241">
        <ele>60</ele>
        <time>2012-06-26T16:15:03Z</time>
      </trkpt>
      <trkpt lat="46.27501" lon="-0.71242">
        <ele>60</ele>
        <time>2012-06-26T16:15:08Z</time>
      </trkpt>
      <trkpt lat="46.27497" lon="-0.71244">
        <ele>60</ele>
        <time>2012-06-26T16:15:13Z</time>
      </trkpt>
      <trkpt lat="46.27492" lon="-0.71247">
        <ele>59</ele>
        <time>2012-06-26T16:15:18Z</time>
      </trkpt>
      <trkpt lat="46.27488" lon="-0.71249">
        <ele>59</ele>
        <time>2012-06-26T16:15:23Z</time>
      </trkpt>
      <trkpt lat="46.27482" lon="-0.71249">
        <ele>58</ele>
        <time>2012-06-26T16:15:28Z</time>
      </trkpt>
      <trkpt lat="46.27476" lon="-0.71251">
        <ele>58</ele>
        <time>2012-06-26T16:15:33Z</time>
      </trkpt>
      <trkpt lat="46.2747" lon="-0.71252">
        <ele>57</ele>
        <time>2012-06-26T16:15:38Z</time>
      </trkpt>
      <trkpt lat="46.27464" lon="-0.71253">
        <ele>57</ele>
        <time>2012-06-26T16:15:43Z</time>
      </trkpt>
      <trkpt lat="46.27457" lon="-0.71254">
        <ele>58</ele>
        <time>2012-06-26T16:15:48Z</time>
      </trkpt>
      <trkpt lat="46.27448" lon="-0.71256">
        <ele>60</ele>
        <time>2012-06-26T16:15:53Z</time>
      </trkpt>
      <trkpt lat="46.27444" lon="-0.71256">
        <ele>63</ele>
        <time>2012-06-26T16:15:58Z</time>
      </trkpt>
      <trkpt lat="46.27438" lon="-0.71256">
        <ele>64</ele>
        <time>2012-06-26T16:16:03Z</time>
      </trkpt>
      <trkpt lat="46.27433" lon="-0.71258">
        <ele>63</ele>
        <time>2012-06-26T16:16:08Z</time>
      </trkpt>
      <trkpt lat="46.27426" lon="-0.7126">
        <ele>68</ele>
        <time>2012-06-26T16:16:13Z</time>
      </trkpt>
      <trkpt lat="46.27421" lon="-0.7126">
        <ele>67</ele>
        <time>2012-06-26T16:16:18Z</time>
      </trkpt>
      <trkpt lat="46.27417" lon="-0.71261">
        <ele>65</ele>
        <time>2012-06-26T16:16:23Z</time>
      </trkpt>
      <trkpt lat="46.27411" lon="-0.71263">
        <ele>64</ele>
        <time>2012-06-26T16:16:28Z</time>
      </trkpt>
      <trkpt lat="46.27407" lon="-0.71263">
        <ele>64</ele>
        <time>2012-06-26T16:16:33Z</time>
      </trkpt>
      <trkpt lat="46.274" lon="-0.71264">
        <ele>66</ele>
        <time>2012-06-26T16:16:38Z</time>
      </trkpt>
      <trkpt lat="46.27394" lon="-0.71264">
        <ele>68</ele>
        <time>2012-06-26T16:16:43Z</time>
      </trkpt>
      <trkpt lat="46.27388" lon="-0.71267">
        <ele>67</ele>
        <time>2012-06-26T16:16:48Z</time>
      </trkpt>
      <trkpt lat="46.27382" lon="-0.71268">
        <ele>68</ele>
        <time>2012-06-26T16:16:53Z</time>
      </trkpt>
      <trkpt lat="46.27378" lon="-0.71272">
        <ele>68</ele>
        <time>2012-06-26T16:16:58Z</time>
      </trkpt>
      <trkpt lat="46.27372" lon="-0.71273">
        <ele>69</ele>
        <time>2012-06-26T16:17:03Z</time>
      </trkpt>
      <trkpt lat="46.27368" lon="-0.71273">
        <ele>68</ele>
        <time>2012-06-26T16:17:08Z</time>
      </trkpt>
      <trkpt lat="46.27364" lon="-0.71272">
        <ele>67</ele>
        <time>2012-06-26T16:17:13Z</time>
      </trkpt>
      <trkpt lat="46.27358" lon="-0.71275">
        <ele>65</ele>
        <time>2012-06-26T16:17:18Z</time>
      </trkpt>
      <trkpt lat="46.27353" lon="-0.71277">
        <ele>63</ele>
        <time>2012-06-26T16:17:23Z</time>
      </trkpt>
      <trkpt lat="46.2735" lon="-0.71278">
        <ele>62</ele>
        <time>2012-06-26T16:17:28Z</time>
      </trkpt>
      <trkpt lat="46.2735" lon="-0.71279">
        <ele>62</ele>
        <time>2012-06-26T16:17:33Z</time>
      </trkpt>
      <trkpt lat="46.27342" lon="-0.7128">
        <ele>62</ele>
        <time>2012-06-26T16:17:38Z</time>
      </trkpt>
      <trkpt lat="46.27334" lon="-0.71281">
        <ele>59</ele>
        <time>2012-06-26T16:17:43Z</time>
      </trkpt>
      <trkpt lat="46.27328" lon="-0.71281">
        <ele>61</ele>
        <time>2012-06-26T16:17:48Z</time>
      </trkpt>
      <trkpt lat="46.27323" lon="-0.71281">
        <ele>62</ele>
        <time>2012-06-26T16:17:53Z</time>
      </trkpt>
      <trkpt lat="46.27319" lon="-0.7128">
        <ele>62</ele>
        <time>2012-06-26T16:17:58Z</time>
      </trkpt>
      <trkpt lat="46.27317" lon="-0.71279">
        <ele>62</ele>
        <time>2012-06-26T16:18:03Z</time>
      </trkpt>
      <trkpt lat="46.27318" lon="-0.7128">
        <ele>61</ele>
        <time>2012-06-26T16:18:08Z</time>
      </trkpt>
      <trkpt lat="46.27319" lon="-0.71279">
        <ele>61</ele>
        <time>2012-06-26T16:18:13Z</time>
      </trkpt>
      <trkpt lat="46.27314" lon="-0.71277">
        <ele>60</ele>
        <time>2012-06-26T16:18:18Z</time>
      </trkpt>
      <trkpt lat="46.27306" lon="-0.71278">
        <ele>61</ele>
        <time>2012-06-26T16:18:23Z</time>
      </trkpt>
      <trkpt lat="46.273" lon="-0.71278">
        <ele>61</ele>
        <time>2012-06-26T16:18:28Z</time>
      </trkpt>
      <trkpt lat="46.27299" lon="-0.71286">
        <ele>64</ele>
        <time>2012-06-26T16:18:33Z</time>
      </trkpt>
      <trkpt lat="46.273" lon="-0.71297">
        <ele>63</ele>
        <time>2012-06-26T16:18:38Z</time>
      </trkpt>
      <trkpt lat="46.27303" lon="-0.71306">
        <ele>59</ele>
        <time>2012-06-26T16:18:43Z</time>
      </trkpt>
      <trkpt lat="46.27305" lon="-0.71314">
        <ele>59</ele>
        <time>2012-06-26T16:18:48Z</time>
      </trkpt>
      <trkpt lat="46.27307" lon="-0.71322">
        <ele>56</ele>
        <time>2012-06-26T16:18:53Z</time>
      </trkpt>
      <trkpt lat="46.27309" lon="-0.71329">
        <ele>56</ele>
        <time>2012-06-26T16:18:58Z</time>
      </trkpt>
      <trkpt lat="46.27311" lon="-0.71336">
        <ele>58</ele>
        <time>2012-06-26T16:19:03Z</time>
      </trkpt>
      <trkpt lat="46.27313" lon="-0.71344">
        <ele>58</ele>
        <time>2012-06-26T16:19:08Z</time>
      </trkpt>
      <trkpt lat="46.27314" lon="-0.71351">
        <ele>59</ele>
        <time>2012-06-26T16:19:13Z</time>
      </trkpt>
      <trkpt lat="46.27316" lon="-0.71358">
        <ele>63</ele>
        <time>2012-06-26T16:19:18Z</time>
      </trkpt>
      <trkpt lat="46.27317" lon="-0.71364">
        <ele>62</ele>
        <time>2012-06-26T16:19:23Z</time>
      </trkpt>
      <trkpt lat="46.27322" lon="-0.7137">
        <ele>59</ele>
        <time>2012-06-26T16:19:28Z</time>
      </trkpt>
      <trkpt lat="46.27324" lon="-0.71377">
        <ele>58</ele>
        <time>2012-06-26T16:19:33Z</time>
      </trkpt>
      <trkpt lat="46.27324" lon="-0.71378">
        <ele>57</ele>
        <time>2012-06-26T16:19:38Z</time>
      </trkpt>
      <trkpt lat="46.27324" lon="-0.71378">
        <ele>57</ele>
        <time>2012-06-26T16:19:43Z</time>
      </trkpt>
      <trkpt lat="46.27324" lon="-0.71377">
        <ele>57</ele>
        <time>2012-06-26T16:19:48Z</time>
      </trkpt>
      <trkpt lat="46.2733" lon="-0.71378">
        <ele>57</ele>
        <time>2012-06-26T16:19:53Z</time>
      </trkpt>
      <trkpt lat="46.27333" lon="-0.71388">
        <ele>56</ele>
        <time>2012-06-26T16:19:58Z</time>
      </trkpt>
      <trkpt lat="46.27338" lon="-0.71394">
        <ele>55</ele>
        <time>2012-06-26T16:20:03Z</time>
      </trkpt>
      <trkpt lat="46.27342" lon="-0.71402">
        <ele>55</ele>
        <time>2012-06-26T16:20:09Z</time>
      </trkpt>
      <trkpt lat="46.27346" lon="-0.71408">
        <ele>54</ele>
        <time>2012-06-26T16:20:13Z</time>
      </trkpt>
      <trkpt lat="46.27348" lon="-0.71419">
        <ele>56</ele>
        <time>2012-06-26T16:20:18Z</time>
      </trkpt>
      <trkpt lat="46.27352" lon="-0.71424">
        <ele>55</ele>
        <time>2012-06-26T16:20:23Z</time>
      </trkpt>
      <trkpt lat="46.27356" lon="-0.71433">
        <ele>57</ele>
        <time>2012-06-26T16:20:28Z</time>
      </trkpt>
      <trkpt lat="46.27359" lon="-0.71442">
        <ele>57</ele>
        <time>2012-06-26T16:20:33Z</time>
      </trkpt>
      <trkpt lat="46.27361" lon="-0.7145">
        <ele>58</ele>
        <time>2012-06-26T16:20:38Z</time>
      </trkpt>
      <trkpt lat="46.27363" lon="-0.71456">
        <ele>58</ele>
        <time>2012-06-26T16:20:43Z</time>
      </trkpt>
      <trkpt lat="46.27367" lon="-0.71467">
        <ele>54</ele>
        <time>2012-06-26T16:20:48Z</time>
      </trkpt>
      <trkpt lat="46.2737" lon="-0.71476">
        <ele>54</ele>
        <time>2012-06-26T16:20:53Z</time>
      </trkpt>
      <trkpt lat="46.27372" lon="-0.71481">
        <ele>55</ele>
        <time>2012-06-26T16:20:58Z</time>
      </trkpt>
      <trkpt lat="46.27377" lon="-0.71489">
        <ele>52</ele>
        <time>2012-06-26T16:21:03Z</time>
      </trkpt>
      <trkpt lat="46.27382" lon="-0.71492">
        <ele>50</ele>
        <time>2012-06-26T16:21:08Z</time>
      </trkpt>
      <trkpt lat="46.27388" lon="-0.71495">
        <ele>50</ele>
        <time>2012-06-26T16:21:13Z</time>
      </trkpt>
      <trkpt lat="46.27395" lon="-0.71497">
        <ele>51</ele>
        <time>2012-06-26T16:21:18Z</time>
      </trkpt>
      <trkpt lat="46.27402" lon="-0.71498">
        <ele>52</ele>
        <time>2012-06-26T16:21:23Z</time>
      </trkpt>
      <trkpt lat="46.2741" lon="-0.71496">
        <ele>53</ele>
        <time>2012-06-26T16:21:28Z</time>
      </trkpt>
      <trkpt lat="46.27416" lon="-0.71495">
        <ele>54</ele>
        <time>2012-06-26T16:21:33Z</time>
      </trkpt>
      <trkpt lat="46.2742" lon="-0.71494">
        <ele>55</ele>
        <time>2012-06-26T16:21:38Z</time>
      </trkpt>
      <trkpt lat="46.27426" lon="-0.71495">
        <ele>55</ele>
        <time>2012-06-26T16:21:43Z</time>
      </trkpt>
      <trkpt lat="46.2743" lon="-0.71496">
        <ele>55</ele>
        <time>2012-06-26T16:21:48Z</time>
      </trkpt>
      <trkpt lat="46.27435" lon="-0.71499">
        <ele>56</ele>
        <time>2012-06-26T16:21:53Z</time>
      </trkpt>
      <trkpt lat="46.27439" lon="-0.71498">
        <ele>58</ele>
        <time>2012-06-26T16:21:58Z</time>
      </trkpt>
      <trkpt lat="46.27445" lon="-0.71499">
        <ele>57</ele>
        <time>2012-06-26T16:22:03Z</time>
      </trkpt>
      <trkpt lat="46.27452" lon="-0.71503">
        <ele>57</ele>
        <time>2012-06-26T16:22:08Z</time>
      </trkpt>
      <trkpt lat="46.27457" lon="-0.71506">
        <ele>57</ele>
        <time>2012-06-26T16:22:13Z</time>
      </trkpt>
      <trkpt lat="46.27463" lon="-0.71509">
        <ele>58</ele>
        <time>2012-06-26T16:22:18Z</time>
      </trkpt>
      <trkpt lat="46.27467" lon="-0.71509">
        <ele>58</ele>
        <time>2012-06-26T16:22:23Z</time>
      </trkpt>
      <trkpt lat="46.27473" lon="-0.71513">
        <ele>58</ele>
        <time>2012-06-26T16:22:28Z</time>
      </trkpt>
      <trkpt lat="46.27481" lon="-0.71519">
        <ele>58</ele>
        <time>2012-06-26T16:22:33Z</time>
      </trkpt>
      <trkpt lat="46.27488" lon="-0.71528">
        <ele>56</ele>
        <time>2012-06-26T16:22:38Z</time>
      </trkpt>
      <trkpt lat="46.27495" lon="-0.71533">
        <ele>57</ele>
        <time>2012-06-26T16:22:43Z</time>
      </trkpt>
      <trkpt lat="46.275" lon="-0.71536">
        <ele>56</ele>
        <time>2012-06-26T16:22:48Z</time>
      </trkpt>
      <trkpt lat="46.27505" lon="-0.71538">
        <ele>56</ele>
        <time>2012-06-26T16:22:53Z</time>
      </trkpt>
      <trkpt lat="46.2751" lon="-0.71542">
        <ele>55</ele>
        <time>2012-06-26T16:22:58Z</time>
      </trkpt>
      <trkpt lat="46.27518" lon="-0.71546">
        <ele>54</ele>
        <time>2012-06-26T16:23:03Z</time>
      </trkpt>
      <trkpt lat="46.27523" lon="-0.71552">
        <ele>55</ele>
        <time>2012-06-26T16:23:08Z</time>
      </trkpt>
      <trkpt lat="46.27527" lon="-0.71556">
        <ele>55</ele>
        <time>2012-06-26T16:23:13Z</time>
      </trkpt>
      <trkpt lat="46.27533" lon="-0.71559">
        <ele>56</ele>
        <time>2012-06-26T16:23:18Z</time>
      </trkpt>
      <trkpt lat="46.27538" lon="-0.71562">
        <ele>55</ele>
        <time>2012-06-26T16:23:23Z</time>
      </trkpt>
      <trkpt lat="46.27544" lon="-0.71567">
        <ele>55</ele>
        <time>2012-06-26T16:23:28Z</time>
      </trkpt>
      <trkpt lat="46.27549" lon="-0.71572">
        <ele>53</ele>
        <time>2012-06-26T16:23:33Z</time>
      </trkpt>
      <trkpt lat="46.27554" lon="-0.71576">
        <ele>52</ele>
        <time>2012-06-26T16:23:38Z</time>
      </trkpt>
      <trkpt lat="46.2756" lon="-0.7158">
        <ele>52</ele>
        <time>2012-06-26T16:23:43Z</time>
      </trkpt>
      <trkpt lat="46.27565" lon="-0.71584">
        <ele>53</ele>
        <time>2012-06-26T16:23:48Z</time>
      </trkpt>
      <trkpt lat="46.27571" lon="-0.71589">
        <ele>53</ele>
        <time>2012-06-26T16:23:53Z</time>
      </trkpt>
      <trkpt lat="46.27576" lon="-0.71593">
        <ele>53</ele>
        <time>2012-06-26T16:23:58Z</time>
      </trkpt>
      <trkpt lat="46.27581" lon="-0.71597">
        <ele>55</ele>
        <time>2012-06-26T16:24:03Z</time>
      </trkpt>
      <trkpt lat="46.27586" lon="-0.71599">
        <ele>56</ele>
        <time>2012-06-26T16:24:08Z</time>
      </trkpt>
      <trkpt lat="46.27593" lon="-0.71602">
        <ele>56</ele>
        <time>2012-06-26T16:24:13Z</time>
      </trkpt>
      <trkpt lat="46.27599" lon="-0.71603">
        <ele>56</ele>
        <time>2012-06-26T16:24:18Z</time>
      </trkpt>
      <trkpt lat="46.27603" lon="-0.71606">
        <ele>56</ele>
        <time>2012-06-26T16:24:23Z</time>
      </trkpt>
      <trkpt lat="46.27609" lon="-0.71611">
        <ele>55</ele>
        <time>2012-06-26T16:24:28Z</time>
      </trkpt>
      <trkpt lat="46.27614" lon="-0.71617">
        <ele>58</ele>
        <time>2012-06-26T16:24:33Z</time>
      </trkpt>
      <trkpt lat="46.27621" lon="-0.7162">
        <ele>58</ele>
        <time>2012-06-26T16:24:38Z</time>
      </trkpt>
      <trkpt lat="46.27626" lon="-0.71625">
        <ele>59</ele>
        <time>2012-06-26T16:24:43Z</time>
      </trkpt>
      <trkpt lat="46.27632" lon="-0.71631">
        <ele>58</ele>
        <time>2012-06-26T16:24:48Z</time>
      </trkpt>
      <trkpt lat="46.27637" lon="-0.71637">
        <ele>57</ele>
        <time>2012-06-26T16:24:53Z</time>
      </trkpt>
      <trkpt lat="46.27642" lon="-0.71641">
        <ele>59</ele>
        <time>2012-06-26T16:24:58Z</time>
      </trkpt>
      <trkpt lat="46.27648" lon="-0.71644">
        <ele>61</ele>
        <time>2012-06-26T16:25:03Z</time>
      </trkpt>
      <trkpt lat="46.2765" lon="-0.71648">
        <ele>64</ele>
        <time>2012-06-26T16:25:08Z</time>
      </trkpt>
      <trkpt lat="46.27655" lon="-0.71651">
        <ele>64</ele>
        <time>2012-06-26T16:25:13Z</time>
      </trkpt>
      <trkpt lat="46.27661" lon="-0.7166">
        <ele>61</ele>
        <time>2012-06-26T16:25:18Z</time>
      </trkpt>
      <trkpt lat="46.27667" lon="-0.71666">
        <ele>57</ele>
        <time>2012-06-26T16:25:23Z</time>
      </trkpt>
      <trkpt lat="46.27674" lon="-0.7167">
        <ele>58</ele>
        <time>2012-06-26T16:25:28Z</time>
      </trkpt>
      <trkpt lat="46.2768" lon="-0.7167">
        <ele>58</ele>
        <time>2012-06-26T16:25:33Z</time>
      </trkpt>
      <trkpt lat="46.27686" lon="-0.71669">
        <ele>57</ele>
        <time>2012-06-26T16:25:38Z</time>
      </trkpt>
      <trkpt lat="46.27689" lon="-0.71671">
        <ele>58</ele>
        <time>2012-06-26T16:25:43Z</time>
      </trkpt>
      <trkpt lat="46.27695" lon="-0.71673">
        <ele>59</ele>
        <time>2012-06-26T16:25:48Z</time>
      </trkpt>
      <trkpt lat="46.27702" lon="-0.71675">
        <ele>60</ele>
        <time>2012-06-26T16:25:53Z</time>
      </trkpt>
      <trkpt lat="46.27706" lon="-0.71677">
        <ele>59</ele>
        <time>2012-06-26T16:25:58Z</time>
      </trkpt>
      <trkpt lat="46.27711" lon="-0.71678">
        <ele>59</ele>
        <time>2012-06-26T16:26:03Z</time>
      </trkpt>
      <trkpt lat="46.27715" lon="-0.7168">
        <ele>62</ele>
        <time>2012-06-26T16:26:08Z</time>
      </trkpt>
      <trkpt lat="46.27724" lon="-0.71686">
        <ele>57</ele>
        <time>2012-06-26T16:26:13Z</time>
      </trkpt>
      <trkpt lat="46.27731" lon="-0.71689">
        <ele>57</ele>
        <time>2012-06-26T16:26:18Z</time>
      </trkpt>
      <trkpt lat="46.27738" lon="-0.71694">
        <ele>54</ele>
        <time>2012-06-26T16:26:23Z</time>
      </trkpt>
      <trkpt lat="46.27741" lon="-0.71696">
        <ele>55</ele>
        <time>2012-06-26T16:26:28Z</time>
      </trkpt>
      <trkpt lat="46.27748" lon="-0.71694">
        <ele>55</ele>
        <time>2012-06-26T16:26:33Z</time>
      </trkpt>
      <trkpt lat="46.27754" lon="-0.71695">
        <ele>57</ele>
        <time>2012-06-26T16:26:38Z</time>
      </trkpt>
      <trkpt lat="46.27758" lon="-0.71695">
        <ele>58</ele>
        <time>2012-06-26T16:26:43Z</time>
      </trkpt>
      <trkpt lat="46.27764" lon="-0.71697">
        <ele>59</ele>
        <time>2012-06-26T16:26:48Z</time>
      </trkpt>
      <trkpt lat="46.27768" lon="-0.717">
        <ele>60</ele>
        <time>2012-06-26T16:26:53Z</time>
      </trkpt>
      <trkpt lat="46.27776" lon="-0.71704">
        <ele>59</ele>
        <time>2012-06-26T16:26:58Z</time>
      </trkpt>
      <trkpt lat="46.27779" lon="-0.71705">
        <ele>63</ele>
        <time>2012-06-26T16:27:03Z</time>
      </trkpt>
      <trkpt lat="46.27785" lon="-0.71708">
        <ele>65</ele>
        <time>2012-06-26T16:27:08Z</time>
      </trkpt>
      <trkpt lat="46.27792" lon="-0.71712">
        <ele>64</ele>
        <time>2012-06-26T16:27:13Z</time>
      </trkpt>
      <trkpt lat="46.27799" lon="-0.71716">
        <ele>61</ele>
        <time>2012-06-26T16:27:18Z</time>
      </trkpt>
      <trkpt lat="46.27805" lon="-0.71717">
        <ele>60</ele>
        <time>2012-06-26T16:27:23Z</time>
      </trkpt>
      <trkpt lat="46.27812" lon="-0.71717">
        <ele>61</ele>
        <time>2012-06-26T16:27:28Z</time>
      </trkpt>
      <trkpt lat="46.27817" lon="-0.71716">
        <ele>62</ele>
        <time>2012-06-26T16:27:33Z</time>
      </trkpt>
      <trkpt lat="46.27823" lon="-0.71713">
        <ele>61</ele>
        <time>2012-06-26T16:27:38Z</time>
      </trkpt>
      <trkpt lat="46.27831" lon="-0.71708">
        <ele>63</ele>
        <time>2012-06-26T16:27:43Z</time>
      </trkpt>
      <trkpt lat="46.27836" lon="-0.71702">
        <ele>63</ele>
        <time>2012-06-26T16:27:48Z</time>
      </trkpt>
      <trkpt lat="46.27841" lon="-0.717">
        <ele>64</ele>
        <time>2012-06-26T16:27:53Z</time>
      </trkpt>
      <trkpt lat="46.27846" lon="-0.71696">
        <ele>65</ele>
        <time>2012-06-26T16:27:58Z</time>
      </trkpt>
      <trkpt lat="46.2785" lon="-0.71695">
        <ele>67</ele>
        <time>2012-06-26T16:28:03Z</time>
      </trkpt>
      <trkpt lat="46.27858" lon="-0.71691">
        <ele>69</ele>
        <time>2012-06-26T16:28:08Z</time>
      </trkpt>
      <trkpt lat="46.27864" lon="-0.7169">
        <ele>69</ele>
        <time>2012-06-26T16:28:13Z</time>
      </trkpt>
      <trkpt lat="46.27869" lon="-0.71687">
        <ele>67</ele>
        <time>2012-06-26T16:28:18Z</time>
      </trkpt>
      <trkpt lat="46.27873" lon="-0.71686">
        <ele>64</ele>
        <time>2012-06-26T16:28:23Z</time>
      </trkpt>
      <trkpt lat="46.2788" lon="-0.71685">
        <ele>60</ele>
        <time>2012-06-26T16:28:28Z</time>
      </trkpt>
      <trkpt lat="46.27882" lon="-0.71691">
        <ele>57</ele>
        <time>2012-06-26T16:28:33Z</time>
      </trkpt>
      <trkpt lat="46.27889" lon="-0.71693">
        <ele>55</ele>
        <time>2012-06-26T16:28:38Z</time>
      </trkpt>
      <trkpt lat="46.27896" lon="-0.71693">
        <ele>54</ele>
        <time>2012-06-26T16:28:43Z</time>
      </trkpt>
      <trkpt lat="46.27901" lon="-0.71698">
        <ele>52</ele>
        <time>2012-06-26T16:28:48Z</time>
      </trkpt>
      <trkpt lat="46.27906" lon="-0.71703">
        <ele>50</ele>
        <time>2012-06-26T16:28:53Z</time>
      </trkpt>
      <trkpt lat="46.27911" lon="-0.71706">
        <ele>49</ele>
        <time>2012-06-26T16:28:58Z</time>
      </trkpt>
      <trkpt lat="46.27915" lon="-0.71709">
        <ele>49</ele>
        <time>2012-06-26T16:29:03Z</time>
      </trkpt>
      <trkpt lat="46.27919" lon="-0.7171">
        <ele>49</ele>
        <time>2012-06-26T16:29:08Z</time>
      </trkpt>
      <trkpt lat="46.27924" lon="-0.71713">
        <ele>51</ele>
        <time>2012-06-26T16:29:13Z</time>
      </trkpt>
      <trkpt lat="46.27929" lon="-0.7172">
        <ele>54</ele>
        <time>2012-06-26T16:29:18Z</time>
      </trkpt>
      <trkpt lat="46.27938" lon="-0.71722">
        <ele>52</ele>
        <time>2012-06-26T16:29:23Z</time>
      </trkpt>
      <trkpt lat="46.27943" lon="-0.71725">
        <ele>53</ele>
        <time>2012-06-26T16:29:28Z</time>
      </trkpt>
      <trkpt lat="46.27948" lon="-0.7173">
        <ele>57</ele>
        <time>2012-06-26T16:29:33Z</time>
      </trkpt>
      <trkpt lat="46.27954" lon="-0.71734">
        <ele>59</ele>
        <time>2012-06-26T16:29:38Z</time>
      </trkpt>
      <trkpt lat="46.27957" lon="-0.71734">
        <ele>61</ele>
        <time>2012-06-26T16:29:43Z</time>
      </trkpt>
      <trkpt lat="46.27966" lon="-0.71739">
        <ele>59</ele>
        <time>2012-06-26T16:29:48Z</time>
      </trkpt>
      <trkpt lat="46.27971" lon="-0.71739">
        <ele>60</ele>
        <time>2012-06-26T16:29:53Z</time>
      </trkpt>
      <trkpt lat="46.27977" lon="-0.71741">
        <ele>58</ele>
        <time>2012-06-26T16:29:58Z</time>
      </trkpt>
      <trkpt lat="46.27984" lon="-0.71739">
        <ele>59</ele>
        <time>2012-06-26T16:30:03Z</time>
      </trkpt>
      <trkpt lat="46.27989" lon="-0.71739">
        <ele>60</ele>
        <time>2012-06-26T16:30:08Z</time>
      </trkpt>
      <trkpt lat="46.27992" lon="-0.71741">
        <ele>59</ele>
        <time>2012-06-26T16:30:13Z</time>
      </trkpt>
      <trkpt lat="46.27998" lon="-0.71743">
        <ele>58</ele>
        <time>2012-06-26T16:30:18Z</time>
      </trkpt>
      <trkpt lat="46.28006" lon="-0.7175">
        <ele>59</ele>
        <time>2012-06-26T16:30:23Z</time>
      </trkpt>
      <trkpt lat="46.28011" lon="-0.71753">
        <ele>59</ele>
        <time>2012-06-26T16:30:28Z</time>
      </trkpt>
      <trkpt lat="46.28018" lon="-0.71758">
        <ele>57</ele>
        <time>2012-06-26T16:30:33Z</time>
      </trkpt>
      <trkpt lat="46.28026" lon="-0.71764">
        <ele>55</ele>
        <time>2012-06-26T16:30:38Z</time>
      </trkpt>
      <trkpt lat="46.2803" lon="-0.71769">
        <ele>56</ele>
        <time>2012-06-26T16:30:43Z</time>
      </trkpt>
      <trkpt lat="46.28034" lon="-0.71773">
        <ele>56</ele>
        <time>2012-06-26T16:30:48Z</time>
      </trkpt>
      <trkpt lat="46.28035" lon="-0.71775">
        <ele>56</ele>
        <time>2012-06-26T16:30:53Z</time>
      </trkpt>
      <trkpt lat="46.28043" lon="-0.71782">
        <ele>55</ele>
        <time>2012-06-26T16:30:58Z</time>
      </trkpt>
      <trkpt lat="46.28048" lon="-0.71787">
        <ele>54</ele>
        <time>2012-06-26T16:31:03Z</time>
      </trkpt>
      <trkpt lat="46.2805" lon="-0.7179">
        <ele>53</ele>
        <time>2012-06-26T16:31:08Z</time>
      </trkpt>
      <trkpt lat="46.28055" lon="-0.71794">
        <ele>53</ele>
        <time>2012-06-26T16:31:13Z</time>
      </trkpt>
      <trkpt lat="46.28059" lon="-0.71799">
        <ele>53</ele>
        <time>2012-06-26T16:31:18Z</time>
      </trkpt>
      <trkpt lat="46.28064" lon="-0.71806">
        <ele>53</ele>
        <time>2012-06-26T16:31:23Z</time>
      </trkpt>
      <trkpt lat="46.28068" lon="-0.71814">
        <ele>54</ele>
        <time>2012-06-26T16:31:28Z</time>
      </trkpt>
      <trkpt lat="46.28073" lon="-0.71822">
        <ele>55</ele>
        <time>2012-06-26T16:31:33Z</time>
      </trkpt>
      <trkpt lat="46.28077" lon="-0.7183">
        <ele>55</ele>
        <time>2012-06-26T16:31:38Z</time>
      </trkpt>
      <trkpt lat="46.28081" lon="-0.71837">
        <ele>54</ele>
        <time>2012-06-26T16:31:43Z</time>
      </trkpt>
      <trkpt lat="46.28086" lon="-0.71842">
        <ele>53</ele>
        <time>2012-06-26T16:31:48Z</time>
      </trkpt>
      <trkpt lat="46.28086" lon="-0.71851">
        <ele>55</ele>
        <time>2012-06-26T16:31:53Z</time>
      </trkpt>
      <trkpt lat="46.2809" lon="-0.71857">
        <ele>54</ele>
        <time>2012-06-26T16:31:58Z</time>
      </trkpt>
      <trkpt lat="46.28093" lon="-0.71864">
        <ele>54</ele>
        <time>2012-06-26T16:32:03Z</time>
      </trkpt>
      <trkpt lat="46.28095" lon="-0.7187">
        <ele>54</ele>
        <time>2012-06-26T16:32:08Z</time>
      </trkpt>
      <trkpt lat="46.28096" lon="-0.71878">
        <ele>56</ele>
        <time>2012-06-26T16:32:13Z</time>
      </trkpt>
      <trkpt lat="46.28101" lon="-0.71887">
        <ele>53</ele>
        <time>2012-06-26T16:32:18Z</time>
      </trkpt>
      <trkpt lat="46.28106" lon="-0.71896">
        <ele>52</ele>
        <time>2012-06-26T16:32:23Z</time>
      </trkpt>
      <trkpt lat="46.28109" lon="-0.71905">
        <ele>51</ele>
        <time>2012-06-26T16:32:28Z</time>
      </trkpt>
      <trkpt lat="46.28112" lon="-0.71912">
        <ele>51</ele>
        <time>2012-06-26T16:32:33Z</time>
      </trkpt>
      <trkpt lat="46.28116" lon="-0.71919">
        <ele>50</ele>
        <time>2012-06-26T16:32:38Z</time>
      </trkpt>
      <trkpt lat="46.28119" lon="-0.71926">
        <ele>50</ele>
        <time>2012-06-26T16:32:43Z</time>
      </trkpt>
      <trkpt lat="46.28122" lon="-0.71933">
        <ele>49</ele>
        <time>2012-06-26T16:32:48Z</time>
      </trkpt>
      <trkpt lat="46.28125" lon="-0.71942">
        <ele>49</ele>
        <time>2012-06-26T16:32:53Z</time>
      </trkpt>
      <trkpt lat="46.28129" lon="-0.71948">
        <ele>51</ele>
        <time>2012-06-26T16:32:58Z</time>
      </trkpt>
      <trkpt lat="46.28133" lon="-0.71953">
        <ele>51</ele>
        <time>2012-06-26T16:33:03Z</time>
      </trkpt>
      <trkpt lat="46.28134" lon="-0.7196">
        <ele>52</ele>
        <time>2012-06-26T16:33:08Z</time>
      </trkpt>
      <trkpt lat="46.28137" lon="-0.7197">
        <ele>52</ele>
        <time>2012-06-26T16:33:13Z</time>
      </trkpt>
      <trkpt lat="46.2814" lon="-0.71974">
        <ele>52</ele>
        <time>2012-06-26T16:33:18Z</time>
      </trkpt>
      <trkpt lat="46.28145" lon="-0.71988">
        <ele>53</ele>
        <time>2012-06-26T16:33:23Z</time>
      </trkpt>
      <trkpt lat="46.28146" lon="-0.71996">
        <ele>54</ele>
        <time>2012-06-26T16:33:28Z</time>
      </trkpt>
      <trkpt lat="46.28147" lon="-0.72004">
        <ele>55</ele>
        <time>2012-06-26T16:33:33Z</time>
      </trkpt>
      <trkpt lat="46.28147" lon="-0.72014">
        <ele>54</ele>
        <time>2012-06-26T16:33:38Z</time>
      </trkpt>
      <trkpt lat="46.28151" lon="-0.72022">
        <ele>55</ele>
        <time>2012-06-26T16:33:43Z</time>
      </trkpt>
      <trkpt lat="46.28155" lon="-0.72032">
        <ele>52</ele>
        <time>2012-06-26T16:33:48Z</time>
      </trkpt>
      <trkpt lat="46.28159" lon="-0.7204">
        <ele>51</ele>
        <time>2012-06-26T16:33:53Z</time>
      </trkpt>
      <trkpt lat="46.28162" lon="-0.72048">
        <ele>48</ele>
        <time>2012-06-26T16:33:58Z</time>
      </trkpt>
      <trkpt lat="46.28165" lon="-0.72055">
        <ele>48</ele>
        <time>2012-06-26T16:34:03Z</time>
      </trkpt>
      <trkpt lat="46.2817" lon="-0.72063">
        <ele>48</ele>
        <time>2012-06-26T16:34:08Z</time>
      </trkpt>
      <trkpt lat="46.28174" lon="-0.72071">
        <ele>46</ele>
        <time>2012-06-26T16:34:13Z</time>
      </trkpt>
      <trkpt lat="46.28177" lon="-0.72076">
        <ele>49</ele>
        <time>2012-06-26T16:34:18Z</time>
      </trkpt>
      <trkpt lat="46.28181" lon="-0.72078">
        <ele>52</ele>
        <time>2012-06-26T16:34:23Z</time>
      </trkpt>
      <trkpt lat="46.28188" lon="-0.72081">
        <ele>52</ele>
        <time>2012-06-26T16:34:28Z</time>
      </trkpt>
      <trkpt lat="46.28194" lon="-0.72084">
        <ele>53</ele>
        <time>2012-06-26T16:34:33Z</time>
      </trkpt>
      <trkpt lat="46.282" lon="-0.72084">
        <ele>56</ele>
        <time>2012-06-26T16:34:38Z</time>
      </trkpt>
      <trkpt lat="46.28205" lon="-0.72088">
        <ele>56</ele>
        <time>2012-06-26T16:34:43Z</time>
      </trkpt>
      <trkpt lat="46.2821" lon="-0.72091">
        <ele>57</ele>
        <time>2012-06-26T16:34:48Z</time>
      </trkpt>
      <trkpt lat="46.28212" lon="-0.72095">
        <ele>58</ele>
        <time>2012-06-26T16:34:53Z</time>
      </trkpt>
      <trkpt lat="46.28222" lon="-0.72098">
        <ele>58</ele>
        <time>2012-06-26T16:34:58Z</time>
      </trkpt>
      <trkpt lat="46.28229" lon="-0.721">
        <ele>63</ele>
        <time>2012-06-26T16:35:03Z</time>
      </trkpt>
      <trkpt lat="46.28233" lon="-0.72104">
        <ele>63</ele>
        <time>2012-06-26T16:35:08Z</time>
      </trkpt>
      <trkpt lat="46.28237" lon="-0.72108">
        <ele>64</ele>
        <time>2012-06-26T16:35:13Z</time>
      </trkpt>
      <trkpt lat="46.28243" lon="-0.72113">
        <ele>63</ele>
        <time>2012-06-26T16:35:18Z</time>
      </trkpt>
      <trkpt lat="46.28248" lon="-0.72121">
        <ele>60</ele>
        <time>2012-06-26T16:35:23Z</time>
      </trkpt>
      <trkpt lat="46.28255" lon="-0.7213">
        <ele>55</ele>
        <time>2012-06-26T16:35:28Z</time>
      </trkpt>
      <trkpt lat="46.28259" lon="-0.72139">
        <ele>52</ele>
        <time>2012-06-26T16:35:33Z</time>
      </trkpt>
      <trkpt lat="46.28263" lon="-0.72145">
        <ele>54</ele>
        <time>2012-06-26T16:35:38Z</time>
      </trkpt>
      <trkpt lat="46.28268" lon="-0.72153">
        <ele>54</ele>
        <time>2012-06-26T16:35:43Z</time>
      </trkpt>
      <trkpt lat="46.28272" lon="-0.7216">
        <ele>52</ele>
        <time>2012-06-26T16:35:48Z</time>
      </trkpt>
      <trkpt lat="46.28276" lon="-0.72166">
        <ele>49</ele>
        <time>2012-06-26T16:35:53Z</time>
      </trkpt>
      <trkpt lat="46.2828" lon="-0.72174">
        <ele>48</ele>
        <time>2012-06-26T16:35:58Z</time>
      </trkpt>
      <trkpt lat="46.28282" lon="-0.72187">
        <ele>47</ele>
        <time>2012-06-26T16:36:03Z</time>
      </trkpt>
      <trkpt lat="46.28286" lon="-0.72193">
        <ele>47</ele>
        <time>2012-06-26T16:36:08Z</time>
      </trkpt>
      <trkpt lat="46.28288" lon="-0.72201">
        <ele>46</ele>
        <time>2012-06-26T16:36:13Z</time>
      </trkpt>
      <trkpt lat="46.28293" lon="-0.72209">
        <ele>48</ele>
        <time>2012-06-26T16:36:18Z</time>
      </trkpt>
      <trkpt lat="46.28297" lon="-0.72217">
        <ele>49</ele>
        <time>2012-06-26T16:36:23Z</time>
      </trkpt>
      <trkpt lat="46.28298" lon="-0.72225">
        <ele>50</ele>
        <time>2012-06-26T16:36:28Z</time>
      </trkpt>
      <trkpt lat="46.28302" lon="-0.72231">
        <ele>51</ele>
        <time>2012-06-26T16:36:33Z</time>
      </trkpt>
      <trkpt lat="46.28305" lon="-0.72237">
        <ele>52</ele>
        <time>2012-06-26T16:36:38Z</time>
      </trkpt>
      <trkpt lat="46.28306" lon="-0.72242">
        <ele>52</ele>
        <time>2012-06-26T16:36:43Z</time>
      </trkpt>
      <trkpt lat="46.28309" lon="-0.72252">
        <ele>49</ele>
        <time>2012-06-26T16:36:48Z</time>
      </trkpt>
      <trkpt lat="46.28312" lon="-0.72258">
        <ele>50</ele>
        <time>2012-06-26T16:36:53Z</time>
      </trkpt>
      <trkpt lat="46.28314" lon="-0.72264">
        <ele>50</ele>
        <time>2012-06-26T16:36:58Z</time>
      </trkpt>
      <trkpt lat="46.2832" lon="-0.72274">
        <ele>49</ele>
        <time>2012-06-26T16:37:03Z</time>
      </trkpt>
      <trkpt lat="46.28321" lon="-0.72282">
        <ele>46</ele>
        <time>2012-06-26T16:37:08Z</time>
      </trkpt>
      <trkpt lat="46.28325" lon="-0.72288">
        <ele>46</ele>
        <time>2012-06-26T16:37:13Z</time>
      </trkpt>
      <trkpt lat="46.28327" lon="-0.72295">
        <ele>47</ele>
        <time>2012-06-26T16:37:18Z</time>
      </trkpt>
      <trkpt lat="46.28332" lon="-0.72302">
        <ele>46</ele>
        <time>2012-06-26T16:37:23Z</time>
      </trkpt>
      <trkpt lat="46.28335" lon="-0.72305">
        <ele>47</ele>
        <time>2012-06-26T16:37:28Z</time>
      </trkpt>
      <trkpt lat="46.28338" lon="-0.7231">
        <ele>49</ele>
        <time>2012-06-26T16:37:33Z</time>
      </trkpt>
      <trkpt lat="46.28343" lon="-0.72316">
        <ele>50</ele>
        <time>2012-06-26T16:37:38Z</time>
      </trkpt>
      <trkpt lat="46.28347" lon="-0.72324">
        <ele>50</ele>
        <time>2012-06-26T16:37:43Z</time>
      </trkpt>
      <trkpt lat="46.2835" lon="-0.72331">
        <ele>49</ele>
        <time>2012-06-26T16:37:48Z</time>
      </trkpt>
      <trkpt lat="46.28352" lon="-0.72341">
        <ele>43</ele>
        <time>2012-06-26T16:37:53Z</time>
      </trkpt>
      <trkpt lat="46.28357" lon="-0.72346">
        <ele>46</ele>
        <time>2012-06-26T16:37:58Z</time>
      </trkpt>
      <trkpt lat="46.2836" lon="-0.72348">
        <ele>49</ele>
        <time>2012-06-26T16:38:03Z</time>
      </trkpt>
      <trkpt lat="46.28367" lon="-0.72353">
        <ele>50</ele>
        <time>2012-06-26T16:38:08Z</time>
      </trkpt>
      <trkpt lat="46.28369" lon="-0.7236">
        <ele>51</ele>
        <time>2012-06-26T16:38:13Z</time>
      </trkpt>
      <trkpt lat="46.28374" lon="-0.72364">
        <ele>53</ele>
        <time>2012-06-26T16:38:18Z</time>
      </trkpt>
      <trkpt lat="46.28379" lon="-0.72371">
        <ele>53</ele>
        <time>2012-06-26T16:38:23Z</time>
      </trkpt>
      <trkpt lat="46.28382" lon="-0.72377">
        <ele>54</ele>
        <time>2012-06-26T16:38:28Z</time>
      </trkpt>
      <trkpt lat="46.28384" lon="-0.7238">
        <ele>55</ele>
        <time>2012-06-26T16:38:33Z</time>
      </trkpt>
      <trkpt lat="46.28391" lon="-0.72388">
        <ele>54</ele>
        <time>2012-06-26T16:38:38Z</time>
      </trkpt>
      <trkpt lat="46.28395" lon="-0.72396">
        <ele>52</ele>
        <time>2012-06-26T16:38:43Z</time>
      </trkpt>
      <trkpt lat="46.28398" lon="-0.724">
        <ele>53</ele>
        <time>2012-06-26T16:38:48Z</time>
      </trkpt>
      <trkpt lat="46.28403" lon="-0.72408">
        <ele>54</ele>
        <time>2012-06-26T16:38:53Z</time>
      </trkpt>
      <trkpt lat="46.28407" lon="-0.72415">
        <ele>54</ele>
        <time>2012-06-26T16:38:58Z</time>
      </trkpt>
      <trkpt lat="46.28411" lon="-0.72422">
        <ele>53</ele>
        <time>2012-06-26T16:39:03Z</time>
      </trkpt>
      <trkpt lat="46.28415" lon="-0.72428">
        <ele>53</ele>
        <time>2012-06-26T16:39:08Z</time>
      </trkpt>
      <trkpt lat="46.28419" lon="-0.72433">
        <ele>53</ele>
        <time>2012-06-26T16:39:13Z</time>
      </trkpt>
      <trkpt lat="46.28423" lon="-0.72438">
        <ele>53</ele>
        <time>2012-06-26T16:39:18Z</time>
      </trkpt>
      <trkpt lat="46.28427" lon="-0.72447">
        <ele>53</ele>
        <time>2012-06-26T16:39:23Z</time>
      </trkpt>
      <trkpt lat="46.28431" lon="-0.72453">
        <ele>54</ele>
        <time>2012-06-26T16:39:28Z</time>
      </trkpt>
      <trkpt lat="46.28435" lon="-0.72459">
        <ele>54</ele>
        <time>2012-06-26T16:39:33Z</time>
      </trkpt>
      <trkpt lat="46.28441" lon="-0.72466">
        <ele>54</ele>
        <time>2012-06-26T16:39:38Z</time>
      </trkpt>
      <trkpt lat="46.28442" lon="-0.72475">
        <ele>54</ele>
        <time>2012-06-26T16:39:43Z</time>
      </trkpt>
      <trkpt lat="46.28447" lon="-0.72483">
        <ele>54</ele>
        <time>2012-06-26T16:39:48Z</time>
      </trkpt>
      <trkpt lat="46.28452" lon="-0.72488">
        <ele>53</ele>
        <time>2012-06-26T16:39:53Z</time>
      </trkpt>
      <trkpt lat="46.28456" lon="-0.72495">
        <ele>52</ele>
        <time>2012-06-26T16:39:58Z</time>
      </trkpt>
      <trkpt lat="46.28461" lon="-0.72502">
        <ele>53</ele>
        <time>2012-06-26T16:40:03Z</time>
      </trkpt>
      <trkpt lat="46.28465" lon="-0.72508">
        <ele>51</ele>
        <time>2012-06-26T16:40:08Z</time>
      </trkpt>
      <trkpt lat="46.28469" lon="-0.72515">
        <ele>52</ele>
        <time>2012-06-26T16:40:13Z</time>
      </trkpt>
      <trkpt lat="46.28472" lon="-0.72522">
        <ele>51</ele>
        <time>2012-06-26T16:40:18Z</time>
      </trkpt>
      <trkpt lat="46.28477" lon="-0.72529">
        <ele>50</ele>
        <time>2012-06-26T16:40:23Z</time>
      </trkpt>
      <trkpt lat="46.28482" lon="-0.72537">
        <ele>51</ele>
        <time>2012-06-26T16:40:28Z</time>
      </trkpt>
      <trkpt lat="46.28486" lon="-0.72541">
        <ele>52</ele>
        <time>2012-06-26T16:40:33Z</time>
      </trkpt>
      <trkpt lat="46.2849" lon="-0.72546">
        <ele>55</ele>
        <time>2012-06-26T16:40:38Z</time>
      </trkpt>
      <trkpt lat="46.28493" lon="-0.72548">
        <ele>58</ele>
        <time>2012-06-26T16:40:43Z</time>
      </trkpt>
      <trkpt lat="46.28498" lon="-0.72548">
        <ele>58</ele>
        <time>2012-06-26T16:40:48Z</time>
      </trkpt>
      <trkpt lat="46.28503" lon="-0.72551">
        <ele>55</ele>
        <time>2012-06-26T16:40:53Z</time>
      </trkpt>
      <trkpt lat="46.2851" lon="-0.72554">
        <ele>54</ele>
        <time>2012-06-26T16:40:58Z</time>
      </trkpt>
      <trkpt lat="46.28512" lon="-0.72553">
        <ele>56</ele>
        <time>2012-06-26T16:41:03Z</time>
      </trkpt>
      <trkpt lat="46.28518" lon="-0.72549">
        <ele>58</ele>
        <time>2012-06-26T16:41:08Z</time>
      </trkpt>
      <trkpt lat="46.28526" lon="-0.7255">
        <ele>59</ele>
        <time>2012-06-26T16:41:13Z</time>
      </trkpt>
      <trkpt lat="46.28532" lon="-0.7255">
        <ele>60</ele>
        <time>2012-06-26T16:41:18Z</time>
      </trkpt>
      <trkpt lat="46.28537" lon="-0.72549">
        <ele>61</ele>
        <time>2012-06-26T16:41:23Z</time>
      </trkpt>
      <trkpt lat="46.28542" lon="-0.72549">
        <ele>63</ele>
        <time>2012-06-26T16:41:28Z</time>
      </trkpt>
      <trkpt lat="46.28546" lon="-0.72552">
        <ele>63</ele>
        <time>2012-06-26T16:41:33Z</time>
      </trkpt>
      <trkpt lat="46.28551" lon="-0.72559">
        <ele>64</ele>
        <time>2012-06-26T16:41:38Z</time>
      </trkpt>
      <trkpt lat="46.28557" lon="-0.72561">
        <ele>62</ele>
        <time>2012-06-26T16:41:43Z</time>
      </trkpt>
      <trkpt lat="46.28563" lon="-0.72564">
        <ele>61</ele>
        <time>2012-06-26T16:41:48Z</time>
      </trkpt>
      <trkpt lat="46.28569" lon="-0.7257">
        <ele>60</ele>
        <time>2012-06-26T16:41:53Z</time>
      </trkpt>
      <trkpt lat="46.28573" lon="-0.72571">
        <ele>60</ele>
        <time>2012-06-26T16:41:58Z</time>
      </trkpt>
      <trkpt lat="46.28575" lon="-0.7257">
        <ele>60</ele>
        <time>2012-06-26T16:42:03Z</time>
      </trkpt>
      <trkpt lat="46.28579" lon="-0.72567">
        <ele>60</ele>
        <time>2012-06-26T16:42:08Z</time>
      </trkpt>
      <trkpt lat="46.28585" lon="-0.72563">
        <ele>58</ele>
        <time>2012-06-26T16:42:13Z</time>
      </trkpt>
      <trkpt lat="46.28591" lon="-0.72561">
        <ele>57</ele>
        <time>2012-06-26T16:42:18Z</time>
      </trkpt>
      <trkpt lat="46.28593" lon="-0.72556">
        <ele>58</ele>
        <time>2012-06-26T16:42:23Z</time>
      </trkpt>
      <trkpt lat="46.28594" lon="-0.72554">
        <ele>58</ele>
        <time>2012-06-26T16:42:28Z</time>
      </trkpt>
      <trkpt lat="46.28598" lon="-0.72547">
        <ele>58</ele>
        <time>2012-06-26T16:42:33Z</time>
      </trkpt>
      <trkpt lat="46.28605" lon="-0.72538">
        <ele>59</ele>
        <time>2012-06-26T16:42:38Z</time>
      </trkpt>
      <trkpt lat="46.28608" lon="-0.72532">
        <ele>60</ele>
        <time>2012-06-26T16:42:43Z</time>
      </trkpt>
      <trkpt lat="46.28612" lon="-0.72526">
        <ele>60</ele>
        <time>2012-06-26T16:42:48Z</time>
      </trkpt>
      <trkpt lat="46.28617" lon="-0.72519">
        <ele>62</ele>
        <time>2012-06-26T16:42:53Z</time>
      </trkpt>
      <trkpt lat="46.2862" lon="-0.72514">
        <ele>62</ele>
        <time>2012-06-26T16:42:58Z</time>
      </trkpt>
      <trkpt lat="46.28623" lon="-0.7251">
        <ele>62</ele>
        <time>2012-06-26T16:43:03Z</time>
      </trkpt>
      <trkpt lat="46.28627" lon="-0.72507">
        <ele>61</ele>
        <time>2012-06-26T16:43:08Z</time>
      </trkpt>
      <trkpt lat="46.28633" lon="-0.72501">
        <ele>60</ele>
        <time>2012-06-26T16:43:13Z</time>
      </trkpt>
      <trkpt lat="46.28635" lon="-0.72499">
        <ele>58</ele>
        <time>2012-06-26T16:43:18Z</time>
      </trkpt>
      <trkpt lat="46.28639" lon="-0.72492">
        <ele>58</ele>
        <time>2012-06-26T16:43:23Z</time>
      </trkpt>
      <trkpt lat="46.28641" lon="-0.72488">
        <ele>57</ele>
        <time>2012-06-26T16:43:28Z</time>
      </trkpt>
      <trkpt lat="46.28644" lon="-0.72483">
        <ele>58</ele>
        <time>2012-06-26T16:43:33Z</time>
      </trkpt>
      <trkpt lat="46.28645" lon="-0.72478">
        <ele>59</ele>
        <time>2012-06-26T16:43:38Z</time>
      </trkpt>
      <trkpt lat="46.28645" lon="-0.72473">
        <ele>59</ele>
        <time>2012-06-26T16:43:43Z</time>
      </trkpt>
      <trkpt lat="46.28649" lon="-0.72465">
        <ele>59</ele>
        <time>2012-06-26T16:43:48Z</time>
      </trkpt>
      <trkpt lat="46.28653" lon="-0.72459">
        <ele>61</ele>
        <time>2012-06-26T16:43:53Z</time>
      </trkpt>
      <trkpt lat="46.28657" lon="-0.72453">
        <ele>61</ele>
        <time>2012-06-26T16:43:58Z</time>
      </trkpt>
      <trkpt lat="46.28656" lon="-0.72451">
        <ele>59</ele>
        <time>2012-06-26T16:44:03Z</time>
      </trkpt>
      <trkpt lat="46.28656" lon="-0.72451">
        <ele>59</ele>
        <time>2012-06-26T16:44:23Z</time>
      </trkpt>
    </trkseg>
  </trk>
</gpx>